<?xml version='1.0' encoding='UTF-8'?>
<gpx version="1.1" creator="https://www.komoot.de" xmlns="http://www.topografix.com/GPX/1/1" xmlns:xsi="http://www.w3.org/2001/XMLSchema-instance" xsi:schemaLocation="http://www.topografix.com/GPX/1/1 http://www.topografix.com/GPX/1/1/gpx.xsd">
  <metadata>
    <name>RTF 2026 - Tour 3 (75 km - 740 hm)</name>
    <author>
      <link href="https://www.komoot.de">
        <text>komoot</text>
        <type>text/html</type>
      </link>
    </author>
  </metadata>
  <trk>
    <name>RTF 2026 - Tour 3 (75 km - 740 hm)</name>
    <trkseg>
      <trkpt lat="48.581898" lon="10.022061">
        <ele>604.042764</ele>
        <time>2025-11-10T18:33:01.082Z</time>
      </trkpt>
      <trkpt lat="48.581589" lon="10.022428">
        <ele>604.042764</ele>
        <time>2025-11-10T18:33:06.318Z</time>
      </trkpt>
      <trkpt lat="48.581327" lon="10.022431">
        <ele>604.042764</ele>
        <time>2025-11-10T18:33:09.753Z</time>
      </trkpt>
      <trkpt lat="48.581224" lon="10.022377">
        <ele>604.042764</ele>
        <time>2025-11-10T18:33:11.162Z</time>
      </trkpt>
      <trkpt lat="48.581097" lon="10.023435">
        <ele>601.289636</ele>
        <time>2025-11-10T18:33:29.662Z</time>
      </trkpt>
      <trkpt lat="48.581012" lon="10.023558">
        <ele>600.727236</ele>
        <time>2025-11-10T18:33:31.231Z</time>
      </trkpt>
      <trkpt lat="48.580982" lon="10.023956">
        <ele>599.460662</ele>
        <time>2025-11-10T18:33:34.859Z</time>
      </trkpt>
      <trkpt lat="48.580947" lon="10.024679">
        <ele>597.168501</ele>
        <time>2025-11-10T18:33:41.594Z</time>
      </trkpt>
      <trkpt lat="48.580945" lon="10.024714">
        <ele>597.057422</ele>
        <time>2025-11-10T18:33:41.918Z</time>
      </trkpt>
      <trkpt lat="48.580915" lon="10.024863">
        <ele>596.564964</ele>
        <time>2025-11-10T18:33:43.414Z</time>
      </trkpt>
      <trkpt lat="48.580886" lon="10.024850">
        <ele>596.420394</ele>
        <time>2025-11-10T18:33:43.708Z</time>
      </trkpt>
      <trkpt lat="48.580714" lon="10.024771">
        <ele>595.561217</ele>
        <time>2025-11-10T18:33:45.537Z</time>
      </trkpt>
      <trkpt lat="48.580611" lon="10.024723">
        <ele>595.239857</ele>
        <time>2025-11-10T18:33:46.646Z</time>
      </trkpt>
      <trkpt lat="48.580554" lon="10.024692">
        <ele>595.090533</ele>
        <time>2025-11-10T18:33:47.274Z</time>
      </trkpt>
      <trkpt lat="48.580419" lon="10.024618">
        <ele>594.736550</ele>
        <time>2025-11-10T18:33:48.793Z</time>
      </trkpt>
      <trkpt lat="48.580329" lon="10.024568">
        <ele>594.500189</ele>
        <time>2025-11-10T18:33:49.836Z</time>
      </trkpt>
      <trkpt lat="48.580237" lon="10.024511">
        <ele>594.255096</ele>
        <time>2025-11-10T18:33:50.919Z</time>
      </trkpt>
      <trkpt lat="48.580188" lon="10.024480">
        <ele>594.124158</ele>
        <time>2025-11-10T18:33:51.497Z</time>
      </trkpt>
      <trkpt lat="48.579965" lon="10.024335">
        <ele>593.525757</ele>
        <time>2025-11-10T18:33:54.160Z</time>
      </trkpt>
      <trkpt lat="48.579892" lon="10.024283">
        <ele>593.326830</ele>
        <time>2025-11-10T18:33:55.042Z</time>
      </trkpt>
      <trkpt lat="48.579817" lon="10.024230">
        <ele>593.122747</ele>
        <time>2025-11-10T18:33:55.930Z</time>
      </trkpt>
      <trkpt lat="48.579613" lon="10.024085">
        <ele>592.567061</ele>
        <time>2025-11-10T18:33:58.316Z</time>
      </trkpt>
      <trkpt lat="48.579588" lon="10.024066">
        <ele>592.498084</ele>
        <time>2025-11-10T18:33:58.607Z</time>
      </trkpt>
      <trkpt lat="48.579394" lon="10.023929">
        <ele>591.970254</ele>
        <time>2025-11-10T18:34:00.841Z</time>
      </trkpt>
      <trkpt lat="48.579333" lon="10.023887">
        <ele>591.805023</ele>
        <time>2025-11-10T18:34:01.535Z</time>
      </trkpt>
      <trkpt lat="48.579255" lon="10.023835">
        <ele>591.594881</ele>
        <time>2025-11-10T18:34:02.437Z</time>
      </trkpt>
      <trkpt lat="48.578974" lon="10.023646">
        <ele>590.963010</ele>
        <time>2025-11-10T18:34:05.738Z</time>
      </trkpt>
      <trkpt lat="48.578934" lon="10.023617">
        <ele>590.932189</ele>
        <time>2025-11-10T18:34:06.214Z</time>
      </trkpt>
      <trkpt lat="48.578648" lon="10.023459">
        <ele>590.720638</ele>
        <time>2025-11-10T18:34:09.606Z</time>
      </trkpt>
      <trkpt lat="48.578583" lon="10.023427">
        <ele>590.673145</ele>
        <time>2025-11-10T18:34:10.367Z</time>
      </trkpt>
      <trkpt lat="48.578421" lon="10.023351">
        <ele>590.555301</ele>
        <time>2025-11-10T18:34:12.318Z</time>
      </trkpt>
      <trkpt lat="48.578292" lon="10.023299">
        <ele>590.462547</ele>
        <time>2025-11-10T18:34:13.855Z</time>
      </trkpt>
      <trkpt lat="48.578296" lon="10.023189">
        <ele>590.411910</ele>
        <time>2025-11-10T18:34:15.081Z</time>
      </trkpt>
      <trkpt lat="48.578267" lon="10.023098">
        <ele>590.365484</ele>
        <time>2025-11-10T18:34:16.178Z</time>
      </trkpt>
      <trkpt lat="48.578091" lon="10.022719">
        <ele>590.152652</ele>
        <time>2025-11-10T18:34:21.782Z</time>
      </trkpt>
      <trkpt lat="48.578041" lon="10.022587">
        <ele>590.082739</ele>
        <time>2025-11-10T18:34:23.981Z</time>
      </trkpt>
      <trkpt lat="48.577999" lon="10.022420">
        <ele>590.000620</ele>
        <time>2025-11-10T18:34:26.758Z</time>
      </trkpt>
      <trkpt lat="48.577987" lon="10.022360">
        <ele>589.971810</ele>
        <time>2025-11-10T18:34:27.817Z</time>
      </trkpt>
      <trkpt lat="48.577928" lon="10.022045">
        <ele>589.821333</ele>
        <time>2025-11-10T18:34:33.407Z</time>
      </trkpt>
      <trkpt lat="48.577907" lon="10.021930">
        <ele>589.766498</ele>
        <time>2025-11-10T18:34:35.551Z</time>
      </trkpt>
      <trkpt lat="48.577882" lon="10.021799">
        <ele>589.721930</ele>
        <time>2025-11-10T18:34:37.926Z</time>
      </trkpt>
      <trkpt lat="48.577839" lon="10.021571">
        <ele>589.646302</ele>
        <time>2025-11-10T18:34:41.982Z</time>
      </trkpt>
      <trkpt lat="48.577784" lon="10.021283">
        <ele>589.550682</ele>
        <time>2025-11-10T18:34:46.713Z</time>
      </trkpt>
      <trkpt lat="48.577678" lon="10.020735">
        <ele>589.368556</ele>
        <time>2025-11-10T18:34:54.594Z</time>
      </trkpt>
      <trkpt lat="48.577606" lon="10.020768">
        <ele>589.332280</ele>
        <time>2025-11-10T18:34:55.614Z</time>
      </trkpt>
      <trkpt lat="48.577244" lon="10.020934">
        <ele>589.149886</ele>
        <time>2025-11-10T18:35:00.581Z</time>
      </trkpt>
      <trkpt lat="48.576989" lon="10.021065">
        <ele>589.020029</ele>
        <time>2025-11-10T18:35:03.847Z</time>
      </trkpt>
      <trkpt lat="48.576781" lon="10.021163">
        <ele>588.914983</ele>
        <time>2025-11-10T18:35:06.289Z</time>
      </trkpt>
      <trkpt lat="48.575876" lon="10.021589">
        <ele>586.049216</ele>
        <time>2025-11-10T18:35:15.877Z</time>
      </trkpt>
      <trkpt lat="48.575676" lon="10.021610">
        <ele>585.420720</ele>
        <time>2025-11-10T18:35:17.852Z</time>
      </trkpt>
      <trkpt lat="48.575278" lon="10.021600">
        <ele>584.172847</ele>
        <time>2025-11-10T18:35:21.900Z</time>
      </trkpt>
      <trkpt lat="48.574680" lon="10.021585">
        <ele>581.898705</ele>
        <time>2025-11-10T18:35:27.933Z</time>
      </trkpt>
      <trkpt lat="48.574682" lon="10.020581">
        <ele>578.949542</ele>
        <time>2025-11-10T18:35:34.221Z</time>
      </trkpt>
      <trkpt lat="48.573909" lon="10.020090">
        <ele>575.256443</ele>
        <time>2025-11-10T18:35:42.130Z</time>
      </trkpt>
      <trkpt lat="48.573184" lon="10.019516">
        <ele>574.000958</ele>
        <time>2025-11-10T18:35:50.126Z</time>
      </trkpt>
      <trkpt lat="48.573214" lon="10.016270">
        <ele>573.633965</ele>
        <time>2025-11-10T18:36:28.900Z</time>
      </trkpt>
      <trkpt lat="48.573223" lon="10.015328">
        <ele>574.228096</ele>
        <time>2025-11-10T18:36:41.022Z</time>
      </trkpt>
      <trkpt lat="48.573243" lon="10.013221">
        <ele>576.017228</ele>
        <time>2025-11-10T18:37:08.773Z</time>
      </trkpt>
      <trkpt lat="48.573263" lon="10.011038">
        <ele>577.798504</ele>
        <time>2025-11-10T18:37:38.970Z</time>
      </trkpt>
      <trkpt lat="48.573299" lon="10.007169">
        <ele>580.122839</ele>
        <time>2025-11-10T18:38:25.346Z</time>
      </trkpt>
      <trkpt lat="48.573300" lon="10.007039">
        <ele>580.164374</ele>
        <time>2025-11-10T18:38:26.737Z</time>
      </trkpt>
      <trkpt lat="48.571778" lon="10.007010">
        <ele>580.899315</ele>
        <time>2025-11-10T18:38:59.686Z</time>
      </trkpt>
      <trkpt lat="48.570250" lon="10.006967">
        <ele>581.341429</ele>
        <time>2025-11-10T18:39:35.075Z</time>
      </trkpt>
      <trkpt lat="48.568719" lon="10.006894">
        <ele>580.781463</ele>
        <time>2025-11-10T18:40:02.361Z</time>
      </trkpt>
      <trkpt lat="48.567241" lon="10.006266">
        <ele>579.829454</ele>
        <time>2025-11-10T18:40:30.620Z</time>
      </trkpt>
      <trkpt lat="48.564276" lon="10.005006">
        <ele>577.918726</ele>
        <time>2025-11-10T18:41:26.431Z</time>
      </trkpt>
      <trkpt lat="48.560511" lon="10.002911">
        <ele>577.359353</ele>
        <time>2025-11-10T18:42:42.854Z</time>
      </trkpt>
      <trkpt lat="48.557545" lon="10.001280">
        <ele>582.209873</ele>
        <time>2025-11-10T18:44:07.506Z</time>
      </trkpt>
      <trkpt lat="48.555768" lon="10.000315">
        <ele>586.994859</ele>
        <time>2025-11-10T18:45:10.285Z</time>
      </trkpt>
      <trkpt lat="48.555526" lon="10.000182">
        <ele>587.280647</ele>
        <time>2025-11-10T18:45:16.169Z</time>
      </trkpt>
      <trkpt lat="48.555395" lon="10.000109">
        <ele>587.435604</ele>
        <time>2025-11-10T18:45:19.079Z</time>
      </trkpt>
      <trkpt lat="48.555166" lon="9.999948">
        <ele>587.715918</ele>
        <time>2025-11-10T18:45:23.848Z</time>
      </trkpt>
      <trkpt lat="48.555046" lon="9.999859">
        <ele>587.864275</ele>
        <time>2025-11-10T18:45:26.145Z</time>
      </trkpt>
      <trkpt lat="48.555023" lon="9.999913">
        <ele>587.911445</ele>
        <time>2025-11-10T18:45:26.850Z</time>
      </trkpt>
      <trkpt lat="48.554736" lon="10.000198">
        <ele>588.292600</ele>
        <time>2025-11-10T18:45:32.075Z</time>
      </trkpt>
      <trkpt lat="48.554426" lon="9.999681">
        <ele>588.384180</ele>
        <time>2025-11-10T18:45:37.898Z</time>
      </trkpt>
      <trkpt lat="48.554264" lon="9.999440">
        <ele>588.138233</ele>
        <time>2025-11-10T18:45:40.608Z</time>
      </trkpt>
      <trkpt lat="48.554148" lon="9.999299">
        <ele>587.977175</ele>
        <time>2025-11-10T18:45:42.367Z</time>
      </trkpt>
      <trkpt lat="48.553887" lon="9.999061">
        <ele>587.647388</ele>
        <time>2025-11-10T18:45:46.003Z</time>
      </trkpt>
      <trkpt lat="48.553662" lon="9.998856">
        <ele>587.363153</ele>
        <time>2025-11-10T18:45:49.131Z</time>
      </trkpt>
      <trkpt lat="48.553633" lon="9.998825">
        <ele>587.324723</ele>
        <time>2025-11-10T18:45:49.551Z</time>
      </trkpt>
      <trkpt lat="48.553540" lon="9.998729">
        <ele>587.202877</ele>
        <time>2025-11-10T18:45:50.872Z</time>
      </trkpt>
      <trkpt lat="48.553379" lon="9.998562">
        <ele>586.991612</ele>
        <time>2025-11-10T18:45:53.163Z</time>
      </trkpt>
      <trkpt lat="48.553326" lon="9.998506">
        <ele>586.921647</ele>
        <time>2025-11-10T18:45:53.930Z</time>
      </trkpt>
      <trkpt lat="48.553238" lon="9.998411">
        <ele>586.804645</ele>
        <time>2025-11-10T18:45:55.203Z</time>
      </trkpt>
      <trkpt lat="48.553055" lon="9.998200">
        <ele>586.562221</ele>
        <time>2025-11-10T18:45:57.924Z</time>
      </trkpt>
      <trkpt lat="48.552879" lon="9.998004">
        <ele>586.342947</ele>
        <time>2025-11-10T18:46:00.530Z</time>
      </trkpt>
      <trkpt lat="48.552783" lon="9.997916">
        <ele>586.230336</ele>
        <time>2025-11-10T18:46:01.896Z</time>
      </trkpt>
      <trkpt lat="48.552669" lon="9.997813">
        <ele>586.097125</ele>
        <time>2025-11-10T18:46:03.526Z</time>
      </trkpt>
      <trkpt lat="48.552648" lon="9.997793">
        <ele>586.072230</ele>
        <time>2025-11-10T18:46:03.832Z</time>
      </trkpt>
      <trkpt lat="48.552482" lon="9.997618">
        <ele>585.869230</ele>
        <time>2025-11-10T18:46:06.321Z</time>
      </trkpt>
      <trkpt lat="48.552366" lon="9.997481">
        <ele>585.721569</ele>
        <time>2025-11-10T18:46:08.123Z</time>
      </trkpt>
      <trkpt lat="48.552332" lon="9.997567">
        <ele>585.655073</ele>
        <time>2025-11-10T18:46:15.256Z</time>
      </trkpt>
      <trkpt lat="48.552366" lon="9.997481">
        <ele>585.588577</ele>
        <time>2025-11-10T18:46:22.339Z</time>
      </trkpt>
      <trkpt lat="48.552325" lon="9.997433">
        <ele>585.536559</ele>
        <time>2025-11-10T18:46:22.979Z</time>
      </trkpt>
      <trkpt lat="48.552307" lon="9.997412">
        <ele>585.513751</ele>
        <time>2025-11-10T18:46:23.249Z</time>
      </trkpt>
      <trkpt lat="48.552091" lon="9.997223">
        <ele>585.263424</ele>
        <time>2025-11-10T18:46:26.223Z</time>
      </trkpt>
      <trkpt lat="48.552051" lon="9.997188">
        <ele>585.217067</ele>
        <time>2025-11-10T18:46:26.778Z</time>
      </trkpt>
      <trkpt lat="48.551782" lon="9.996886">
        <ele>584.880963</ele>
        <time>2025-11-10T18:46:30.873Z</time>
      </trkpt>
      <trkpt lat="48.551697" lon="9.996788">
        <ele>584.798381</ele>
        <time>2025-11-10T18:46:32.268Z</time>
      </trkpt>
      <trkpt lat="48.551467" lon="9.996523">
        <ele>584.612394</ele>
        <time>2025-11-10T18:46:36.187Z</time>
      </trkpt>
      <trkpt lat="48.551445" lon="9.996500">
        <ele>584.595191</ele>
        <time>2025-11-10T18:46:36.543Z</time>
      </trkpt>
      <trkpt lat="48.551376" lon="9.996425">
        <ele>584.540535</ele>
        <time>2025-11-10T18:46:37.673Z</time>
      </trkpt>
      <trkpt lat="48.551337" lon="9.996383">
        <ele>584.509740</ele>
        <time>2025-11-10T18:46:38.298Z</time>
      </trkpt>
      <trkpt lat="48.551190" lon="9.996236">
        <ele>584.396390</ele>
        <time>2025-11-10T18:46:40.578Z</time>
      </trkpt>
      <trkpt lat="48.551167" lon="9.996213">
        <ele>584.378655</ele>
        <time>2025-11-10T18:46:40.939Z</time>
      </trkpt>
      <trkpt lat="48.551009" lon="9.996056">
        <ele>584.257058</ele>
        <time>2025-11-10T18:46:43.334Z</time>
      </trkpt>
      <trkpt lat="48.550949" lon="9.996003">
        <ele>584.212368</ele>
        <time>2025-11-10T18:46:44.224Z</time>
      </trkpt>
      <trkpt lat="48.550832" lon="9.995901">
        <ele>584.125511</ele>
        <time>2025-11-10T18:46:45.959Z</time>
      </trkpt>
      <trkpt lat="48.550598" lon="9.995695">
        <ele>583.951371</ele>
        <time>2025-11-10T18:46:49.491Z</time>
      </trkpt>
      <trkpt lat="48.550354" lon="9.996410">
        <ele>583.552337</ele>
        <time>2025-11-10T18:46:56.617Z</time>
      </trkpt>
      <trkpt lat="48.550194" lon="9.996811">
        <ele>583.206325</ele>
        <time>2025-11-10T18:47:00.696Z</time>
      </trkpt>
      <trkpt lat="48.549669" lon="9.997745">
        <ele>582.300816</ele>
        <time>2025-11-10T18:47:10.258Z</time>
      </trkpt>
      <trkpt lat="48.549268" lon="9.998389">
        <ele>581.669111</ele>
        <time>2025-11-10T18:47:17.033Z</time>
      </trkpt>
      <trkpt lat="48.548974" lon="9.998807">
        <ele>581.538618</ele>
        <time>2025-11-10T18:47:21.706Z</time>
      </trkpt>
      <trkpt lat="48.548533" lon="9.999296">
        <ele>581.361803</ele>
        <time>2025-11-10T18:47:28.358Z</time>
      </trkpt>
      <trkpt lat="48.548138" lon="9.999786">
        <ele>581.196602</ele>
        <time>2025-11-10T18:47:36.199Z</time>
      </trkpt>
      <trkpt lat="48.548064" lon="9.999968">
        <ele>581.150902</ele>
        <time>2025-11-10T18:47:38.785Z</time>
      </trkpt>
      <trkpt lat="48.547776" lon="9.999902">
        <ele>581.290925</ele>
        <time>2025-11-10T18:47:44.541Z</time>
      </trkpt>
      <trkpt lat="48.545902" lon="9.999472">
        <ele>583.835776</ele>
        <time>2025-11-10T18:48:27.474Z</time>
      </trkpt>
      <trkpt lat="48.541031" lon="9.998379">
        <ele>581.938150</ele>
        <time>2025-11-10T18:49:30.606Z</time>
      </trkpt>
      <trkpt lat="48.540347" lon="9.998211">
        <ele>582.669224</ele>
        <time>2025-11-10T18:49:43.813Z</time>
      </trkpt>
      <trkpt lat="48.537363" lon="9.996760">
        <ele>588.528602</ele>
        <time>2025-11-10T18:50:58.579Z</time>
      </trkpt>
      <trkpt lat="48.535228" lon="9.995744">
        <ele>588.504002</ele>
        <time>2025-11-10T18:51:29.815Z</time>
      </trkpt>
      <trkpt lat="48.534494" lon="9.995271">
        <ele>588.238068</ele>
        <time>2025-11-10T18:51:39.625Z</time>
      </trkpt>
      <trkpt lat="48.534130" lon="9.995071">
        <ele>588.108991</ele>
        <time>2025-11-10T18:51:44.927Z</time>
      </trkpt>
      <trkpt lat="48.533411" lon="9.994775">
        <ele>588.452240</ele>
        <time>2025-11-10T18:51:58.280Z</time>
      </trkpt>
      <trkpt lat="48.533267" lon="9.994737">
        <ele>588.560470</ele>
        <time>2025-11-10T18:52:01.284Z</time>
      </trkpt>
      <trkpt lat="48.533063" lon="9.994705">
        <ele>588.712320</ele>
        <time>2025-11-10T18:52:05.600Z</time>
      </trkpt>
      <trkpt lat="48.532779" lon="9.994662">
        <ele>588.923642</ele>
        <time>2025-11-10T18:52:11.442Z</time>
      </trkpt>
      <trkpt lat="48.532693" lon="9.994633">
        <ele>588.988882</ele>
        <time>2025-11-10T18:52:13.177Z</time>
      </trkpt>
      <trkpt lat="48.532649" lon="9.994568">
        <ele>589.034454</ele>
        <time>2025-11-10T18:52:14.377Z</time>
      </trkpt>
      <trkpt lat="48.532596" lon="9.994608">
        <ele>589.078322</ele>
        <time>2025-11-10T18:52:15.512Z</time>
      </trkpt>
      <trkpt lat="48.532511" lon="9.994617">
        <ele>589.141409</ele>
        <time>2025-11-10T18:52:17.094Z</time>
      </trkpt>
      <trkpt lat="48.532372" lon="9.994588">
        <ele>589.245299</ele>
        <time>2025-11-10T18:52:19.658Z</time>
      </trkpt>
      <trkpt lat="48.532210" lon="9.994490">
        <ele>589.374506</ele>
        <time>2025-11-10T18:52:22.561Z</time>
      </trkpt>
      <trkpt lat="48.532058" lon="9.994434">
        <ele>589.225910</ele>
        <time>2025-11-10T18:52:24.757Z</time>
      </trkpt>
      <trkpt lat="48.531800" lon="9.994452">
        <ele>588.975102</ele>
        <time>2025-11-10T18:52:28.113Z</time>
      </trkpt>
      <trkpt lat="48.531581" lon="9.994481">
        <ele>588.761617</ele>
        <time>2025-11-10T18:52:30.760Z</time>
      </trkpt>
      <trkpt lat="48.531521" lon="9.994552">
        <ele>588.687594</ele>
        <time>2025-11-10T18:52:31.651Z</time>
      </trkpt>
      <trkpt lat="48.531484" lon="9.994632">
        <ele>588.624844</ele>
        <time>2025-11-10T18:52:32.403Z</time>
      </trkpt>
      <trkpt lat="48.531478" lon="9.994714">
        <ele>588.571792</ele>
        <time>2025-11-10T18:52:33.050Z</time>
      </trkpt>
      <trkpt lat="48.531494" lon="9.994943">
        <ele>588.423713</ele>
        <time>2025-11-10T18:52:34.809Z</time>
      </trkpt>
      <trkpt lat="48.531518" lon="9.995139">
        <ele>588.295536</ele>
        <time>2025-11-10T18:52:36.332Z</time>
      </trkpt>
      <trkpt lat="48.531536" lon="9.995279">
        <ele>588.203826</ele>
        <time>2025-11-10T18:52:37.403Z</time>
      </trkpt>
      <trkpt lat="48.531581" lon="9.995634">
        <ele>587.971394</ele>
        <time>2025-11-10T18:52:40.180Z</time>
      </trkpt>
      <trkpt lat="48.531568" lon="9.995876">
        <ele>587.815262</ele>
        <time>2025-11-10T18:52:42.062Z</time>
      </trkpt>
      <trkpt lat="48.531546" lon="9.995930">
        <ele>587.774491</ele>
        <time>2025-11-10T18:52:42.540Z</time>
      </trkpt>
      <trkpt lat="48.531385" lon="9.996092">
        <ele>587.563529</ele>
        <time>2025-11-10T18:52:44.819Z</time>
      </trkpt>
      <trkpt lat="48.531247" lon="9.996208">
        <ele>587.327208</ele>
        <time>2025-11-10T18:52:46.644Z</time>
      </trkpt>
      <trkpt lat="48.531215" lon="9.996245">
        <ele>587.266904</ele>
        <time>2025-11-10T18:52:47.122Z</time>
      </trkpt>
      <trkpt lat="48.531107" lon="9.996377">
        <ele>587.059008</ele>
        <time>2025-11-10T18:52:48.707Z</time>
      </trkpt>
      <trkpt lat="48.530789" lon="9.997010">
        <ele>586.271736</ele>
        <time>2025-11-10T18:52:54.920Z</time>
      </trkpt>
      <trkpt lat="48.530680" lon="9.997167">
        <ele>586.046347</ele>
        <time>2025-11-10T18:52:56.705Z</time>
      </trkpt>
      <trkpt lat="48.530494" lon="9.997333">
        <ele>585.723067</ele>
        <time>2025-11-10T18:52:59.234Z</time>
      </trkpt>
      <trkpt lat="48.530096" lon="9.997680">
        <ele>585.035418</ele>
        <time>2025-11-10T18:53:04.470Z</time>
      </trkpt>
      <trkpt lat="48.529851" lon="9.997883">
        <ele>584.509204</ele>
        <time>2025-11-10T18:53:07.550Z</time>
      </trkpt>
      <trkpt lat="48.529437" lon="9.998226">
        <ele>583.564591</ele>
        <time>2025-11-10T18:53:12.675Z</time>
      </trkpt>
      <trkpt lat="48.528822" lon="9.998782">
        <ele>582.130729</ele>
        <time>2025-11-10T18:53:20.470Z</time>
      </trkpt>
      <trkpt lat="48.528544" lon="9.999088">
        <ele>581.442562</ele>
        <time>2025-11-10T18:53:24.261Z</time>
      </trkpt>
      <trkpt lat="48.528132" lon="9.999628">
        <ele>580.352844</ele>
        <time>2025-11-10T18:53:30.270Z</time>
      </trkpt>
      <trkpt lat="48.527622" lon="10.000511">
        <ele>578.803216</ele>
        <time>2025-11-10T18:53:38.804Z</time>
      </trkpt>
      <trkpt lat="48.527586" lon="10.000592">
        <ele>578.674194</ele>
        <time>2025-11-10T18:53:39.515Z</time>
      </trkpt>
      <trkpt lat="48.527261" lon="10.001457">
        <ele>577.412865</ele>
        <time>2025-11-10T18:53:46.742Z</time>
      </trkpt>
      <trkpt lat="48.527120" lon="10.001939">
        <ele>576.812721</ele>
        <time>2025-11-10T18:53:50.507Z</time>
      </trkpt>
      <trkpt lat="48.526944" lon="10.002724">
        <ele>575.868797</ele>
        <time>2025-11-10T18:53:56.504Z</time>
      </trkpt>
      <trkpt lat="48.526799" lon="10.003603">
        <ele>574.837064</ele>
        <time>2025-11-10T18:54:03.407Z</time>
      </trkpt>
      <trkpt lat="48.526787" lon="10.003685">
        <ele>574.741416</ele>
        <time>2025-11-10T18:54:04.074Z</time>
      </trkpt>
      <trkpt lat="48.526530" lon="10.005310">
        <ele>573.941906</ele>
        <time>2025-11-10T18:54:18.488Z</time>
      </trkpt>
      <trkpt lat="48.526433" lon="10.005724">
        <ele>573.745605</ele>
        <time>2025-11-10T18:54:22.583Z</time>
      </trkpt>
      <trkpt lat="48.526116" lon="10.006768">
        <ele>573.173486</ele>
        <time>2025-11-10T18:54:32.505Z</time>
      </trkpt>
      <trkpt lat="48.524977" lon="10.006027">
        <ele>572.100535</ele>
        <time>2025-11-10T18:54:47.610Z</time>
      </trkpt>
      <trkpt lat="48.524626" lon="10.005725">
        <ele>571.669407</ele>
        <time>2025-11-10T18:54:52.619Z</time>
      </trkpt>
      <trkpt lat="48.524410" lon="10.005499">
        <ele>571.303125</ele>
        <time>2025-11-10T18:54:55.970Z</time>
      </trkpt>
      <trkpt lat="48.524200" lon="10.005280">
        <ele>570.947396</ele>
        <time>2025-11-10T18:54:59.236Z</time>
      </trkpt>
      <trkpt lat="48.523732" lon="10.004560">
        <ele>570.016128</ele>
        <time>2025-11-10T18:55:07.617Z</time>
      </trkpt>
      <trkpt lat="48.523184" lon="10.003566">
        <ele>567.459559</ele>
        <time>2025-11-10T18:55:16.715Z</time>
      </trkpt>
      <trkpt lat="48.522336" lon="10.001846">
        <ele>560.584579</ele>
        <time>2025-11-10T18:55:29.938Z</time>
      </trkpt>
      <trkpt lat="48.521946" lon="10.001166">
        <ele>556.551719</ele>
        <time>2025-11-10T18:55:35.266Z</time>
      </trkpt>
      <trkpt lat="48.521479" lon="10.000473">
        <ele>552.119274</ele>
        <time>2025-11-10T18:55:41.116Z</time>
      </trkpt>
      <trkpt lat="48.521193" lon="10.000108">
        <ele>549.584323</ele>
        <time>2025-11-10T18:55:44.479Z</time>
      </trkpt>
      <trkpt lat="48.519995" lon="9.998908">
        <ele>540.869692</ele>
        <time>2025-11-10T18:55:57.674Z</time>
      </trkpt>
      <trkpt lat="48.519177" lon="9.998151">
        <ele>535.650409</ele>
        <time>2025-11-10T18:56:06.549Z</time>
      </trkpt>
      <trkpt lat="48.518354" lon="9.997266">
        <ele>530.781336</ele>
        <time>2025-11-10T18:56:16.019Z</time>
      </trkpt>
      <trkpt lat="48.518001" lon="9.996703">
        <ele>529.024891</ele>
        <time>2025-11-10T18:56:21.108Z</time>
      </trkpt>
      <trkpt lat="48.517756" lon="9.996178">
        <ele>528.769543</ele>
        <time>2025-11-10T18:56:25.747Z</time>
      </trkpt>
      <trkpt lat="48.517697" lon="9.996016">
        <ele>528.696036</ele>
        <time>2025-11-10T18:56:27.211Z</time>
      </trkpt>
      <trkpt lat="48.517543" lon="9.995340">
        <ele>528.411799</ele>
        <time>2025-11-10T18:56:33.898Z</time>
      </trkpt>
      <trkpt lat="48.517486" lon="9.994905">
        <ele>528.235486</ele>
        <time>2025-11-10T18:56:39.447Z</time>
      </trkpt>
      <trkpt lat="48.517474" lon="9.994724">
        <ele>528.163159</ele>
        <time>2025-11-10T18:56:42.093Z</time>
      </trkpt>
      <trkpt lat="48.517460" lon="9.994319">
        <ele>528.188742</ele>
        <time>2025-11-10T18:56:48.142Z</time>
      </trkpt>
      <trkpt lat="48.517461" lon="9.994178">
        <ele>528.362977</ele>
        <time>2025-11-10T18:56:50.244Z</time>
      </trkpt>
      <trkpt lat="48.517463" lon="9.993928">
        <ele>528.671909</ele>
        <time>2025-11-10T18:56:54.056Z</time>
      </trkpt>
      <trkpt lat="48.517467" lon="9.993707">
        <ele>528.945087</ele>
        <time>2025-11-10T18:56:57.602Z</time>
      </trkpt>
      <trkpt lat="48.517469" lon="9.993528">
        <ele>529.166298</ele>
        <time>2025-11-10T18:57:00.524Z</time>
      </trkpt>
      <trkpt lat="48.517459" lon="9.993262">
        <ele>529.495507</ele>
        <time>2025-11-10T18:57:04.945Z</time>
      </trkpt>
      <trkpt lat="48.517443" lon="9.993027">
        <ele>529.787412</ele>
        <time>2025-11-10T18:57:08.870Z</time>
      </trkpt>
      <trkpt lat="48.517355" lon="9.992513">
        <ele>530.443402</ele>
        <time>2025-11-10T18:57:18.135Z</time>
      </trkpt>
      <trkpt lat="48.517306" lon="9.992255">
        <ele>530.775043</ele>
        <time>2025-11-10T18:57:22.557Z</time>
      </trkpt>
      <trkpt lat="48.517277" lon="9.992105">
        <ele>530.968122</ele>
        <time>2025-11-10T18:57:25.002Z</time>
      </trkpt>
      <trkpt lat="48.517234" lon="9.991877">
        <ele>531.261046</ele>
        <time>2025-11-10T18:57:28.394Z</time>
      </trkpt>
      <trkpt lat="48.517209" lon="9.991751">
        <ele>531.380937</ele>
        <time>2025-11-10T18:57:30.102Z</time>
      </trkpt>
      <trkpt lat="48.517179" lon="9.991554">
        <ele>531.122564</ele>
        <time>2025-11-10T18:57:32.267Z</time>
      </trkpt>
      <trkpt lat="48.517142" lon="9.990979">
        <ele>530.384144</ele>
        <time>2025-11-10T18:57:36.922Z</time>
      </trkpt>
      <trkpt lat="48.516538" lon="9.991021">
        <ele>529.217398</ele>
        <time>2025-11-10T18:57:43.439Z</time>
      </trkpt>
      <trkpt lat="48.516283" lon="9.991088">
        <ele>528.717940</ele>
        <time>2025-11-10T18:57:46.015Z</time>
      </trkpt>
      <trkpt lat="48.516264" lon="9.991093">
        <ele>528.680724</ele>
        <time>2025-11-10T18:57:46.206Z</time>
      </trkpt>
      <trkpt lat="48.516066" lon="9.991149">
        <ele>528.292006</ele>
        <time>2025-11-10T18:57:48.190Z</time>
      </trkpt>
      <trkpt lat="48.515922" lon="9.991196">
        <ele>528.007716</ele>
        <time>2025-11-10T18:57:49.619Z</time>
      </trkpt>
      <trkpt lat="48.515850" lon="9.991220">
        <ele>527.874643</ele>
        <time>2025-11-10T18:57:50.337Z</time>
      </trkpt>
      <trkpt lat="48.515726" lon="9.991261">
        <ele>527.663651</ele>
        <time>2025-11-10T18:57:51.594Z</time>
      </trkpt>
      <trkpt lat="48.515597" lon="9.991323">
        <ele>527.438631</ele>
        <time>2025-11-10T18:57:52.945Z</time>
      </trkpt>
      <trkpt lat="48.515510" lon="9.991372">
        <ele>527.284288</ele>
        <time>2025-11-10T18:57:53.876Z</time>
      </trkpt>
      <trkpt lat="48.515257" lon="9.991526">
        <ele>526.830868</ele>
        <time>2025-11-10T18:57:56.678Z</time>
      </trkpt>
      <trkpt lat="48.515204" lon="9.991363">
        <ele>526.630944</ele>
        <time>2025-11-10T18:57:58.046Z</time>
      </trkpt>
      <trkpt lat="48.515112" lon="9.991184">
        <ele>526.381492</ele>
        <time>2025-11-10T18:57:59.798Z</time>
      </trkpt>
      <trkpt lat="48.514999" lon="9.991055">
        <ele>526.146011</ele>
        <time>2025-11-10T18:58:01.488Z</time>
      </trkpt>
      <trkpt lat="48.514761" lon="9.990797">
        <ele>525.658993</ele>
        <time>2025-11-10T18:58:05.195Z</time>
      </trkpt>
      <trkpt lat="48.514608" lon="9.990564">
        <ele>525.297762</ele>
        <time>2025-11-10T18:58:08.195Z</time>
      </trkpt>
      <trkpt lat="48.514334" lon="9.989858">
        <ele>525.118526</ele>
        <time>2025-11-10T18:58:16.839Z</time>
      </trkpt>
      <trkpt lat="48.514264" lon="9.989602">
        <ele>525.217075</ele>
        <time>2025-11-10T18:58:19.727Z</time>
      </trkpt>
      <trkpt lat="48.514221" lon="9.989317">
        <ele>525.321085</ele>
        <time>2025-11-10T18:58:22.785Z</time>
      </trkpt>
      <trkpt lat="48.514090" lon="9.988273">
        <ele>525.699183</ele>
        <time>2025-11-10T18:58:35.642Z</time>
      </trkpt>
      <trkpt lat="48.513781" lon="9.987988">
        <ele>525.893695</ele>
        <time>2025-11-10T18:58:42.244Z</time>
      </trkpt>
      <trkpt lat="48.513965" lon="9.987531">
        <ele>526.139105</ele>
        <time>2025-11-10T18:58:48.498Z</time>
      </trkpt>
      <trkpt lat="48.514053" lon="9.987425">
        <ele>526.218562</ele>
        <time>2025-11-10T18:58:50.456Z</time>
      </trkpt>
      <trkpt lat="48.514266" lon="9.987428">
        <ele>526.368899</ele>
        <time>2025-11-10T18:58:54.167Z</time>
      </trkpt>
      <trkpt lat="48.514615" lon="9.986745">
        <ele>526.772182</ele>
        <time>2025-11-10T18:59:04.178Z</time>
      </trkpt>
      <trkpt lat="48.514905" lon="9.986413">
        <ele>527.029056</ele>
        <time>2025-11-10T18:59:10.355Z</time>
      </trkpt>
      <trkpt lat="48.515630" lon="9.985766">
        <ele>527.804504</ele>
        <time>2025-11-10T18:59:25.541Z</time>
      </trkpt>
      <trkpt lat="48.516032" lon="9.985363">
        <ele>528.283457</ele>
        <time>2025-11-10T18:59:35.101Z</time>
      </trkpt>
      <trkpt lat="48.516437" lon="9.984761">
        <ele>528.847571</ele>
        <time>2025-11-10T18:59:46.233Z</time>
      </trkpt>
      <trkpt lat="48.516722" lon="9.983984">
        <ele>529.326164</ele>
        <time>2025-11-10T18:59:57.250Z</time>
      </trkpt>
      <trkpt lat="48.517190" lon="9.980749">
        <ele>530.752822</ele>
        <time>2025-11-10T19:00:35.351Z</time>
      </trkpt>
      <trkpt lat="48.517261" lon="9.980373">
        <ele>530.874137</ele>
        <time>2025-11-10T19:00:39.944Z</time>
      </trkpt>
      <trkpt lat="48.517421" lon="9.979812">
        <ele>531.063657</ele>
        <time>2025-11-10T19:00:46.815Z</time>
      </trkpt>
      <trkpt lat="48.517695" lon="9.979200">
        <ele>531.058468</ele>
        <time>2025-11-10T19:00:54.599Z</time>
      </trkpt>
      <trkpt lat="48.519068" lon="9.976548">
        <ele>529.678629</ele>
        <time>2025-11-10T19:01:22.625Z</time>
      </trkpt>
      <trkpt lat="48.519512" lon="9.975671">
        <ele>529.179407</ele>
        <time>2025-11-10T19:01:31.586Z</time>
      </trkpt>
      <trkpt lat="48.519637" lon="9.975274">
        <ele>528.980607</ele>
        <time>2025-11-10T19:01:35.406Z</time>
      </trkpt>
      <trkpt lat="48.519675" lon="9.974843">
        <ele>528.934084</ele>
        <time>2025-11-10T19:01:39.393Z</time>
      </trkpt>
      <trkpt lat="48.519556" lon="9.972699">
        <ele>529.269544</ele>
        <time>2025-11-10T19:02:03.213Z</time>
      </trkpt>
      <trkpt lat="48.519582" lon="9.972238">
        <ele>529.324270</ele>
        <time>2025-11-10T19:02:08.203Z</time>
      </trkpt>
      <trkpt lat="48.519764" lon="9.971006">
        <ele>529.370050</ele>
        <time>2025-11-10T19:02:20.759Z</time>
      </trkpt>
      <trkpt lat="48.519842" lon="9.970387">
        <ele>529.392902</ele>
        <time>2025-11-10T19:02:26.731Z</time>
      </trkpt>
      <trkpt lat="48.519789" lon="9.970086">
        <ele>529.404198</ele>
        <time>2025-11-10T19:02:29.703Z</time>
      </trkpt>
      <trkpt lat="48.519387" lon="9.968802">
        <ele>529.596465</ele>
        <time>2025-11-10T19:02:43.799Z</time>
      </trkpt>
      <trkpt lat="48.518980" lon="9.967711">
        <ele>529.809089</ele>
        <time>2025-11-10T19:02:57.082Z</time>
      </trkpt>
      <trkpt lat="48.518825" lon="9.967232">
        <ele>529.936893</ele>
        <time>2025-11-10T19:03:03.032Z</time>
      </trkpt>
      <trkpt lat="48.518691" lon="9.966437">
        <ele>530.323142</ele>
        <time>2025-11-10T19:03:12.510Z</time>
      </trkpt>
      <trkpt lat="48.518624" lon="9.965314">
        <ele>530.854039</ele>
        <time>2025-11-10T19:03:26.047Z</time>
      </trkpt>
      <trkpt lat="48.518685" lon="9.964691">
        <ele>531.150562</ele>
        <time>2025-11-10T19:03:33.384Z</time>
      </trkpt>
      <trkpt lat="48.518706" lon="9.964014">
        <ele>531.637037</ele>
        <time>2025-11-10T19:03:41.515Z</time>
      </trkpt>
      <trkpt lat="48.518662" lon="9.963706">
        <ele>531.864836</ele>
        <time>2025-11-10T19:03:45.602Z</time>
      </trkpt>
      <trkpt lat="48.518586" lon="9.963453">
        <ele>532.065682</ele>
        <time>2025-11-10T19:03:49.384Z</time>
      </trkpt>
      <trkpt lat="48.518547" lon="9.963437">
        <ele>532.109794</ele>
        <time>2025-11-10T19:03:50.258Z</time>
      </trkpt>
      <trkpt lat="48.518507" lon="9.963420">
        <ele>532.155151</ele>
        <time>2025-11-10T19:03:51.166Z</time>
      </trkpt>
      <trkpt lat="48.518334" lon="9.963382">
        <ele>532.345968</ele>
        <time>2025-11-10T19:03:55.046Z</time>
      </trkpt>
      <trkpt lat="48.517675" lon="9.963299">
        <ele>533.067763</ele>
        <time>2025-11-10T19:04:08.120Z</time>
      </trkpt>
      <trkpt lat="48.517517" lon="9.963253">
        <ele>533.120845</ele>
        <time>2025-11-10T19:04:10.912Z</time>
      </trkpt>
      <trkpt lat="48.517432" lon="9.963167">
        <ele>533.121295</ele>
        <time>2025-11-10T19:04:12.687Z</time>
      </trkpt>
      <trkpt lat="48.517357" lon="9.962964">
        <ele>533.121972</ele>
        <time>2025-11-10T19:04:15.266Z</time>
      </trkpt>
      <trkpt lat="48.517361" lon="9.961331">
        <ele>533.126728</ele>
        <time>2025-11-10T19:04:30.633Z</time>
      </trkpt>
      <trkpt lat="48.517345" lon="9.960909">
        <ele>533.127958</ele>
        <time>2025-11-10T19:04:34.071Z</time>
      </trkpt>
      <trkpt lat="48.517382" lon="9.960110">
        <ele>533.186217</ele>
        <time>2025-11-10T19:04:41.288Z</time>
      </trkpt>
      <trkpt lat="48.517364" lon="9.958951">
        <ele>533.282429</ele>
        <time>2025-11-10T19:04:53.397Z</time>
      </trkpt>
      <trkpt lat="48.517362" lon="9.958891">
        <ele>533.287415</ele>
        <time>2025-11-10T19:04:54.064Z</time>
      </trkpt>
      <trkpt lat="48.517293" lon="9.958537">
        <ele>533.318039</ele>
        <time>2025-11-10T19:04:58.150Z</time>
      </trkpt>
      <trkpt lat="48.517222" lon="9.958178">
        <ele>533.349132</ele>
        <time>2025-11-10T19:05:02.410Z</time>
      </trkpt>
      <trkpt lat="48.517207" lon="9.958099">
        <ele>533.372526</ele>
        <time>2025-11-10T19:05:03.340Z</time>
      </trkpt>
      <trkpt lat="48.517153" lon="9.957833">
        <ele>533.558772</ele>
        <time>2025-11-10T19:05:06.412Z</time>
      </trkpt>
      <trkpt lat="48.517108" lon="9.957607">
        <ele>533.716753</ele>
        <time>2025-11-10T19:05:09.017Z</time>
      </trkpt>
      <trkpt lat="48.517091" lon="9.957522">
        <ele>533.776193</ele>
        <time>2025-11-10T19:05:09.999Z</time>
      </trkpt>
      <trkpt lat="48.517040" lon="9.957255">
        <ele>533.962217</ele>
        <time>2025-11-10T19:05:12.954Z</time>
      </trkpt>
      <trkpt lat="48.516942" lon="9.956776">
        <ele>534.297826</ele>
        <time>2025-11-10T19:05:18.403Z</time>
      </trkpt>
      <trkpt lat="48.516917" lon="9.956542">
        <ele>534.456500</ele>
        <time>2025-11-10T19:05:21.163Z</time>
      </trkpt>
      <trkpt lat="48.516910" lon="9.956309">
        <ele>534.612641</ele>
        <time>2025-11-10T19:05:24.058Z</time>
      </trkpt>
      <trkpt lat="48.516904" lon="9.956118">
        <ele>534.740648</ele>
        <time>2025-11-10T19:05:26.596Z</time>
      </trkpt>
      <trkpt lat="48.516876" lon="9.956008">
        <ele>534.819537</ele>
        <time>2025-11-10T19:05:28.220Z</time>
      </trkpt>
      <trkpt lat="48.516906" lon="9.955928">
        <ele>534.881079</ele>
        <time>2025-11-10T19:05:29.495Z</time>
      </trkpt>
      <trkpt lat="48.516904" lon="9.955815">
        <ele>534.956753</ele>
        <time>2025-11-10T19:05:31.108Z</time>
      </trkpt>
      <trkpt lat="48.516839" lon="9.955702">
        <ele>535.056942</ele>
        <time>2025-11-10T19:05:33.284Z</time>
      </trkpt>
      <trkpt lat="48.516765" lon="9.955683">
        <ele>535.132803</ele>
        <time>2025-11-10T19:05:35.022Z</time>
      </trkpt>
      <trkpt lat="48.516711" lon="9.955712">
        <ele>535.214538</ele>
        <time>2025-11-10T19:05:36.359Z</time>
      </trkpt>
      <trkpt lat="48.516636" lon="9.955657">
        <ele>535.402492</ele>
        <time>2025-11-10T19:05:38.367Z</time>
      </trkpt>
      <trkpt lat="48.516526" lon="9.955632">
        <ele>535.653245</ele>
        <time>2025-11-10T19:05:41.108Z</time>
      </trkpt>
      <trkpt lat="48.515831" lon="9.955437">
        <ele>537.246725</ele>
        <time>2025-11-10T19:06:00.197Z</time>
      </trkpt>
      <trkpt lat="48.515114" lon="9.955187">
        <ele>538.905519</ele>
        <time>2025-11-10T19:06:18.493Z</time>
      </trkpt>
      <trkpt lat="48.514400" lon="9.954856">
        <ele>539.637579</ele>
        <time>2025-11-10T19:06:31.985Z</time>
      </trkpt>
      <trkpt lat="48.514418" lon="9.954766">
        <ele>539.679976</ele>
        <time>2025-11-10T19:06:32.890Z</time>
      </trkpt>
      <trkpt lat="48.514253" lon="9.953831">
        <ele>540.116342</ele>
        <time>2025-11-10T19:06:41.486Z</time>
      </trkpt>
      <trkpt lat="48.514158" lon="9.953612">
        <ele>540.234397</ele>
        <time>2025-11-10T19:06:44.158Z</time>
      </trkpt>
      <trkpt lat="48.514033" lon="9.953480">
        <ele>540.338250</ele>
        <time>2025-11-10T19:06:46.722Z</time>
      </trkpt>
      <trkpt lat="48.513692" lon="9.953416">
        <ele>540.999675</ele>
        <time>2025-11-10T19:06:53.091Z</time>
      </trkpt>
      <trkpt lat="48.513589" lon="9.953363">
        <ele>541.333636</ele>
        <time>2025-11-10T19:06:55.327Z</time>
      </trkpt>
      <trkpt lat="48.513365" lon="9.951719">
        <ele>544.745862</ele>
        <time>2025-11-10T19:07:29.621Z</time>
      </trkpt>
      <trkpt lat="48.513265" lon="9.951464">
        <ele>545.348308</ele>
        <time>2025-11-10T19:07:34.790Z</time>
      </trkpt>
      <trkpt lat="48.513001" lon="9.951168">
        <ele>546.577604</ele>
        <time>2025-11-10T19:07:42.772Z</time>
      </trkpt>
      <trkpt lat="48.512953" lon="9.951029">
        <ele>547.077364</ele>
        <time>2025-11-10T19:07:45.687Z</time>
      </trkpt>
      <trkpt lat="48.512952" lon="9.950936">
        <ele>547.373908</ele>
        <time>2025-11-10T19:07:47.357Z</time>
      </trkpt>
      <trkpt lat="48.512949" lon="9.950801">
        <ele>547.804559</ele>
        <time>2025-11-10T19:07:50.234Z</time>
      </trkpt>
      <trkpt lat="48.512982" lon="9.950012">
        <ele>550.325073</ele>
        <time>2025-11-10T19:08:08.726Z</time>
      </trkpt>
      <trkpt lat="48.512977" lon="9.949831">
        <ele>550.902642</ele>
        <time>2025-11-10T19:08:13.320Z</time>
      </trkpt>
      <trkpt lat="48.512971" lon="9.949786">
        <ele>551.048989</ele>
        <time>2025-11-10T19:08:14.375Z</time>
      </trkpt>
      <trkpt lat="48.512824" lon="9.949713">
        <ele>551.793765</ele>
        <time>2025-11-10T19:08:19.895Z</time>
      </trkpt>
      <trkpt lat="48.512516" lon="9.949684">
        <ele>553.278978</ele>
        <time>2025-11-10T19:08:30.114Z</time>
      </trkpt>
      <trkpt lat="48.512421" lon="9.949582">
        <ele>553.840048</ele>
        <time>2025-11-10T19:08:34.089Z</time>
      </trkpt>
      <trkpt lat="48.512273" lon="9.949146">
        <ele>555.310322</ele>
        <time>2025-11-10T19:08:46.493Z</time>
      </trkpt>
      <trkpt lat="48.512155" lon="9.949040">
        <ele>555.893036</ele>
        <time>2025-11-10T19:08:52.465Z</time>
      </trkpt>
      <trkpt lat="48.512037" lon="9.948934">
        <ele>556.475750</ele>
        <time>2025-11-10T19:08:58.620Z</time>
      </trkpt>
      <trkpt lat="48.511871" lon="9.948940">
        <ele>557.180403</ele>
        <time>2025-11-10T19:09:05.880Z</time>
      </trkpt>
      <trkpt lat="48.511646" lon="9.949113">
        <ele>558.251961</ele>
        <time>2025-11-10T19:09:15.771Z</time>
      </trkpt>
      <trkpt lat="48.510262" lon="9.949878">
        <ele>563.393966</ele>
        <time>2025-11-10T19:09:52.343Z</time>
      </trkpt>
      <trkpt lat="48.510194" lon="9.949882">
        <ele>563.539759</ele>
        <time>2025-11-10T19:09:53.642Z</time>
      </trkpt>
      <trkpt lat="48.510083" lon="9.949779">
        <ele>563.818904</ele>
        <time>2025-11-10T19:09:56.096Z</time>
      </trkpt>
      <trkpt lat="48.509996" lon="9.949664">
        <ele>564.066656</ele>
        <time>2025-11-10T19:09:58.944Z</time>
      </trkpt>
      <trkpt lat="48.509566" lon="9.949398">
        <ele>565.062241</ele>
        <time>2025-11-10T19:10:11.133Z</time>
      </trkpt>
      <trkpt lat="48.509039" lon="9.949177">
        <ele>566.284380</ele>
        <time>2025-11-10T19:10:27.612Z</time>
      </trkpt>
      <trkpt lat="48.508705" lon="9.948930">
        <ele>567.412484</ele>
        <time>2025-11-10T19:10:40.064Z</time>
      </trkpt>
      <trkpt lat="48.508340" lon="9.948492">
        <ele>568.826793</ele>
        <time>2025-11-10T19:10:56.696Z</time>
      </trkpt>
      <trkpt lat="48.508103" lon="9.948107">
        <ele>569.882851</ele>
        <time>2025-11-10T19:11:08.916Z</time>
      </trkpt>
      <trkpt lat="48.507785" lon="9.947695">
        <ele>571.153964</ele>
        <time>2025-11-10T19:11:22.598Z</time>
      </trkpt>
      <trkpt lat="48.507440" lon="9.947454">
        <ele>572.028285</ele>
        <time>2025-11-10T19:11:33.277Z</time>
      </trkpt>
      <trkpt lat="48.506518" lon="9.947180">
        <ele>573.802898</ele>
        <time>2025-11-10T19:11:56.112Z</time>
      </trkpt>
      <trkpt lat="48.506429" lon="9.947145">
        <ele>573.976585</ele>
        <time>2025-11-10T19:11:58.399Z</time>
      </trkpt>
      <trkpt lat="48.505855" lon="9.947028">
        <ele>575.169637</ele>
        <time>2025-11-10T19:12:14.642Z</time>
      </trkpt>
      <trkpt lat="48.504926" lon="9.947059">
        <ele>578.578141</ele>
        <time>2025-11-10T19:12:49.250Z</time>
      </trkpt>
      <trkpt lat="48.504678" lon="9.947019">
        <ele>579.493011</ele>
        <time>2025-11-10T19:12:59.290Z</time>
      </trkpt>
      <trkpt lat="48.504236" lon="9.946878">
        <ele>581.150133</ele>
        <time>2025-11-10T19:13:15.474Z</time>
      </trkpt>
      <trkpt lat="48.503987" lon="9.946814">
        <ele>581.792672</ele>
        <time>2025-11-10T19:13:23.337Z</time>
      </trkpt>
      <trkpt lat="48.503655" lon="9.946795">
        <ele>582.337938</ele>
        <time>2025-11-10T19:13:33.640Z</time>
      </trkpt>
      <trkpt lat="48.503311" lon="9.946941">
        <ele>582.924405</ele>
        <time>2025-11-10T19:13:43.885Z</time>
      </trkpt>
      <trkpt lat="48.503082" lon="9.947045">
        <ele>583.316884</ele>
        <time>2025-11-10T19:13:49.823Z</time>
      </trkpt>
      <trkpt lat="48.503075" lon="9.947014">
        <ele>583.352498</ele>
        <time>2025-11-10T19:13:50.254Z</time>
      </trkpt>
      <trkpt lat="48.502971" lon="9.946524">
        <ele>583.912004</ele>
        <time>2025-11-10T19:13:56.004Z</time>
      </trkpt>
      <trkpt lat="48.502909" lon="9.946218">
        <ele>584.259965</ele>
        <time>2025-11-10T19:13:59.319Z</time>
      </trkpt>
      <trkpt lat="48.502763" lon="9.945585">
        <ele>584.527073</ele>
        <time>2025-11-10T19:14:06.756Z</time>
      </trkpt>
      <trkpt lat="48.502713" lon="9.945357">
        <ele>584.533912</ele>
        <time>2025-11-10T19:14:09.699Z</time>
      </trkpt>
      <trkpt lat="48.502701" lon="9.945303">
        <ele>584.535533</ele>
        <time>2025-11-10T19:14:10.373Z</time>
      </trkpt>
      <trkpt lat="48.502626" lon="9.944824">
        <ele>584.549549</ele>
        <time>2025-11-10T19:14:15.593Z</time>
      </trkpt>
      <trkpt lat="48.502621" lon="9.944769">
        <ele>584.551130</ele>
        <time>2025-11-10T19:14:16.099Z</time>
      </trkpt>
      <trkpt lat="48.502607" lon="9.944599">
        <ele>584.556008</ele>
        <time>2025-11-10T19:14:17.616Z</time>
      </trkpt>
      <trkpt lat="48.502602" lon="9.944389">
        <ele>584.561991</ele>
        <time>2025-11-10T19:14:19.435Z</time>
      </trkpt>
      <trkpt lat="48.502545" lon="9.943597">
        <ele>584.584677</ele>
        <time>2025-11-10T19:14:26.221Z</time>
      </trkpt>
      <trkpt lat="48.502510" lon="9.943341">
        <ele>584.604376</ele>
        <time>2025-11-10T19:14:28.563Z</time>
      </trkpt>
      <trkpt lat="48.502476" lon="9.943217">
        <ele>584.892747</ele>
        <time>2025-11-10T19:14:29.828Z</time>
      </trkpt>
      <trkpt lat="48.502444" lon="9.943086">
        <ele>585.192767</ele>
        <time>2025-11-10T19:14:31.252Z</time>
      </trkpt>
      <trkpt lat="48.502443" lon="9.942886">
        <ele>585.622549</ele>
        <time>2025-11-10T19:14:33.475Z</time>
      </trkpt>
      <trkpt lat="48.502379" lon="9.942694">
        <ele>586.084396</ele>
        <time>2025-11-10T19:14:36.087Z</time>
      </trkpt>
      <trkpt lat="48.502303" lon="9.942550">
        <ele>586.479997</ele>
        <time>2025-11-10T19:14:38.541Z</time>
      </trkpt>
      <trkpt lat="48.502240" lon="9.942501">
        <ele>586.709849</ele>
        <time>2025-11-10T19:14:40.101Z</time>
      </trkpt>
      <trkpt lat="48.502181" lon="9.942400">
        <ele>586.999187</ele>
        <time>2025-11-10T19:14:42.190Z</time>
      </trkpt>
      <trkpt lat="48.502129" lon="9.942401">
        <ele>587.167843</ele>
        <time>2025-11-10T19:14:43.457Z</time>
      </trkpt>
      <trkpt lat="48.502085" lon="9.942315">
        <ele>587.401326</ele>
        <time>2025-11-10T19:14:45.304Z</time>
      </trkpt>
      <trkpt lat="48.501986" lon="9.941981">
        <ele>588.187588</ele>
        <time>2025-11-10T19:14:52.267Z</time>
      </trkpt>
      <trkpt lat="48.501916" lon="9.941619">
        <ele>588.997928</ele>
        <time>2025-11-10T19:15:00.728Z</time>
      </trkpt>
      <trkpt lat="48.501874" lon="9.941203">
        <ele>589.902177</ele>
        <time>2025-11-10T19:15:11.476Z</time>
      </trkpt>
      <trkpt lat="48.501891" lon="9.940790">
        <ele>591.148930</ele>
        <time>2025-11-10T19:15:22.992Z</time>
      </trkpt>
      <trkpt lat="48.501988" lon="9.939749">
        <ele>595.613519</ele>
        <time>2025-11-10T19:15:54.899Z</time>
      </trkpt>
      <trkpt lat="48.502120" lon="9.938565">
        <ele>600.712591</ele>
        <time>2025-11-10T19:16:27.482Z</time>
      </trkpt>
      <trkpt lat="48.502127" lon="9.937854">
        <ele>602.999179</ele>
        <time>2025-11-10T19:16:43.404Z</time>
      </trkpt>
      <trkpt lat="48.502212" lon="9.937362">
        <ele>604.268313</ele>
        <time>2025-11-10T19:16:53.644Z</time>
      </trkpt>
      <trkpt lat="48.502220" lon="9.937079">
        <ele>604.975347</ele>
        <time>2025-11-10T19:16:59.036Z</time>
      </trkpt>
      <trkpt lat="48.502156" lon="9.936482">
        <ele>606.484887</ele>
        <time>2025-11-10T19:17:09.941Z</time>
      </trkpt>
      <trkpt lat="48.502063" lon="9.936090">
        <ele>607.524184</ele>
        <time>2025-11-10T19:17:17.293Z</time>
      </trkpt>
      <trkpt lat="48.501916" lon="9.935700">
        <ele>608.644149</ele>
        <time>2025-11-10T19:17:25.623Z</time>
      </trkpt>
      <trkpt lat="48.501774" lon="9.935416">
        <ele>609.313314</ele>
        <time>2025-11-10T19:17:32.431Z</time>
      </trkpt>
      <trkpt lat="48.501604" lon="9.935158">
        <ele>609.973852</ele>
        <time>2025-11-10T19:17:39.382Z</time>
      </trkpt>
      <trkpt lat="48.500611" lon="9.934180">
        <ele>613.222566</ele>
        <time>2025-11-10T19:18:10.320Z</time>
      </trkpt>
      <trkpt lat="48.500344" lon="9.933815">
        <ele>613.835332</ele>
        <time>2025-11-10T19:18:18.190Z</time>
      </trkpt>
      <trkpt lat="48.500220" lon="9.933595">
        <ele>614.004271</ele>
        <time>2025-11-10T19:18:22.100Z</time>
      </trkpt>
      <trkpt lat="48.500027" lon="9.933100">
        <ele>614.340211</ele>
        <time>2025-11-10T19:18:29.356Z</time>
      </trkpt>
      <trkpt lat="48.499933" lon="9.932656">
        <ele>614.612849</ele>
        <time>2025-11-10T19:18:34.707Z</time>
      </trkpt>
      <trkpt lat="48.499680" lon="9.930552">
        <ele>615.190903</ele>
        <time>2025-11-10T19:18:56.866Z</time>
      </trkpt>
      <trkpt lat="48.499633" lon="9.930307">
        <ele>615.177814</ele>
        <time>2025-11-10T19:18:59.234Z</time>
      </trkpt>
      <trkpt lat="48.499469" lon="9.930114">
        <ele>615.161708</ele>
        <time>2025-11-10T19:19:02.097Z</time>
      </trkpt>
      <trkpt lat="48.499370" lon="9.930085">
        <ele>615.153898</ele>
        <time>2025-11-10T19:19:03.503Z</time>
      </trkpt>
      <trkpt lat="48.498860" lon="9.930083">
        <ele>615.114401</ele>
        <time>2025-11-10T19:19:10.432Z</time>
      </trkpt>
      <trkpt lat="48.496899" lon="9.930150">
        <ele>614.767935</ele>
        <time>2025-11-10T19:19:38.106Z</time>
      </trkpt>
      <trkpt lat="48.496519" lon="9.930162">
        <ele>614.807530</ele>
        <time>2025-11-10T19:19:43.827Z</time>
      </trkpt>
      <trkpt lat="48.494336" lon="9.930331">
        <ele>615.052929</ele>
        <time>2025-11-10T19:20:17.625Z</time>
      </trkpt>
      <trkpt lat="48.489788" lon="9.931327">
        <ele>615.516254</ele>
        <time>2025-11-10T19:21:27.897Z</time>
      </trkpt>
      <trkpt lat="48.488575" lon="9.931692">
        <ele>615.137395</ele>
        <time>2025-11-10T19:21:45.225Z</time>
      </trkpt>
      <trkpt lat="48.487046" lon="9.931985">
        <ele>614.270152</ele>
        <time>2025-11-10T19:22:05.270Z</time>
      </trkpt>
      <trkpt lat="48.486999" lon="9.932136">
        <ele>614.192560</ele>
        <time>2025-11-10T19:22:06.617Z</time>
      </trkpt>
      <trkpt lat="48.487119" lon="9.933836">
        <ele>613.640431</ele>
        <time>2025-11-10T19:22:20.689Z</time>
      </trkpt>
      <trkpt lat="48.487166" lon="9.933988">
        <ele>613.623235</ele>
        <time>2025-11-10T19:22:22.159Z</time>
      </trkpt>
      <trkpt lat="48.487144" lon="9.934105">
        <ele>613.610767</ele>
        <time>2025-11-10T19:22:23.237Z</time>
      </trkpt>
      <trkpt lat="48.487049" lon="9.934143">
        <ele>613.595564</ele>
        <time>2025-11-10T19:22:24.581Z</time>
      </trkpt>
      <trkpt lat="48.486969" lon="9.933024">
        <ele>613.480175</ele>
        <time>2025-11-10T19:22:35.961Z</time>
      </trkpt>
      <trkpt lat="48.486690" lon="9.930505">
        <ele>613.829676</ele>
        <time>2025-11-10T19:23:04.819Z</time>
      </trkpt>
      <trkpt lat="48.486517" lon="9.929034">
        <ele>613.618565</ele>
        <time>2025-11-10T19:23:18.371Z</time>
      </trkpt>
      <trkpt lat="48.486370" lon="9.927612">
        <ele>613.055233</ele>
        <time>2025-11-10T19:23:30.222Z</time>
      </trkpt>
      <trkpt lat="48.486275" lon="9.925865">
        <ele>612.937084</ele>
        <time>2025-11-10T19:23:45.658Z</time>
      </trkpt>
      <trkpt lat="48.486131" lon="9.925039">
        <ele>612.966909</ele>
        <time>2025-11-10T19:23:55.065Z</time>
      </trkpt>
      <trkpt lat="48.485869" lon="9.923756">
        <ele>613.234199</ele>
        <time>2025-11-10T19:24:11.171Z</time>
      </trkpt>
      <trkpt lat="48.485500" lon="9.922261">
        <ele>613.721297</ele>
        <time>2025-11-10T19:24:28.751Z</time>
      </trkpt>
      <trkpt lat="48.484824" lon="9.920190">
        <ele>614.099331</ele>
        <time>2025-11-10T19:24:51.283Z</time>
      </trkpt>
      <trkpt lat="48.484751" lon="9.919871">
        <ele>614.147368</ele>
        <time>2025-11-10T19:24:55.030Z</time>
      </trkpt>
      <trkpt lat="48.484384" lon="9.917804">
        <ele>614.566063</ele>
        <time>2025-11-10T19:25:20.083Z</time>
      </trkpt>
      <trkpt lat="48.484212" lon="9.916466">
        <ele>614.660601</ele>
        <time>2025-11-10T19:25:32.797Z</time>
      </trkpt>
      <trkpt lat="48.484203" lon="9.916412">
        <ele>614.647173</ele>
        <time>2025-11-10T19:25:33.248Z</time>
      </trkpt>
      <trkpt lat="48.484034" lon="9.915865">
        <ele>614.501630</ele>
        <time>2025-11-10T19:25:38.358Z</time>
      </trkpt>
      <trkpt lat="48.484015" lon="9.915817">
        <ele>614.488147</ele>
        <time>2025-11-10T19:25:38.821Z</time>
      </trkpt>
      <trkpt lat="48.483968" lon="9.915713">
        <ele>614.457791</ele>
        <time>2025-11-10T19:25:39.852Z</time>
      </trkpt>
      <trkpt lat="48.483882" lon="9.915532">
        <ele>614.404083</ele>
        <time>2025-11-10T19:25:41.688Z</time>
      </trkpt>
      <trkpt lat="48.483762" lon="9.915278">
        <ele>614.328860</ele>
        <time>2025-11-10T19:25:44.345Z</time>
      </trkpt>
      <trkpt lat="48.483731" lon="9.915212">
        <ele>614.309352</ele>
        <time>2025-11-10T19:25:45.011Z</time>
      </trkpt>
      <trkpt lat="48.483627" lon="9.914991">
        <ele>614.243988</ele>
        <time>2025-11-10T19:25:47.386Z</time>
      </trkpt>
      <trkpt lat="48.483514" lon="9.914775">
        <ele>614.177626</ele>
        <time>2025-11-10T19:25:49.949Z</time>
      </trkpt>
      <trkpt lat="48.483418" lon="9.914597">
        <ele>614.122284</ele>
        <time>2025-11-10T19:25:52.234Z</time>
      </trkpt>
      <trkpt lat="48.483368" lon="9.914504">
        <ele>614.166352</ele>
        <time>2025-11-10T19:25:53.445Z</time>
      </trkpt>
      <trkpt lat="48.483305" lon="9.914392">
        <ele>614.320343</ele>
        <time>2025-11-10T19:25:55.000Z</time>
      </trkpt>
      <trkpt lat="48.483162" lon="9.914146">
        <ele>614.663352</ele>
        <time>2025-11-10T19:25:58.737Z</time>
      </trkpt>
      <trkpt lat="48.482950" lon="9.913753">
        <ele>615.194534</ele>
        <time>2025-11-10T19:26:05.135Z</time>
      </trkpt>
      <trkpt lat="48.482906" lon="9.913648">
        <ele>615.324761</ele>
        <time>2025-11-10T19:26:06.815Z</time>
      </trkpt>
      <trkpt lat="48.482804" lon="9.913331">
        <ele>615.694165</ele>
        <time>2025-11-10T19:26:11.678Z</time>
      </trkpt>
      <trkpt lat="48.482736" lon="9.913076">
        <ele>615.982311</ele>
        <time>2025-11-10T19:26:15.551Z</time>
      </trkpt>
      <trkpt lat="48.482543" lon="9.912120">
        <ele>617.112710</ele>
        <time>2025-11-10T19:26:32.401Z</time>
      </trkpt>
      <trkpt lat="48.482512" lon="9.911943">
        <ele>617.507541</ele>
        <time>2025-11-10T19:26:35.725Z</time>
      </trkpt>
      <trkpt lat="48.482472" lon="9.911597">
        <ele>618.265013</ele>
        <time>2025-11-10T19:26:42.146Z</time>
      </trkpt>
      <trkpt lat="48.482453" lon="9.911402">
        <ele>618.690084</ele>
        <time>2025-11-10T19:26:45.839Z</time>
      </trkpt>
      <trkpt lat="48.482444" lon="9.911306">
        <ele>618.899185</ele>
        <time>2025-11-10T19:26:47.690Z</time>
      </trkpt>
      <trkpt lat="48.482408" lon="9.910984">
        <ele>619.603443</ele>
        <time>2025-11-10T19:26:54.075Z</time>
      </trkpt>
      <trkpt lat="48.482361" lon="9.910568">
        <ele>620.513559</ele>
        <time>2025-11-10T19:27:02.252Z</time>
      </trkpt>
      <trkpt lat="48.482269" lon="9.909964">
        <ele>621.850143</ele>
        <time>2025-11-10T19:27:14.252Z</time>
      </trkpt>
      <trkpt lat="48.482194" lon="9.909672">
        <ele>622.525520</ele>
        <time>2025-11-10T19:27:20.281Z</time>
      </trkpt>
      <trkpt lat="48.482160" lon="9.909602">
        <ele>622.712680</ele>
        <time>2025-11-10T19:27:21.987Z</time>
      </trkpt>
      <trkpt lat="48.481895" lon="9.909112">
        <ele>623.581085</ele>
        <time>2025-11-10T19:27:32.827Z</time>
      </trkpt>
      <trkpt lat="48.481809" lon="9.908845">
        <ele>623.972064</ele>
        <time>2025-11-10T19:27:37.587Z</time>
      </trkpt>
      <trkpt lat="48.481715" lon="9.908490">
        <ele>624.475552</ele>
        <time>2025-11-10T19:27:43.587Z</time>
      </trkpt>
      <trkpt lat="48.481670" lon="9.908283">
        <ele>624.762475</ele>
        <time>2025-11-10T19:27:47.002Z</time>
      </trkpt>
      <trkpt lat="48.481604" lon="9.908023">
        <ele>625.129169</ele>
        <time>2025-11-10T19:27:51.131Z</time>
      </trkpt>
      <trkpt lat="48.481488" lon="9.907305">
        <ele>626.102519</ele>
        <time>2025-11-10T19:28:00.709Z</time>
      </trkpt>
      <trkpt lat="48.481477" lon="9.907194">
        <ele>626.250340</ele>
        <time>2025-11-10T19:28:02.025Z</time>
      </trkpt>
      <trkpt lat="48.481467" lon="9.906623">
        <ele>626.554103</ele>
        <time>2025-11-10T19:28:08.728Z</time>
      </trkpt>
      <trkpt lat="48.481495" lon="9.906396">
        <ele>626.639946</ele>
        <time>2025-11-10T19:28:11.455Z</time>
      </trkpt>
      <trkpt lat="48.481381" lon="9.906349">
        <ele>626.706230</ele>
        <time>2025-11-10T19:28:13.538Z</time>
      </trkpt>
      <trkpt lat="48.481034" lon="9.906361">
        <ele>626.900904</ele>
        <time>2025-11-10T19:28:19.375Z</time>
      </trkpt>
      <trkpt lat="48.480720" lon="9.906378">
        <ele>627.077131</ele>
        <time>2025-11-10T19:28:24.624Z</time>
      </trkpt>
      <trkpt lat="48.480566" lon="9.906393">
        <ele>627.163685</ele>
        <time>2025-11-10T19:28:27.085Z</time>
      </trkpt>
      <trkpt lat="48.480501" lon="9.906399">
        <ele>627.200210</ele>
        <time>2025-11-10T19:28:28.145Z</time>
      </trkpt>
      <trkpt lat="48.480218" lon="9.906469">
        <ele>627.361057</ele>
        <time>2025-11-10T19:28:32.708Z</time>
      </trkpt>
      <trkpt lat="48.480182" lon="9.906070">
        <ele>627.402644</ele>
        <time>2025-11-10T19:28:38.478Z</time>
      </trkpt>
      <trkpt lat="48.480165" lon="9.905665">
        <ele>627.422246</ele>
        <time>2025-11-10T19:28:44.379Z</time>
      </trkpt>
      <trkpt lat="48.480153" lon="9.905395">
        <ele>627.435317</ele>
        <time>2025-11-10T19:28:48.211Z</time>
      </trkpt>
      <trkpt lat="48.480137" lon="9.905035">
        <ele>627.452745</ele>
        <time>2025-11-10T19:28:53.168Z</time>
      </trkpt>
      <trkpt lat="48.480135" lon="9.904982">
        <ele>627.455309</ele>
        <time>2025-11-10T19:28:53.872Z</time>
      </trkpt>
      <trkpt lat="48.480112" lon="9.904350">
        <ele>627.485882</ele>
        <time>2025-11-10T19:29:02.412Z</time>
      </trkpt>
      <trkpt lat="48.480101" lon="9.904035">
        <ele>627.501119</ele>
        <time>2025-11-10T19:29:06.582Z</time>
      </trkpt>
      <trkpt lat="48.480097" lon="9.903917">
        <ele>627.506826</ele>
        <time>2025-11-10T19:29:08.117Z</time>
      </trkpt>
      <trkpt lat="48.480051" lon="9.901159">
        <ele>627.182431</ele>
        <time>2025-11-10T19:29:42.848Z</time>
      </trkpt>
      <trkpt lat="48.479998" lon="9.898643">
        <ele>627.543354</ele>
        <time>2025-11-10T19:30:19.110Z</time>
      </trkpt>
      <trkpt lat="48.479982" lon="9.897705">
        <ele>627.315985</ele>
        <time>2025-11-10T19:30:32.241Z</time>
      </trkpt>
      <trkpt lat="48.479988" lon="9.896446">
        <ele>626.673387</ele>
        <time>2025-11-10T19:30:47.706Z</time>
      </trkpt>
      <trkpt lat="48.479982" lon="9.893988">
        <ele>624.326165</ele>
        <time>2025-11-10T19:31:13.806Z</time>
      </trkpt>
      <trkpt lat="48.480085" lon="9.892215">
        <ele>623.040319</ele>
        <time>2025-11-10T19:31:32.273Z</time>
      </trkpt>
      <trkpt lat="48.480087" lon="9.891960">
        <ele>623.078438</ele>
        <time>2025-11-10T19:31:35.280Z</time>
      </trkpt>
      <trkpt lat="48.480056" lon="9.891647">
        <ele>623.125743</ele>
        <time>2025-11-10T19:31:39.288Z</time>
      </trkpt>
      <trkpt lat="48.479565" lon="9.889034">
        <ele>624.162867</ele>
        <time>2025-11-10T19:32:26.957Z</time>
      </trkpt>
      <trkpt lat="48.479250" lon="9.887360">
        <ele>625.067459</ele>
        <time>2025-11-10T19:32:53.898Z</time>
      </trkpt>
      <trkpt lat="48.479120" lon="9.886723">
        <ele>624.771972</ele>
        <time>2025-11-10T19:33:02.354Z</time>
      </trkpt>
      <trkpt lat="48.478662" lon="9.884945">
        <ele>623.937191</ele>
        <time>2025-11-10T19:33:23.864Z</time>
      </trkpt>
      <trkpt lat="48.478332" lon="9.882704">
        <ele>623.177080</ele>
        <time>2025-11-10T19:33:50.028Z</time>
      </trkpt>
      <trkpt lat="48.478188" lon="9.882212">
        <ele>623.452238</ele>
        <time>2025-11-10T19:33:58.991Z</time>
      </trkpt>
      <trkpt lat="48.477375" lon="9.880195">
        <ele>627.594993</ele>
        <time>2025-11-10T19:34:50.771Z</time>
      </trkpt>
      <trkpt lat="48.477143" lon="9.879595">
        <ele>628.471728</ele>
        <time>2025-11-10T19:35:02.886Z</time>
      </trkpt>
      <trkpt lat="48.477116" lon="9.879525">
        <ele>628.564287</ele>
        <time>2025-11-10T19:35:04.210Z</time>
      </trkpt>
      <trkpt lat="48.477077" lon="9.879438">
        <ele>628.684318</ele>
        <time>2025-11-10T19:35:05.923Z</time>
      </trkpt>
      <trkpt lat="48.476892" lon="9.878974">
        <ele>629.303147</ele>
        <time>2025-11-10T19:35:14.273Z</time>
      </trkpt>
      <trkpt lat="48.476330" lon="9.877680">
        <ele>630.947566</ele>
        <time>2025-11-10T19:35:33.960Z</time>
      </trkpt>
      <trkpt lat="48.473843" lon="9.871473">
        <ele>632.041572</ele>
        <time>2025-11-10T19:36:47.234Z</time>
      </trkpt>
      <trkpt lat="48.469712" lon="9.863895">
        <ele>637.113451</ele>
        <time>2025-11-10T19:38:48.967Z</time>
      </trkpt>
      <trkpt lat="48.469310" lon="9.863115">
        <ele>636.835954</ele>
        <time>2025-11-10T19:38:56.893Z</time>
      </trkpt>
      <trkpt lat="48.469164" lon="9.862620">
        <ele>636.683778</ele>
        <time>2025-11-10T19:39:00.956Z</time>
      </trkpt>
      <trkpt lat="48.469000" lon="9.860735">
        <ele>636.285628</ele>
        <time>2025-11-10T19:39:16.431Z</time>
      </trkpt>
      <trkpt lat="48.468838" lon="9.858612">
        <ele>636.428806</ele>
        <time>2025-11-10T19:39:41.921Z</time>
      </trkpt>
      <trkpt lat="48.466138" lon="9.857633">
        <ele>638.211684</ele>
        <time>2025-11-10T19:40:26.950Z</time>
      </trkpt>
      <trkpt lat="48.464090" lon="9.856896">
        <ele>642.566464</ele>
        <time>2025-11-10T19:41:20.542Z</time>
      </trkpt>
      <trkpt lat="48.463777" lon="9.856783">
        <ele>642.831805</ele>
        <time>2025-11-10T19:41:27.285Z</time>
      </trkpt>
      <trkpt lat="48.460416" lon="9.855568">
        <ele>644.826283</ele>
        <time>2025-11-10T19:42:21.386Z</time>
      </trkpt>
      <trkpt lat="48.460619" lon="9.852966">
        <ele>646.925706</ele>
        <time>2025-11-10T19:42:57.176Z</time>
      </trkpt>
      <trkpt lat="48.460735" lon="9.851601">
        <ele>648.321202</ele>
        <time>2025-11-10T19:43:16.174Z</time>
      </trkpt>
      <trkpt lat="48.460769" lon="9.851074">
        <ele>648.858128</ele>
        <time>2025-11-10T19:43:23.567Z</time>
      </trkpt>
      <trkpt lat="48.460772" lon="9.850037">
        <ele>649.911270</ele>
        <time>2025-11-10T19:43:38.602Z</time>
      </trkpt>
      <trkpt lat="48.460773" lon="9.849958">
        <ele>649.991575</ele>
        <time>2025-11-10T19:43:39.723Z</time>
      </trkpt>
      <trkpt lat="48.460784" lon="9.848441">
        <ele>651.533448</ele>
        <time>2025-11-10T19:44:01.066Z</time>
      </trkpt>
      <trkpt lat="48.460675" lon="9.848464">
        <ele>651.702132</ele>
        <time>2025-11-10T19:44:05.695Z</time>
      </trkpt>
      <trkpt lat="48.460784" lon="9.848441">
        <ele>651.870816</ele>
        <time>2025-11-10T19:44:10.355Z</time>
      </trkpt>
      <trkpt lat="48.460828" lon="9.847566">
        <ele>652.263306</ele>
        <time>2025-11-10T19:44:21.725Z</time>
      </trkpt>
      <trkpt lat="48.460833" lon="9.847497">
        <ele>652.289251</ele>
        <time>2025-11-10T19:44:22.544Z</time>
      </trkpt>
      <trkpt lat="48.460855" lon="9.847219">
        <ele>652.393906</ele>
        <time>2025-11-10T19:44:25.761Z</time>
      </trkpt>
      <trkpt lat="48.460918" lon="9.846674">
        <ele>652.600701</ele>
        <time>2025-11-10T19:44:32.038Z</time>
      </trkpt>
      <trkpt lat="48.460954" lon="9.846376">
        <ele>652.713928</ele>
        <time>2025-11-10T19:44:35.360Z</time>
      </trkpt>
      <trkpt lat="48.460925" lon="9.846157">
        <ele>652.797407</ele>
        <time>2025-11-10T19:44:37.638Z</time>
      </trkpt>
      <trkpt lat="48.460978" lon="9.846059">
        <ele>652.844677</ele>
        <time>2025-11-10T19:44:38.852Z</time>
      </trkpt>
      <trkpt lat="48.461020" lon="9.845814">
        <ele>652.939269</ele>
        <time>2025-11-10T19:44:41.388Z</time>
      </trkpt>
      <trkpt lat="48.461017" lon="9.845565">
        <ele>652.888435</ele>
        <time>2025-11-10T19:44:43.821Z</time>
      </trkpt>
      <trkpt lat="48.460979" lon="9.845417">
        <ele>652.760845</ele>
        <time>2025-11-10T19:44:45.318Z</time>
      </trkpt>
      <trkpt lat="48.461327" lon="9.845247">
        <ele>652.317367</ele>
        <time>2025-11-10T19:44:50.218Z</time>
      </trkpt>
      <trkpt lat="48.461411" lon="9.845147">
        <ele>652.187622</ele>
        <time>2025-11-10T19:44:51.548Z</time>
      </trkpt>
      <trkpt lat="48.461565" lon="9.845155">
        <ele>652.000811</ele>
        <time>2025-11-10T19:44:53.406Z</time>
      </trkpt>
      <trkpt lat="48.461657" lon="9.845163">
        <ele>651.889090</ele>
        <time>2025-11-10T19:44:54.496Z</time>
      </trkpt>
      <trkpt lat="48.461726" lon="9.845169">
        <ele>651.805300</ele>
        <time>2025-11-10T19:44:55.301Z</time>
      </trkpt>
      <trkpt lat="48.461806" lon="9.845169">
        <ele>651.708313</ele>
        <time>2025-11-10T19:44:56.230Z</time>
      </trkpt>
      <trkpt lat="48.461976" lon="9.845169">
        <ele>651.502215</ele>
        <time>2025-11-10T19:44:58.165Z</time>
      </trkpt>
      <trkpt lat="48.462171" lon="9.845177">
        <ele>651.265722</ele>
        <time>2025-11-10T19:45:00.315Z</time>
      </trkpt>
      <trkpt lat="48.462206" lon="9.845080">
        <ele>651.176945</ele>
        <time>2025-11-10T19:45:01.107Z</time>
      </trkpt>
      <trkpt lat="48.462276" lon="9.845000">
        <ele>651.070464</ele>
        <time>2025-11-10T19:45:02.059Z</time>
      </trkpt>
      <trkpt lat="48.462500" lon="9.844825">
        <ele>650.730656</ele>
        <time>2025-11-10T19:45:04.774Z</time>
      </trkpt>
      <trkpt lat="48.462561" lon="9.844730">
        <ele>650.537322</ele>
        <time>2025-11-10T19:45:05.728Z</time>
      </trkpt>
      <trkpt lat="48.462677" lon="9.844526">
        <ele>650.144436</ele>
        <time>2025-11-10T19:45:07.652Z</time>
      </trkpt>
      <trkpt lat="48.462800" lon="9.844331">
        <ele>649.750969</ele>
        <time>2025-11-10T19:45:09.565Z</time>
      </trkpt>
      <trkpt lat="48.463088" lon="9.843827">
        <ele>648.778283</ele>
        <time>2025-11-10T19:45:14.274Z</time>
      </trkpt>
      <trkpt lat="48.463421" lon="9.843228">
        <ele>647.635517</ele>
        <time>2025-11-10T19:45:19.808Z</time>
      </trkpt>
      <trkpt lat="48.463813" lon="9.842517">
        <ele>646.428425</ele>
        <time>2025-11-10T19:45:26.551Z</time>
      </trkpt>
      <trkpt lat="48.464066" lon="9.842102">
        <ele>645.818468</ele>
        <time>2025-11-10T19:45:30.752Z</time>
      </trkpt>
      <trkpt lat="48.464217" lon="9.841900">
        <ele>645.489110</ele>
        <time>2025-11-10T19:45:33.018Z</time>
      </trkpt>
      <trkpt lat="48.464397" lon="9.841718">
        <ele>645.135496</ele>
        <time>2025-11-10T19:45:36.507Z</time>
      </trkpt>
      <trkpt lat="48.465301" lon="9.840882">
        <ele>643.774198</ele>
        <time>2025-11-10T19:45:54.148Z</time>
      </trkpt>
      <trkpt lat="48.465533" lon="9.840757">
        <ele>643.668610</ele>
        <time>2025-11-10T19:45:58.472Z</time>
      </trkpt>
      <trkpt lat="48.466113" lon="9.840521">
        <ele>643.411137</ele>
        <time>2025-11-10T19:46:09.660Z</time>
      </trkpt>
      <trkpt lat="48.466509" lon="9.840297">
        <ele>643.229870</ele>
        <time>2025-11-10T19:46:18.312Z</time>
      </trkpt>
      <trkpt lat="48.466822" lon="9.840027">
        <ele>643.282668</ele>
        <time>2025-11-10T19:46:26.135Z</time>
      </trkpt>
      <trkpt lat="48.467099" lon="9.839728">
        <ele>643.645902</ele>
        <time>2025-11-10T19:46:33.776Z</time>
      </trkpt>
      <trkpt lat="48.467410" lon="9.839267">
        <ele>644.110894</ele>
        <time>2025-11-10T19:46:44.020Z</time>
      </trkpt>
      <trkpt lat="48.467692" lon="9.838672">
        <ele>644.628001</ele>
        <time>2025-11-10T19:46:56.275Z</time>
      </trkpt>
      <trkpt lat="48.467972" lon="9.837719">
        <ele>645.596954</ele>
        <time>2025-11-10T19:47:15.381Z</time>
      </trkpt>
      <trkpt lat="48.468185" lon="9.837237">
        <ele>646.310735</ele>
        <time>2025-11-10T19:47:26.352Z</time>
      </trkpt>
      <trkpt lat="48.468274" lon="9.837034">
        <ele>646.610624</ele>
        <time>2025-11-10T19:47:31.060Z</time>
      </trkpt>
      <trkpt lat="48.468323" lon="9.836923">
        <ele>646.774947</ele>
        <time>2025-11-10T19:47:33.635Z</time>
      </trkpt>
      <trkpt lat="48.468348" lon="9.836866">
        <ele>646.859163</ele>
        <time>2025-11-10T19:47:34.712Z</time>
      </trkpt>
      <trkpt lat="48.469183" lon="9.834822">
        <ele>648.920831</ele>
        <time>2025-11-10T19:48:09.292Z</time>
      </trkpt>
      <trkpt lat="48.469398" lon="9.834342">
        <ele>649.184507</ele>
        <time>2025-11-10T19:48:15.699Z</time>
      </trkpt>
      <trkpt lat="48.469674" lon="9.833845">
        <ele>649.479605</ele>
        <time>2025-11-10T19:48:22.028Z</time>
      </trkpt>
      <trkpt lat="48.470103" lon="9.833127">
        <ele>649.142726</ele>
        <time>2025-11-10T19:48:30.336Z</time>
      </trkpt>
      <trkpt lat="48.470486" lon="9.832562">
        <ele>648.522539</ele>
        <time>2025-11-10T19:48:36.656Z</time>
      </trkpt>
      <trkpt lat="48.470654" lon="9.832377">
        <ele>648.281739</ele>
        <time>2025-11-10T19:48:39.052Z</time>
      </trkpt>
      <trkpt lat="48.470906" lon="9.832114">
        <ele>647.926988</ele>
        <time>2025-11-10T19:48:42.570Z</time>
      </trkpt>
      <trkpt lat="48.470985" lon="9.832036">
        <ele>647.817683</ele>
        <time>2025-11-10T19:48:43.638Z</time>
      </trkpt>
      <trkpt lat="48.471629" lon="9.831357">
        <ele>646.999285</ele>
        <time>2025-11-10T19:48:52.637Z</time>
      </trkpt>
      <trkpt lat="48.472192" lon="9.830708">
        <ele>646.295868</ele>
        <time>2025-11-10T19:49:01.159Z</time>
      </trkpt>
      <trkpt lat="48.472555" lon="9.830241">
        <ele>645.822250</ele>
        <time>2025-11-10T19:49:07.407Z</time>
      </trkpt>
      <trkpt lat="48.473466" lon="9.829062">
        <ele>645.712696</ele>
        <time>2025-11-10T19:49:25.550Z</time>
      </trkpt>
      <trkpt lat="48.473717" lon="9.828602">
        <ele>645.695379</ele>
        <time>2025-11-10T19:49:31.530Z</time>
      </trkpt>
      <trkpt lat="48.473825" lon="9.828305">
        <ele>645.685533</ele>
        <time>2025-11-10T19:49:34.871Z</time>
      </trkpt>
      <trkpt lat="48.474085" lon="9.827413">
        <ele>645.073251</ele>
        <time>2025-11-10T19:49:44.353Z</time>
      </trkpt>
      <trkpt lat="48.474398" lon="9.826571">
        <ele>644.429791</ele>
        <time>2025-11-10T19:49:52.537Z</time>
      </trkpt>
      <trkpt lat="48.474580" lon="9.826231">
        <ele>644.138504</ele>
        <time>2025-11-10T19:49:55.831Z</time>
      </trkpt>
      <trkpt lat="48.474845" lon="9.825814">
        <ele>643.560360</ele>
        <time>2025-11-10T19:49:59.945Z</time>
      </trkpt>
      <trkpt lat="48.475534" lon="9.824873">
        <ele>641.145719</ele>
        <time>2025-11-10T19:50:09.176Z</time>
      </trkpt>
      <trkpt lat="48.476126" lon="9.824321">
        <ele>639.337645</ele>
        <time>2025-11-10T19:50:16.377Z</time>
      </trkpt>
      <trkpt lat="48.476292" lon="9.824072">
        <ele>639.329993</ele>
        <time>2025-11-10T19:50:19.340Z</time>
      </trkpt>
      <trkpt lat="48.476333" lon="9.823991">
        <ele>639.377216</ele>
        <time>2025-11-10T19:50:20.339Z</time>
      </trkpt>
      <trkpt lat="48.476538" lon="9.823267">
        <ele>639.742014</ele>
        <time>2025-11-10T19:50:30.067Z</time>
      </trkpt>
      <trkpt lat="48.476810" lon="9.822674">
        <ele>640.076151</ele>
        <time>2025-11-10T19:50:41.056Z</time>
      </trkpt>
      <trkpt lat="48.476874" lon="9.822479">
        <ele>640.176975</ele>
        <time>2025-11-10T19:50:44.603Z</time>
      </trkpt>
      <trkpt lat="48.477037" lon="9.822012">
        <ele>640.421527</ele>
        <time>2025-11-10T19:50:52.378Z</time>
      </trkpt>
      <trkpt lat="48.477348" lon="9.821290">
        <ele>639.641666</ele>
        <time>2025-11-10T19:51:01.344Z</time>
      </trkpt>
      <trkpt lat="48.477417" lon="9.820957">
        <ele>639.274872</ele>
        <time>2025-11-10T19:51:03.975Z</time>
      </trkpt>
      <trkpt lat="48.477446" lon="9.820517">
        <ele>638.810009</ele>
        <time>2025-11-10T19:51:07.075Z</time>
      </trkpt>
      <trkpt lat="48.477502" lon="9.820116">
        <ele>638.379175</ele>
        <time>2025-11-10T19:51:09.861Z</time>
      </trkpt>
      <trkpt lat="48.477583" lon="9.819625">
        <ele>637.847233</ele>
        <time>2025-11-10T19:51:13.269Z</time>
      </trkpt>
      <trkpt lat="48.477673" lon="9.819299">
        <ele>637.460865</ele>
        <time>2025-11-10T19:51:15.645Z</time>
      </trkpt>
      <trkpt lat="48.477796" lon="9.818776">
        <ele>636.810396</ele>
        <time>2025-11-10T19:51:19.431Z</time>
      </trkpt>
      <trkpt lat="48.477900" lon="9.818100">
        <ele>635.996967</ele>
        <time>2025-11-10T19:51:24.364Z</time>
      </trkpt>
      <trkpt lat="48.477991" lon="9.817235">
        <ele>634.970374</ele>
        <time>2025-11-10T19:51:31.232Z</time>
      </trkpt>
      <trkpt lat="48.478227" lon="9.816016">
        <ele>633.199054</ele>
        <time>2025-11-10T19:51:43.095Z</time>
      </trkpt>
      <trkpt lat="48.478255" lon="9.815609">
        <ele>632.575937</ele>
        <time>2025-11-10T19:51:46.994Z</time>
      </trkpt>
      <trkpt lat="48.478255" lon="9.815136">
        <ele>631.855642</ele>
        <time>2025-11-10T19:51:50.705Z</time>
      </trkpt>
      <trkpt lat="48.478231" lon="9.814463">
        <ele>630.829300</ele>
        <time>2025-11-10T19:51:55.165Z</time>
      </trkpt>
      <trkpt lat="48.478206" lon="9.814277">
        <ele>630.540292</ele>
        <time>2025-11-10T19:51:56.317Z</time>
      </trkpt>
      <trkpt lat="48.478091" lon="9.814030">
        <ele>629.649677</ele>
        <time>2025-11-10T19:51:58.147Z</time>
      </trkpt>
      <trkpt lat="48.477693" lon="9.813623">
        <ele>626.326556</ele>
        <time>2025-11-10T19:52:02.465Z</time>
      </trkpt>
      <trkpt lat="48.477524" lon="9.813385">
        <ele>624.728685</ele>
        <time>2025-11-10T19:52:04.502Z</time>
      </trkpt>
      <trkpt lat="48.477444" lon="9.813159">
        <ele>623.554886</ele>
        <time>2025-11-10T19:52:05.990Z</time>
      </trkpt>
      <trkpt lat="48.477465" lon="9.812743">
        <ele>621.643446</ele>
        <time>2025-11-10T19:52:08.406Z</time>
      </trkpt>
      <trkpt lat="48.477778" lon="9.811783">
        <ele>617.390842</ele>
        <time>2025-11-10T19:52:14.771Z</time>
      </trkpt>
      <trkpt lat="48.477878" lon="9.811591">
        <ele>616.918843</ele>
        <time>2025-11-10T19:52:16.352Z</time>
      </trkpt>
      <trkpt lat="48.477979" lon="9.811457">
        <ele>616.526622</ele>
        <time>2025-11-10T19:52:17.714Z</time>
      </trkpt>
      <trkpt lat="48.478091" lon="9.811367">
        <ele>616.156579</ele>
        <time>2025-11-10T19:52:18.997Z</time>
      </trkpt>
      <trkpt lat="48.478225" lon="9.811287">
        <ele>615.736343</ele>
        <time>2025-11-10T19:52:20.475Z</time>
      </trkpt>
      <trkpt lat="48.478769" lon="9.811088">
        <ele>614.104051</ele>
        <time>2025-11-10T19:52:26.441Z</time>
      </trkpt>
      <trkpt lat="48.479045" lon="9.810903">
        <ele>613.223356</ele>
        <time>2025-11-10T19:52:29.801Z</time>
      </trkpt>
      <trkpt lat="48.479213" lon="9.810610">
        <ele>612.786901</ele>
        <time>2025-11-10T19:52:32.953Z</time>
      </trkpt>
      <trkpt lat="48.479292" lon="9.810328">
        <ele>613.469841</ele>
        <time>2025-11-10T19:52:35.997Z</time>
      </trkpt>
      <trkpt lat="48.479343" lon="9.810082">
        <ele>614.044817</ele>
        <time>2025-11-10T19:52:39.074Z</time>
      </trkpt>
      <trkpt lat="48.479342" lon="9.809727">
        <ele>614.836740</ele>
        <time>2025-11-10T19:52:43.955Z</time>
      </trkpt>
      <trkpt lat="48.479325" lon="9.809411">
        <ele>615.543974</ele>
        <time>2025-11-10T19:52:49.101Z</time>
      </trkpt>
      <trkpt lat="48.479238" lon="9.808897">
        <ele>616.727367</ele>
        <time>2025-11-10T19:52:59.711Z</time>
      </trkpt>
      <trkpt lat="48.479168" lon="9.808647">
        <ele>617.332764</ele>
        <time>2025-11-10T19:53:06.192Z</time>
      </trkpt>
      <trkpt lat="48.479042" lon="9.808340">
        <ele>618.138244</ele>
        <time>2025-11-10T19:53:15.817Z</time>
      </trkpt>
      <trkpt lat="48.478896" lon="9.808209">
        <ele>618.764135</ele>
        <time>2025-11-10T19:53:23.528Z</time>
      </trkpt>
      <trkpt lat="48.478755" lon="9.807977">
        <ele>620.479117</ele>
        <time>2025-11-10T19:53:33.717Z</time>
      </trkpt>
      <trkpt lat="48.478440" lon="9.806884">
        <ele>626.973098</ele>
        <time>2025-11-10T19:54:13.708Z</time>
      </trkpt>
      <trkpt lat="48.478374" lon="9.806562">
        <ele>628.809562</ele>
        <time>2025-11-10T19:54:24.885Z</time>
      </trkpt>
      <trkpt lat="48.478332" lon="9.806204">
        <ele>630.790542</ele>
        <time>2025-11-10T19:54:36.688Z</time>
      </trkpt>
      <trkpt lat="48.478336" lon="9.804586">
        <ele>638.598772</ele>
        <time>2025-11-10T19:55:26.483Z</time>
      </trkpt>
      <trkpt lat="48.478433" lon="9.802900">
        <ele>646.050408</ele>
        <time>2025-11-10T19:56:12.647Z</time>
      </trkpt>
      <trkpt lat="48.478416" lon="9.802586">
        <ele>646.730875</ele>
        <time>2025-11-10T19:56:19.782Z</time>
      </trkpt>
      <trkpt lat="48.478202" lon="9.801172">
        <ele>649.863564</ele>
        <time>2025-11-10T19:56:46.230Z</time>
      </trkpt>
      <trkpt lat="48.478179" lon="9.801038">
        <ele>650.162536</ele>
        <time>2025-11-10T19:56:48.206Z</time>
      </trkpt>
      <trkpt lat="48.477618" lon="9.796953">
        <ele>655.504563</ele>
        <time>2025-11-10T19:57:46.436Z</time>
      </trkpt>
      <trkpt lat="48.477067" lon="9.792893">
        <ele>661.683776</ele>
        <time>2025-11-10T19:58:50.082Z</time>
      </trkpt>
      <trkpt lat="48.477083" lon="9.792609">
        <ele>662.164885</ele>
        <time>2025-11-10T19:58:55.583Z</time>
      </trkpt>
      <trkpt lat="48.477212" lon="9.792387">
        <ele>662.741650</ele>
        <time>2025-11-10T19:59:01.320Z</time>
      </trkpt>
      <trkpt lat="48.477601" lon="9.792627">
        <ele>664.718832</ele>
        <time>2025-11-10T19:59:14.606Z</time>
      </trkpt>
      <trkpt lat="48.477840" lon="9.792701">
        <ele>665.866638</ele>
        <time>2025-11-10T19:59:23.006Z</time>
      </trkpt>
      <trkpt lat="48.478155" lon="9.792697">
        <ele>667.348596</ele>
        <time>2025-11-10T19:59:33.972Z</time>
      </trkpt>
      <trkpt lat="48.478165" lon="9.792831">
        <ele>667.769130</ele>
        <time>2025-11-10T19:59:45.682Z</time>
      </trkpt>
      <trkpt lat="48.478155" lon="9.792697">
        <ele>668.189664</ele>
        <time>2025-11-10T19:59:57.453Z</time>
      </trkpt>
      <trkpt lat="48.478316" lon="9.792669">
        <ele>668.952099</ele>
        <time>2025-11-10T20:00:03.124Z</time>
      </trkpt>
      <trkpt lat="48.478380" lon="9.792653">
        <ele>669.257291</ele>
        <time>2025-11-10T20:00:05.407Z</time>
      </trkpt>
      <trkpt lat="48.478656" lon="9.792536">
        <ele>670.606015</ele>
        <time>2025-11-10T20:00:15.498Z</time>
      </trkpt>
      <trkpt lat="48.478686" lon="9.792513">
        <ele>670.764330</ele>
        <time>2025-11-10T20:00:16.739Z</time>
      </trkpt>
      <trkpt lat="48.478841" lon="9.792393">
        <ele>671.541324</ele>
        <time>2025-11-10T20:00:23.345Z</time>
      </trkpt>
      <trkpt lat="48.479053" lon="9.792228">
        <ele>672.576883</ele>
        <time>2025-11-10T20:00:32.190Z</time>
      </trkpt>
      <trkpt lat="48.479158" lon="9.792196">
        <ele>673.041897</ele>
        <time>2025-11-10T20:00:36.149Z</time>
      </trkpt>
      <trkpt lat="48.479239" lon="9.792224">
        <ele>673.402633</ele>
        <time>2025-11-10T20:00:39.223Z</time>
      </trkpt>
      <trkpt lat="48.479457" lon="9.792326">
        <ele>674.393445</ele>
        <time>2025-11-10T20:00:47.275Z</time>
      </trkpt>
      <trkpt lat="48.479483" lon="9.792183">
        <ele>674.820140</ele>
        <time>2025-11-10T20:00:51.044Z</time>
      </trkpt>
      <trkpt lat="48.479502" lon="9.791653">
        <ele>676.347498</ele>
        <time>2025-11-10T20:01:04.469Z</time>
      </trkpt>
      <trkpt lat="48.479497" lon="9.791144">
        <ele>677.812357</ele>
        <time>2025-11-10T20:01:16.746Z</time>
      </trkpt>
      <trkpt lat="48.479436" lon="9.790527">
        <ele>679.014272</ele>
        <time>2025-11-10T20:01:29.877Z</time>
      </trkpt>
      <trkpt lat="48.479374" lon="9.789917">
        <ele>679.417169</ele>
        <time>2025-11-10T20:01:40.363Z</time>
      </trkpt>
      <trkpt lat="48.479327" lon="9.789694">
        <ele>679.569938</ele>
        <time>2025-11-10T20:01:42.959Z</time>
      </trkpt>
      <trkpt lat="48.479273" lon="9.789437">
        <ele>679.745949</ele>
        <time>2025-11-10T20:01:45.966Z</time>
      </trkpt>
      <trkpt lat="48.479052" lon="9.788377">
        <ele>680.471403</ele>
        <time>2025-11-10T20:01:57.801Z</time>
      </trkpt>
      <trkpt lat="48.478913" lon="9.787714">
        <ele>680.630542</ele>
        <time>2025-11-10T20:02:04.407Z</time>
      </trkpt>
      <trkpt lat="48.478764" lon="9.787159">
        <ele>680.654120</ele>
        <time>2025-11-10T20:02:10.237Z</time>
      </trkpt>
      <trkpt lat="48.478789" lon="9.787077">
        <ele>680.657674</ele>
        <time>2025-11-10T20:02:11.113Z</time>
      </trkpt>
      <trkpt lat="48.478840" lon="9.786532">
        <ele>680.679346</ele>
        <time>2025-11-10T20:02:16.506Z</time>
      </trkpt>
      <trkpt lat="48.478714" lon="9.785157">
        <ele>680.933378</ele>
        <time>2025-11-10T20:02:30.306Z</time>
      </trkpt>
      <trkpt lat="48.478382" lon="9.781885">
        <ele>682.351780</ele>
        <time>2025-11-10T20:03:11.850Z</time>
      </trkpt>
      <trkpt lat="48.478210" lon="9.780333">
        <ele>682.599807</ele>
        <time>2025-11-10T20:03:27.625Z</time>
      </trkpt>
      <trkpt lat="48.478040" lon="9.779358">
        <ele>681.528985</ele>
        <time>2025-11-10T20:03:35.579Z</time>
      </trkpt>
      <trkpt lat="48.477804" lon="9.778292">
        <ele>680.099156</ele>
        <time>2025-11-10T20:03:43.669Z</time>
      </trkpt>
      <trkpt lat="48.477692" lon="9.777035">
        <ele>678.220946</ele>
        <time>2025-11-10T20:03:52.395Z</time>
      </trkpt>
      <trkpt lat="48.477745" lon="9.775396">
        <ele>675.327569</ele>
        <time>2025-11-10T20:04:03.471Z</time>
      </trkpt>
      <trkpt lat="48.478218" lon="9.775092">
        <ele>674.295179</ele>
        <time>2025-11-10T20:04:08.988Z</time>
      </trkpt>
      <trkpt lat="48.477776" lon="9.773380">
        <ele>673.597507</ele>
        <time>2025-11-10T20:04:24.800Z</time>
      </trkpt>
      <trkpt lat="48.477753" lon="9.773293">
        <ele>673.561940</ele>
        <time>2025-11-10T20:04:25.890Z</time>
      </trkpt>
      <trkpt lat="48.477580" lon="9.772621">
        <ele>673.491693</ele>
        <time>2025-11-10T20:04:34.338Z</time>
      </trkpt>
      <trkpt lat="48.477106" lon="9.770850">
        <ele>674.916202</ele>
        <time>2025-11-10T20:04:58.068Z</time>
      </trkpt>
      <trkpt lat="48.476810" lon="9.767475">
        <ele>678.795451</ele>
        <time>2025-11-10T20:05:47.732Z</time>
      </trkpt>
      <trkpt lat="48.476776" lon="9.766876">
        <ele>679.756616</ele>
        <time>2025-11-10T20:05:57.748Z</time>
      </trkpt>
      <trkpt lat="48.476722" lon="9.766348">
        <ele>680.610753</ele>
        <time>2025-11-10T20:06:06.708Z</time>
      </trkpt>
      <trkpt lat="48.476665" lon="9.766117">
        <ele>681.004823</ele>
        <time>2025-11-10T20:06:10.921Z</time>
      </trkpt>
      <trkpt lat="48.475909" lon="9.764109">
        <ele>684.900208</ele>
        <time>2025-11-10T20:06:48.310Z</time>
      </trkpt>
      <trkpt lat="48.475701" lon="9.763654">
        <ele>685.891271</ele>
        <time>2025-11-10T20:06:57.576Z</time>
      </trkpt>
      <trkpt lat="48.475272" lon="9.763576">
        <ele>687.060060</ele>
        <time>2025-11-10T20:07:09.156Z</time>
      </trkpt>
      <trkpt lat="48.474713" lon="9.763470">
        <ele>688.670139</ele>
        <time>2025-11-10T20:07:27.471Z</time>
      </trkpt>
      <trkpt lat="48.474227" lon="9.763199">
        <ele>690.245282</ele>
        <time>2025-11-10T20:07:44.536Z</time>
      </trkpt>
      <trkpt lat="48.473380" lon="9.762490">
        <ele>693.190046</ele>
        <time>2025-11-10T20:08:16.216Z</time>
      </trkpt>
      <trkpt lat="48.472922" lon="9.762227">
        <ele>694.308746</ele>
        <time>2025-11-10T20:08:31.389Z</time>
      </trkpt>
      <trkpt lat="48.472557" lon="9.762090">
        <ele>695.131568</ele>
        <time>2025-11-10T20:08:42.714Z</time>
      </trkpt>
      <trkpt lat="48.472105" lon="9.761981">
        <ele>696.132917</ele>
        <time>2025-11-10T20:08:56.044Z</time>
      </trkpt>
      <trkpt lat="48.471182" lon="9.761834">
        <ele>697.677425</ele>
        <time>2025-11-10T20:09:19.958Z</time>
      </trkpt>
      <trkpt lat="48.470731" lon="9.761865">
        <ele>698.114908</ele>
        <time>2025-11-10T20:09:31.085Z</time>
      </trkpt>
      <trkpt lat="48.469573" lon="9.762156">
        <ele>698.999518</ele>
        <time>2025-11-10T20:09:58.745Z</time>
      </trkpt>
      <trkpt lat="48.469314" lon="9.762223">
        <ele>698.959353</ele>
        <time>2025-11-10T20:10:04.255Z</time>
      </trkpt>
      <trkpt lat="48.468606" lon="9.762240">
        <ele>698.851125</ele>
        <time>2025-11-10T20:10:17.308Z</time>
      </trkpt>
      <trkpt lat="48.467508" lon="9.762188">
        <ele>699.160039</ele>
        <time>2025-11-10T20:10:37.497Z</time>
      </trkpt>
      <trkpt lat="48.467631" lon="9.759270">
        <ele>701.071215</ele>
        <time>2025-11-10T20:11:17.139Z</time>
      </trkpt>
      <trkpt lat="48.467716" lon="9.757207">
        <ele>702.932804</ele>
        <time>2025-11-10T20:11:44.716Z</time>
      </trkpt>
      <trkpt lat="48.467734" lon="9.756588">
        <ele>703.510252</ele>
        <time>2025-11-10T20:11:52.900Z</time>
      </trkpt>
      <trkpt lat="48.467689" lon="9.756332">
        <ele>703.757081</ele>
        <time>2025-11-10T20:11:56.539Z</time>
      </trkpt>
      <trkpt lat="48.469164" lon="9.755159">
        <ele>704.812882</ele>
        <time>2025-11-10T20:12:31.097Z</time>
      </trkpt>
      <trkpt lat="48.469661" lon="9.754763">
        <ele>704.511651</ele>
        <time>2025-11-10T20:12:38.067Z</time>
      </trkpt>
      <trkpt lat="48.470743" lon="9.754418">
        <ele>703.767594</ele>
        <time>2025-11-10T20:12:49.666Z</time>
      </trkpt>
      <trkpt lat="48.471658" lon="9.754026">
        <ele>702.987561</ele>
        <time>2025-11-10T20:13:01.244Z</time>
      </trkpt>
      <trkpt lat="48.471989" lon="9.753854">
        <ele>702.887161</ele>
        <time>2025-11-10T20:13:08.094Z</time>
      </trkpt>
      <trkpt lat="48.472339" lon="9.753527">
        <ele>704.719891</ele>
        <time>2025-11-10T20:13:18.153Z</time>
      </trkpt>
      <trkpt lat="48.472618" lon="9.753109">
        <ele>706.470436</ele>
        <time>2025-11-10T20:13:30.492Z</time>
      </trkpt>
      <trkpt lat="48.472762" lon="9.752795">
        <ele>707.597244</ele>
        <time>2025-11-10T20:13:39.763Z</time>
      </trkpt>
      <trkpt lat="48.472937" lon="9.752251">
        <ele>709.381760</ele>
        <time>2025-11-10T20:13:55.980Z</time>
      </trkpt>
      <trkpt lat="48.473272" lon="9.750623">
        <ele>714.616140</ele>
        <time>2025-11-10T20:14:41.931Z</time>
      </trkpt>
      <trkpt lat="48.473310" lon="9.750419">
        <ele>715.276145</ele>
        <time>2025-11-10T20:14:47.193Z</time>
      </trkpt>
      <trkpt lat="48.473660" lon="9.745721">
        <ele>724.848846</ele>
        <time>2025-11-10T20:16:09.651Z</time>
      </trkpt>
      <trkpt lat="48.473735" lon="9.744828">
        <ele>725.522393</ele>
        <time>2025-11-10T20:16:21.139Z</time>
      </trkpt>
      <trkpt lat="48.473755" lon="9.744095">
        <ele>726.071340</ele>
        <time>2025-11-10T20:16:28.839Z</time>
      </trkpt>
      <trkpt lat="48.473738" lon="9.743447">
        <ele>726.088453</ele>
        <time>2025-11-10T20:16:34.674Z</time>
      </trkpt>
      <trkpt lat="48.473556" lon="9.740503">
        <ele>723.796792</ele>
        <time>2025-11-10T20:16:57.979Z</time>
      </trkpt>
      <trkpt lat="48.473539" lon="9.740310">
        <ele>723.566822</ele>
        <time>2025-11-10T20:16:59.422Z</time>
      </trkpt>
      <trkpt lat="48.473403" lon="9.737974">
        <ele>721.023931</ele>
        <time>2025-11-10T20:17:16.451Z</time>
      </trkpt>
      <trkpt lat="48.473411" lon="9.737537">
        <ele>720.756403</ele>
        <time>2025-11-10T20:17:19.761Z</time>
      </trkpt>
      <trkpt lat="48.473454" lon="9.737127">
        <ele>720.502379</ele>
        <time>2025-11-10T20:17:22.984Z</time>
      </trkpt>
      <trkpt lat="48.473971" lon="9.734188">
        <ele>720.040304</ele>
        <time>2025-11-10T20:17:51.259Z</time>
      </trkpt>
      <trkpt lat="48.474951" lon="9.728977">
        <ele>722.280161</ele>
        <time>2025-11-10T20:19:02.718Z</time>
      </trkpt>
      <trkpt lat="48.475167" lon="9.728304">
        <ele>722.129474</ele>
        <time>2025-11-10T20:19:08.753Z</time>
      </trkpt>
      <trkpt lat="48.476602" lon="9.724242">
        <ele>712.305093</ele>
        <time>2025-11-10T20:19:38.723Z</time>
      </trkpt>
      <trkpt lat="48.476763" lon="9.723924">
        <ele>711.468215</ele>
        <time>2025-11-10T20:19:41.330Z</time>
      </trkpt>
      <trkpt lat="48.476877" lon="9.724190">
        <ele>710.805743</ele>
        <time>2025-11-10T20:19:44.351Z</time>
      </trkpt>
      <trkpt lat="48.477949" lon="9.726785">
        <ele>708.545207</ele>
        <time>2025-11-10T20:20:19.195Z</time>
      </trkpt>
      <trkpt lat="48.478114" lon="9.727362">
        <ele>709.390019</ele>
        <time>2025-11-10T20:20:30.524Z</time>
      </trkpt>
      <trkpt lat="48.478276" lon="9.727926">
        <ele>710.593315</ele>
        <time>2025-11-10T20:20:43.070Z</time>
      </trkpt>
      <trkpt lat="48.478765" lon="9.729468">
        <ele>713.945105</ele>
        <time>2025-11-10T20:21:23.736Z</time>
      </trkpt>
      <trkpt lat="48.478906" lon="9.729816">
        <ele>714.771386</ele>
        <time>2025-11-10T20:21:33.937Z</time>
      </trkpt>
      <trkpt lat="48.479257" lon="9.730539">
        <ele>716.586913</ele>
        <time>2025-11-10T20:21:55.794Z</time>
      </trkpt>
      <trkpt lat="48.479802" lon="9.731322">
        <ele>718.887019</ele>
        <time>2025-11-10T20:22:19.242Z</time>
      </trkpt>
      <trkpt lat="48.480243" lon="9.731809">
        <ele>718.907020</ele>
        <time>2025-11-10T20:22:31.924Z</time>
      </trkpt>
      <trkpt lat="48.480823" lon="9.732190">
        <ele>718.344954</ele>
        <time>2025-11-10T20:22:42.509Z</time>
      </trkpt>
      <trkpt lat="48.482095" lon="9.732994">
        <ele>717.679591</ele>
        <time>2025-11-10T20:23:04.011Z</time>
      </trkpt>
      <trkpt lat="48.483038" lon="9.734058">
        <ele>717.703125</ele>
        <time>2025-11-10T20:23:31.745Z</time>
      </trkpt>
      <trkpt lat="48.484453" lon="9.734865">
        <ele>721.418002</ele>
        <time>2025-11-10T20:24:20.100Z</time>
      </trkpt>
      <trkpt lat="48.486242" lon="9.736329">
        <ele>725.482924</ele>
        <time>2025-11-10T20:25:16.491Z</time>
      </trkpt>
      <trkpt lat="48.486829" lon="9.736809">
        <ele>726.652496</ele>
        <time>2025-11-10T20:25:34.881Z</time>
      </trkpt>
      <trkpt lat="48.487612" lon="9.737448">
        <ele>728.202293</ele>
        <time>2025-11-10T20:25:59.772Z</time>
      </trkpt>
      <trkpt lat="48.487897" lon="9.737660">
        <ele>728.735738</ele>
        <time>2025-11-10T20:26:08.097Z</time>
      </trkpt>
      <trkpt lat="48.488249" lon="9.737963">
        <ele>729.230721</ele>
        <time>2025-11-10T20:26:18.033Z</time>
      </trkpt>
      <trkpt lat="48.488578" lon="9.738194">
        <ele>729.673943</ele>
        <time>2025-11-10T20:26:26.619Z</time>
      </trkpt>
      <trkpt lat="48.488818" lon="9.738290">
        <ele>729.977207</ele>
        <time>2025-11-10T20:26:32.508Z</time>
      </trkpt>
      <trkpt lat="48.489216" lon="9.738384">
        <ele>730.469246</ele>
        <time>2025-11-10T20:26:42.122Z</time>
      </trkpt>
      <trkpt lat="48.489784" lon="9.738390">
        <ele>731.568131</ele>
        <time>2025-11-10T20:26:56.477Z</time>
      </trkpt>
      <trkpt lat="48.489970" lon="9.738376">
        <ele>732.128450</ele>
        <time>2025-11-10T20:27:00.868Z</time>
      </trkpt>
      <trkpt lat="48.490318" lon="9.738365">
        <ele>733.175716</ele>
        <time>2025-11-10T20:27:10.330Z</time>
      </trkpt>
      <trkpt lat="48.490596" lon="9.738353">
        <ele>734.012483</ele>
        <time>2025-11-10T20:27:19.199Z</time>
      </trkpt>
      <trkpt lat="48.491231" lon="9.738168">
        <ele>735.958311</ele>
        <time>2025-11-10T20:27:39.737Z</time>
      </trkpt>
      <trkpt lat="48.491479" lon="9.738114">
        <ele>736.043466</ele>
        <time>2025-11-10T20:27:47.041Z</time>
      </trkpt>
      <trkpt lat="48.491811" lon="9.738110">
        <ele>735.430371</ele>
        <time>2025-11-10T20:27:54.715Z</time>
      </trkpt>
      <trkpt lat="48.492219" lon="9.738114">
        <ele>734.676938</ele>
        <time>2025-11-10T20:28:00.756Z</time>
      </trkpt>
      <trkpt lat="48.492465" lon="9.738116">
        <ele>734.222664</ele>
        <time>2025-11-10T20:28:03.445Z</time>
      </trkpt>
      <trkpt lat="48.492616" lon="9.738040">
        <ele>733.928723</ele>
        <time>2025-11-10T20:28:05.697Z</time>
      </trkpt>
      <trkpt lat="48.492687" lon="9.737931">
        <ele>733.741686</ele>
        <time>2025-11-10T20:28:07.063Z</time>
      </trkpt>
      <trkpt lat="48.492758" lon="9.737844">
        <ele>733.572791</ele>
        <time>2025-11-10T20:28:07.908Z</time>
      </trkpt>
      <trkpt lat="48.492973" lon="9.737801">
        <ele>733.172297</ele>
        <time>2025-11-10T20:28:09.869Z</time>
      </trkpt>
      <trkpt lat="48.493462" lon="9.737691">
        <ele>730.350175</ele>
        <time>2025-11-10T20:28:14.207Z</time>
      </trkpt>
      <trkpt lat="48.494351" lon="9.737420">
        <ele>724.216407</ele>
        <time>2025-11-10T20:28:22.219Z</time>
      </trkpt>
      <trkpt lat="48.494503" lon="9.737341">
        <ele>723.129164</ele>
        <time>2025-11-10T20:28:23.690Z</time>
      </trkpt>
      <trkpt lat="48.494574" lon="9.737304">
        <ele>722.621163</ele>
        <time>2025-11-10T20:28:24.382Z</time>
      </trkpt>
      <trkpt lat="48.494748" lon="9.737709">
        <ele>720.708895</ele>
        <time>2025-11-10T20:28:27.419Z</time>
      </trkpt>
      <trkpt lat="48.495014" lon="9.738314">
        <ele>719.760152</ele>
        <time>2025-11-10T20:28:32.253Z</time>
      </trkpt>
      <trkpt lat="48.495274" lon="9.738908">
        <ele>718.829928</ele>
        <time>2025-11-10T20:28:37.629Z</time>
      </trkpt>
      <trkpt lat="48.495296" lon="9.738961">
        <ele>718.748207</ele>
        <time>2025-11-10T20:28:38.107Z</time>
      </trkpt>
      <trkpt lat="48.495385" lon="9.739174">
        <ele>718.419169</ele>
        <time>2025-11-10T20:28:40.090Z</time>
      </trkpt>
      <trkpt lat="48.495428" lon="9.739337">
        <ele>718.189918</ele>
        <time>2025-11-10T20:28:41.487Z</time>
      </trkpt>
      <trkpt lat="48.495427" lon="9.739453">
        <ele>718.038327</ele>
        <time>2025-11-10T20:28:42.422Z</time>
      </trkpt>
      <trkpt lat="48.495374" lon="9.739873">
        <ele>717.479646</ele>
        <time>2025-11-10T20:28:45.852Z</time>
      </trkpt>
      <trkpt lat="48.495395" lon="9.740099">
        <ele>717.365769</ele>
        <time>2025-11-10T20:28:47.899Z</time>
      </trkpt>
      <trkpt lat="48.495488" lon="9.740029">
        <ele>717.610223</ele>
        <time>2025-11-10T20:28:49.524Z</time>
      </trkpt>
      <trkpt lat="48.495742" lon="9.739854">
        <ele>718.266999</ele>
        <time>2025-11-10T20:28:54.749Z</time>
      </trkpt>
      <trkpt lat="48.495911" lon="9.740105">
        <ele>718.824752</ele>
        <time>2025-11-10T20:29:00.369Z</time>
      </trkpt>
      <trkpt lat="48.495997" lon="9.740313">
        <ele>719.206896</ele>
        <time>2025-11-10T20:29:04.648Z</time>
      </trkpt>
      <trkpt lat="48.496063" lon="9.740481">
        <ele>719.511319</ele>
        <time>2025-11-10T20:29:08.162Z</time>
      </trkpt>
      <trkpt lat="48.496114" lon="9.740703">
        <ele>719.877558</ele>
        <time>2025-11-10T20:29:12.485Z</time>
      </trkpt>
      <trkpt lat="48.496167" lon="9.740936">
        <ele>720.261538</ele>
        <time>2025-11-10T20:29:17.167Z</time>
      </trkpt>
      <trkpt lat="48.496203" lon="9.741173">
        <ele>720.640534</ele>
        <time>2025-11-10T20:29:21.993Z</time>
      </trkpt>
      <trkpt lat="48.496235" lon="9.741430">
        <ele>721.048133</ele>
        <time>2025-11-10T20:29:27.422Z</time>
      </trkpt>
      <trkpt lat="48.496259" lon="9.741750">
        <ele>721.501423</ele>
        <time>2025-11-10T20:29:34.141Z</time>
      </trkpt>
      <trkpt lat="48.496257" lon="9.741798">
        <ele>721.508671</ele>
        <time>2025-11-10T20:29:35.113Z</time>
      </trkpt>
      <trkpt lat="48.496417" lon="9.742049">
        <ele>721.561157</ele>
        <time>2025-11-10T20:29:42.166Z</time>
      </trkpt>
      <trkpt lat="48.496454" lon="9.742104">
        <ele>721.572968</ele>
        <time>2025-11-10T20:29:43.656Z</time>
      </trkpt>
      <trkpt lat="48.496666" lon="9.742413">
        <ele>721.639997</ele>
        <time>2025-11-10T20:29:51.083Z</time>
      </trkpt>
      <trkpt lat="48.496782" lon="9.742556">
        <ele>721.674061</ele>
        <time>2025-11-10T20:29:53.964Z</time>
      </trkpt>
      <trkpt lat="48.496890" lon="9.742690">
        <ele>721.705858</ele>
        <time>2025-11-10T20:29:56.187Z</time>
      </trkpt>
      <trkpt lat="48.497295" lon="9.743139">
        <ele>721.820146</ele>
        <time>2025-11-10T20:30:02.213Z</time>
      </trkpt>
      <trkpt lat="48.497386" lon="9.743283">
        <ele>721.850132</ele>
        <time>2025-11-10T20:30:03.676Z</time>
      </trkpt>
      <trkpt lat="48.497405" lon="9.743393">
        <ele>721.867263</ele>
        <time>2025-11-10T20:30:04.516Z</time>
      </trkpt>
      <trkpt lat="48.497547" lon="9.743427">
        <ele>721.899960</ele>
        <time>2025-11-10T20:30:06.042Z</time>
      </trkpt>
      <trkpt lat="48.497774" lon="9.743759">
        <ele>720.206604</ele>
        <time>2025-11-10T20:30:09.190Z</time>
      </trkpt>
      <trkpt lat="48.498087" lon="9.744302">
        <ele>717.440206</ele>
        <time>2025-11-10T20:30:13.593Z</time>
      </trkpt>
      <trkpt lat="48.498200" lon="9.744478">
        <ele>716.498225</ele>
        <time>2025-11-10T20:30:15.057Z</time>
      </trkpt>
      <trkpt lat="48.498409" lon="9.744860">
        <ele>714.594066</ele>
        <time>2025-11-10T20:30:18.001Z</time>
      </trkpt>
      <trkpt lat="48.498539" lon="9.745006">
        <ele>713.654066</ele>
        <time>2025-11-10T20:30:19.443Z</time>
      </trkpt>
      <trkpt lat="48.498626" lon="9.745050">
        <ele>713.121816</ele>
        <time>2025-11-10T20:30:20.265Z</time>
      </trkpt>
      <trkpt lat="48.498808" lon="9.745026">
        <ele>712.062058</ele>
        <time>2025-11-10T20:30:21.896Z</time>
      </trkpt>
      <trkpt lat="48.499120" lon="9.744987">
        <ele>710.354187</ele>
        <time>2025-11-10T20:30:24.698Z</time>
      </trkpt>
      <trkpt lat="48.499592" lon="9.745092">
        <ele>707.830850</ele>
        <time>2025-11-10T20:30:28.995Z</time>
      </trkpt>
      <trkpt lat="48.499889" lon="9.745173">
        <ele>706.234603</ele>
        <time>2025-11-10T20:30:31.788Z</time>
      </trkpt>
      <trkpt lat="48.501538" lon="9.746086">
        <ele>697.963456</ele>
        <time>2025-11-10T20:30:49.221Z</time>
      </trkpt>
      <trkpt lat="48.502607" lon="9.746862">
        <ele>692.694328</ele>
        <time>2025-11-10T20:31:00.494Z</time>
      </trkpt>
      <trkpt lat="48.503165" lon="9.747073">
        <ele>689.807486</ele>
        <time>2025-11-10T20:31:05.783Z</time>
      </trkpt>
      <trkpt lat="48.503585" lon="9.747363">
        <ele>687.489638</ele>
        <time>2025-11-10T20:31:10.063Z</time>
      </trkpt>
      <trkpt lat="48.503618" lon="9.747386">
        <ele>687.307224</ele>
        <time>2025-11-10T20:31:10.405Z</time>
      </trkpt>
      <trkpt lat="48.503979" lon="9.747695">
        <ele>685.330747</ele>
        <time>2025-11-10T20:31:14.324Z</time>
      </trkpt>
      <trkpt lat="48.504132" lon="9.747742">
        <ele>685.198628</ele>
        <time>2025-11-10T20:31:15.851Z</time>
      </trkpt>
      <trkpt lat="48.504201" lon="9.747772">
        <ele>685.137867</ele>
        <time>2025-11-10T20:31:16.575Z</time>
      </trkpt>
      <trkpt lat="48.504591" lon="9.748786">
        <ele>684.480530</ele>
        <time>2025-11-10T20:31:25.847Z</time>
      </trkpt>
      <trkpt lat="48.504756" lon="9.749088">
        <ele>684.261075</ele>
        <time>2025-11-10T20:31:30.273Z</time>
      </trkpt>
      <trkpt lat="48.504945" lon="9.749403">
        <ele>684.022821</ele>
        <time>2025-11-10T20:31:35.631Z</time>
      </trkpt>
      <trkpt lat="48.505471" lon="9.750164">
        <ele>684.810496</ele>
        <time>2025-11-10T20:31:51.752Z</time>
      </trkpt>
      <trkpt lat="48.506609" lon="9.751766">
        <ele>688.326695</ele>
        <time>2025-11-10T20:32:27.367Z</time>
      </trkpt>
      <trkpt lat="48.506958" lon="9.752197">
        <ele>690.032525</ele>
        <time>2025-11-10T20:32:39.185Z</time>
      </trkpt>
      <trkpt lat="48.506998" lon="9.752312">
        <ele>690.358053</ele>
        <time>2025-11-10T20:32:42.077Z</time>
      </trkpt>
      <trkpt lat="48.507517" lon="9.753159">
        <ele>693.249579</ele>
        <time>2025-11-10T20:33:07.111Z</time>
      </trkpt>
      <trkpt lat="48.507952" lon="9.753842">
        <ele>695.636238</ele>
        <time>2025-11-10T20:33:30.236Z</time>
      </trkpt>
      <trkpt lat="48.508078" lon="9.753995">
        <ele>696.253056</ele>
        <time>2025-11-10T20:33:36.191Z</time>
      </trkpt>
      <trkpt lat="48.508134" lon="9.754063">
        <ele>696.527197</ele>
        <time>2025-11-10T20:33:38.848Z</time>
      </trkpt>
      <trkpt lat="48.508286" lon="9.754221">
        <ele>697.231151</ele>
        <time>2025-11-10T20:33:45.417Z</time>
      </trkpt>
      <trkpt lat="48.508512" lon="9.754351">
        <ele>698.153656</ele>
        <time>2025-11-10T20:33:53.616Z</time>
      </trkpt>
      <trkpt lat="48.508625" lon="9.754403">
        <ele>698.604257</ele>
        <time>2025-11-10T20:33:57.360Z</time>
      </trkpt>
      <trkpt lat="48.508833" lon="9.754516">
        <ele>699.447453</ele>
        <time>2025-11-10T20:34:03.611Z</time>
      </trkpt>
      <trkpt lat="48.509203" lon="9.754798">
        <ele>701.018214</ele>
        <time>2025-11-10T20:34:12.177Z</time>
      </trkpt>
      <trkpt lat="48.509530" lon="9.755148">
        <ele>701.540312</ele>
        <time>2025-11-10T20:34:18.625Z</time>
      </trkpt>
      <trkpt lat="48.509596" lon="9.755273">
        <ele>701.678232</ele>
        <time>2025-11-10T20:34:20.309Z</time>
      </trkpt>
      <trkpt lat="48.509668" lon="9.755355">
        <ele>701.795703</ele>
        <time>2025-11-10T20:34:21.696Z</time>
      </trkpt>
      <trkpt lat="48.509794" lon="9.755531">
        <ele>702.019292</ele>
        <time>2025-11-10T20:34:25.328Z</time>
      </trkpt>
      <trkpt lat="48.509988" lon="9.755683">
        <ele>702.303972</ele>
        <time>2025-11-10T20:34:30.262Z</time>
      </trkpt>
      <trkpt lat="48.510288" lon="9.755755">
        <ele>702.699606</ele>
        <time>2025-11-10T20:34:35.784Z</time>
      </trkpt>
      <trkpt lat="48.510395" lon="9.755755">
        <ele>702.838965</ele>
        <time>2025-11-10T20:34:37.864Z</time>
      </trkpt>
      <trkpt lat="48.510470" lon="9.755755">
        <ele>702.936646</ele>
        <time>2025-11-10T20:34:39.826Z</time>
      </trkpt>
      <trkpt lat="48.510547" lon="9.755754">
        <ele>703.036936</ele>
        <time>2025-11-10T20:34:41.849Z</time>
      </trkpt>
      <trkpt lat="48.510842" lon="9.755634">
        <ele>703.529858</ele>
        <time>2025-11-10T20:34:49.150Z</time>
      </trkpt>
      <trkpt lat="48.510861" lon="9.755622">
        <ele>703.588794</ele>
        <time>2025-11-10T20:34:49.759Z</time>
      </trkpt>
      <trkpt lat="48.511029" lon="9.755503">
        <ele>704.119829</ele>
        <time>2025-11-10T20:34:55.187Z</time>
      </trkpt>
      <trkpt lat="48.511241" lon="9.755328">
        <ele>704.811258</ele>
        <time>2025-11-10T20:35:02.417Z</time>
      </trkpt>
      <trkpt lat="48.511260" lon="9.755309">
        <ele>704.876475</ele>
        <time>2025-11-10T20:35:03.131Z</time>
      </trkpt>
      <trkpt lat="48.511338" lon="9.755233">
        <ele>705.142135</ele>
        <time>2025-11-10T20:35:05.989Z</time>
      </trkpt>
      <trkpt lat="48.511611" lon="9.755097">
        <ele>705.964776</ele>
        <time>2025-11-10T20:35:15.092Z</time>
      </trkpt>
      <trkpt lat="48.511675" lon="9.755065">
        <ele>706.157699</ele>
        <time>2025-11-10T20:35:17.130Z</time>
      </trkpt>
      <trkpt lat="48.511630" lon="9.754749">
        <ele>706.770416</ele>
        <time>2025-11-10T20:35:23.467Z</time>
      </trkpt>
      <trkpt lat="48.511623" lon="9.754580">
        <ele>707.091410</ele>
        <time>2025-11-10T20:35:26.575Z</time>
      </trkpt>
      <trkpt lat="48.511620" lon="9.754471">
        <ele>707.298217</ele>
        <time>2025-11-10T20:35:28.516Z</time>
      </trkpt>
      <trkpt lat="48.511618" lon="9.754386">
        <ele>707.459451</ele>
        <time>2025-11-10T20:35:29.986Z</time>
      </trkpt>
      <trkpt lat="48.511622" lon="9.754259">
        <ele>707.700473</ele>
        <time>2025-11-10T20:35:32.175Z</time>
      </trkpt>
      <trkpt lat="48.511639" lon="9.754138">
        <ele>707.934951</ele>
        <time>2025-11-10T20:35:34.188Z</time>
      </trkpt>
      <trkpt lat="48.511740" lon="9.753776">
        <ele>708.459466</ele>
        <time>2025-11-10T20:35:40.086Z</time>
      </trkpt>
      <trkpt lat="48.511768" lon="9.753678">
        <ele>708.410476</ele>
        <time>2025-11-10T20:35:41.494Z</time>
      </trkpt>
      <trkpt lat="48.512059" lon="9.752729">
        <ele>707.930453</ele>
        <time>2025-11-10T20:35:51.710Z</time>
      </trkpt>
      <trkpt lat="48.512170" lon="9.752366">
        <ele>707.746932</ele>
        <time>2025-11-10T20:35:54.921Z</time>
      </trkpt>
      <trkpt lat="48.512558" lon="9.751081">
        <ele>706.747295</ele>
        <time>2025-11-10T20:36:04.988Z</time>
      </trkpt>
      <trkpt lat="48.512664" lon="9.750728">
        <ele>706.172122</ele>
        <time>2025-11-10T20:36:07.657Z</time>
      </trkpt>
      <trkpt lat="48.513005" lon="9.749693">
        <ele>704.456670</ele>
        <time>2025-11-10T20:36:15.840Z</time>
      </trkpt>
      <trkpt lat="48.513096" lon="9.749529">
        <ele>704.139192</ele>
        <time>2025-11-10T20:36:17.384Z</time>
      </trkpt>
      <trkpt lat="48.513186" lon="9.749404">
        <ele>703.865218</ele>
        <time>2025-11-10T20:36:18.721Z</time>
      </trkpt>
      <trkpt lat="48.513275" lon="9.749367">
        <ele>703.658417</ele>
        <time>2025-11-10T20:36:19.733Z</time>
      </trkpt>
      <trkpt lat="48.513339" lon="9.749266">
        <ele>703.451000</ele>
        <time>2025-11-10T20:36:20.754Z</time>
      </trkpt>
      <trkpt lat="48.513360" lon="9.749130">
        <ele>703.243764</ele>
        <time>2025-11-10T20:36:21.769Z</time>
      </trkpt>
      <trkpt lat="48.513331" lon="9.748997">
        <ele>703.125305</ele>
        <time>2025-11-10T20:36:22.777Z</time>
      </trkpt>
      <trkpt lat="48.513413" lon="9.748599">
        <ele>702.796425</ele>
        <time>2025-11-10T20:36:25.765Z</time>
      </trkpt>
      <trkpt lat="48.513781" lon="9.747702">
        <ele>701.963910</ele>
        <time>2025-11-10T20:36:33.825Z</time>
      </trkpt>
      <trkpt lat="48.513966" lon="9.747337">
        <ele>701.601279</ele>
        <time>2025-11-10T20:36:37.650Z</time>
      </trkpt>
      <trkpt lat="48.514592" lon="9.746215">
        <ele>701.233208</ele>
        <time>2025-11-10T20:36:51.168Z</time>
      </trkpt>
      <trkpt lat="48.515160" lon="9.745150">
        <ele>701.483952</ele>
        <time>2025-11-10T20:37:06.344Z</time>
      </trkpt>
      <trkpt lat="48.515251" lon="9.745180">
        <ele>701.509739</ele>
        <time>2025-11-10T20:37:07.910Z</time>
      </trkpt>
      <trkpt lat="48.515296" lon="9.745161">
        <ele>701.522675</ele>
        <time>2025-11-10T20:37:08.706Z</time>
      </trkpt>
      <trkpt lat="48.515365" lon="9.745067">
        <ele>701.548405</ele>
        <time>2025-11-10T20:37:10.288Z</time>
      </trkpt>
      <trkpt lat="48.515490" lon="9.745145">
        <ele>701.598000</ele>
        <time>2025-11-10T20:37:12.606Z</time>
      </trkpt>
      <trkpt lat="48.515562" lon="9.745169">
        <ele>701.687858</ele>
        <time>2025-11-10T20:37:13.902Z</time>
      </trkpt>
      <trkpt lat="48.515622" lon="9.745192">
        <ele>701.763298</ele>
        <time>2025-11-10T20:37:15.011Z</time>
      </trkpt>
      <trkpt lat="48.515633" lon="9.745285">
        <ele>701.839561</ele>
        <time>2025-11-10T20:37:16.147Z</time>
      </trkpt>
      <trkpt lat="48.515691" lon="9.745364">
        <ele>701.934762</ele>
        <time>2025-11-10T20:37:17.577Z</time>
      </trkpt>
      <trkpt lat="48.515821" lon="9.745325">
        <ele>702.096287</ele>
        <time>2025-11-10T20:37:20.069Z</time>
      </trkpt>
      <trkpt lat="48.515822" lon="9.745325">
        <ele>702.097505</ele>
        <time>2025-11-10T20:37:20.083Z</time>
      </trkpt>
      <trkpt lat="48.517699" lon="9.745861">
        <ele>704.090345</ele>
        <time>2025-11-10T20:37:59.290Z</time>
      </trkpt>
      <trkpt lat="48.518010" lon="9.745920">
        <ele>704.275754</ele>
        <time>2025-11-10T20:38:04.555Z</time>
      </trkpt>
      <trkpt lat="48.518014" lon="9.745920">
        <ele>704.278120</ele>
        <time>2025-11-10T20:38:04.620Z</time>
      </trkpt>
      <trkpt lat="48.518283" lon="9.745918">
        <ele>704.437240</ele>
        <time>2025-11-10T20:38:08.764Z</time>
      </trkpt>
      <trkpt lat="48.518416" lon="9.745883">
        <ele>704.517098</ele>
        <time>2025-11-10T20:38:10.729Z</time>
      </trkpt>
      <trkpt lat="48.518461" lon="9.745997">
        <ele>704.569094</ele>
        <time>2025-11-10T20:38:12.043Z</time>
      </trkpt>
      <trkpt lat="48.518625" lon="9.746171">
        <ele>704.687663</ele>
        <time>2025-11-10T20:38:15.024Z</time>
      </trkpt>
      <trkpt lat="48.519327" lon="9.746580">
        <ele>704.843384</ele>
        <time>2025-11-10T20:38:26.658Z</time>
      </trkpt>
      <trkpt lat="48.519603" lon="9.746735">
        <ele>704.846476</ele>
        <time>2025-11-10T20:38:31.174Z</time>
      </trkpt>
      <trkpt lat="48.519655" lon="9.746768">
        <ele>704.847068</ele>
        <time>2025-11-10T20:38:32.052Z</time>
      </trkpt>
      <trkpt lat="48.519725" lon="9.746814">
        <ele>704.847870</ele>
        <time>2025-11-10T20:38:33.236Z</time>
      </trkpt>
      <trkpt lat="48.520117" lon="9.747059">
        <ele>704.852324</ele>
        <time>2025-11-10T20:38:39.556Z</time>
      </trkpt>
      <trkpt lat="48.520468" lon="9.747264">
        <ele>704.856275</ele>
        <time>2025-11-10T20:38:45.211Z</time>
      </trkpt>
      <trkpt lat="48.520719" lon="9.747491">
        <ele>704.770377</ele>
        <time>2025-11-10T20:38:49.386Z</time>
      </trkpt>
      <trkpt lat="48.521028" lon="9.747876">
        <ele>704.612434</ele>
        <time>2025-11-10T20:38:54.758Z</time>
      </trkpt>
      <trkpt lat="48.522038" lon="9.749127">
        <ele>703.980878</ele>
        <time>2025-11-10T20:39:12.485Z</time>
      </trkpt>
      <trkpt lat="48.522229" lon="9.749234">
        <ele>703.715385</ele>
        <time>2025-11-10T20:39:15.157Z</time>
      </trkpt>
      <trkpt lat="48.521731" lon="9.756313">
        <ele>698.033606</ele>
        <time>2025-11-10T20:40:09.905Z</time>
      </trkpt>
      <trkpt lat="48.525793" lon="9.756417">
        <ele>698.343978</ele>
        <time>2025-11-10T20:41:38.194Z</time>
      </trkpt>
      <trkpt lat="48.526070" lon="9.756362">
        <ele>697.794851</ele>
        <time>2025-11-10T20:41:42.848Z</time>
      </trkpt>
      <trkpt lat="48.526786" lon="9.756077">
        <ele>696.339485</ele>
        <time>2025-11-10T20:41:54.193Z</time>
      </trkpt>
      <trkpt lat="48.527473" lon="9.755890">
        <ele>694.975305</ele>
        <time>2025-11-10T20:42:04.442Z</time>
      </trkpt>
      <trkpt lat="48.529195" lon="9.754939">
        <ele>691.994482</ele>
        <time>2025-11-10T20:42:33.654Z</time>
      </trkpt>
      <trkpt lat="48.529747" lon="9.754642">
        <ele>692.779077</ele>
        <time>2025-11-10T20:42:46.864Z</time>
      </trkpt>
      <trkpt lat="48.529821" lon="9.754639">
        <ele>692.878192</ele>
        <time>2025-11-10T20:42:48.756Z</time>
      </trkpt>
      <trkpt lat="48.529894" lon="9.754773">
        <ele>693.032042</ele>
        <time>2025-11-10T20:42:51.794Z</time>
      </trkpt>
      <trkpt lat="48.530605" lon="9.755728">
        <ele>694.306110</ele>
        <time>2025-11-10T20:43:20.567Z</time>
      </trkpt>
      <trkpt lat="48.530665" lon="9.755886">
        <ele>694.489995</ele>
        <time>2025-11-10T20:43:24.412Z</time>
      </trkpt>
      <trkpt lat="48.530708" lon="9.756099">
        <ele>694.715189</ele>
        <time>2025-11-10T20:43:29.011Z</time>
      </trkpt>
      <trkpt lat="48.530858" lon="9.757213">
        <ele>695.864826</ele>
        <time>2025-11-10T20:43:50.677Z</time>
      </trkpt>
      <trkpt lat="48.531376" lon="9.761370">
        <ele>697.766432</ele>
        <time>2025-11-10T20:44:52.507Z</time>
      </trkpt>
      <trkpt lat="48.531835" lon="9.765889">
        <ele>696.627990</ele>
        <time>2025-11-10T20:45:50.641Z</time>
      </trkpt>
      <trkpt lat="48.532968" lon="9.770519">
        <ele>691.733496</ele>
        <time>2025-11-10T20:46:43.601Z</time>
      </trkpt>
      <trkpt lat="48.535353" lon="9.775252">
        <ele>686.204803</ele>
        <time>2025-11-10T20:47:47.948Z</time>
      </trkpt>
      <trkpt lat="48.535764" lon="9.776093">
        <ele>686.166972</ele>
        <time>2025-11-10T20:48:02.795Z</time>
      </trkpt>
      <trkpt lat="48.537490" lon="9.779621">
        <ele>689.348990</ele>
        <time>2025-11-10T20:49:15.892Z</time>
      </trkpt>
      <trkpt lat="48.537732" lon="9.780246">
        <ele>690.070223</ele>
        <time>2025-11-10T20:49:27.906Z</time>
      </trkpt>
      <trkpt lat="48.537891" lon="9.780774">
        <ele>690.854256</ele>
        <time>2025-11-10T20:49:38.137Z</time>
      </trkpt>
      <trkpt lat="48.539810" lon="9.780664">
        <ele>694.153834</ele>
        <time>2025-11-10T20:50:35.277Z</time>
      </trkpt>
      <trkpt lat="48.540149" lon="9.782199">
        <ele>695.318178</ele>
        <time>2025-11-10T20:50:53.683Z</time>
      </trkpt>
      <trkpt lat="48.540356" lon="9.783002">
        <ele>695.137350</ele>
        <time>2025-11-10T20:51:01.047Z</time>
      </trkpt>
      <trkpt lat="48.540533" lon="9.783584">
        <ele>694.910025</ele>
        <time>2025-11-10T20:51:06.658Z</time>
      </trkpt>
      <trkpt lat="48.540654" lon="9.783991">
        <ele>694.751670</ele>
        <time>2025-11-10T20:51:10.627Z</time>
      </trkpt>
      <trkpt lat="48.540749" lon="9.784360">
        <ele>694.611145</ele>
        <time>2025-11-10T20:51:14.038Z</time>
      </trkpt>
      <trkpt lat="48.540811" lon="9.784683">
        <ele>694.491779</ele>
        <time>2025-11-10T20:51:16.860Z</time>
      </trkpt>
      <trkpt lat="48.540891" lon="9.785190">
        <ele>694.246969</ele>
        <time>2025-11-10T20:51:21.046Z</time>
      </trkpt>
      <trkpt lat="48.540966" lon="9.785729">
        <ele>693.962137</ele>
        <time>2025-11-10T20:51:25.290Z</time>
      </trkpt>
      <trkpt lat="48.541053" lon="9.786219">
        <ele>693.699782</ele>
        <time>2025-11-10T20:51:29.334Z</time>
      </trkpt>
      <trkpt lat="48.541084" lon="9.786366">
        <ele>693.619999</ele>
        <time>2025-11-10T20:51:30.617Z</time>
      </trkpt>
      <trkpt lat="48.541135" lon="9.786613">
        <ele>693.486196</ele>
        <time>2025-11-10T20:51:32.790Z</time>
      </trkpt>
      <trkpt lat="48.541212" lon="9.786999">
        <ele>693.277715</ele>
        <time>2025-11-10T20:51:36.250Z</time>
      </trkpt>
      <trkpt lat="48.541221" lon="9.787150">
        <ele>693.199310</ele>
        <time>2025-11-10T20:51:37.585Z</time>
      </trkpt>
      <trkpt lat="48.541204" lon="9.787281">
        <ele>693.130276</ele>
        <time>2025-11-10T20:51:38.791Z</time>
      </trkpt>
      <trkpt lat="48.541172" lon="9.787505">
        <ele>693.011912</ele>
        <time>2025-11-10T20:51:40.997Z</time>
      </trkpt>
      <trkpt lat="48.541147" lon="9.787678">
        <ele>692.920961</ele>
        <time>2025-11-10T20:51:42.809Z</time>
      </trkpt>
      <trkpt lat="48.541130" lon="9.787897">
        <ele>692.807704</ele>
        <time>2025-11-10T20:51:45.012Z</time>
      </trkpt>
      <trkpt lat="48.541082" lon="9.788490">
        <ele>692.500849</ele>
        <time>2025-11-10T20:51:51.135Z</time>
      </trkpt>
      <trkpt lat="48.541083" lon="9.788653">
        <ele>692.417122</ele>
        <time>2025-11-10T20:51:52.737Z</time>
      </trkpt>
      <trkpt lat="48.541084" lon="9.788769">
        <ele>692.357535</ele>
        <time>2025-11-10T20:51:53.919Z</time>
      </trkpt>
      <trkpt lat="48.541103" lon="9.789015">
        <ele>692.230324</ele>
        <time>2025-11-10T20:51:56.407Z</time>
      </trkpt>
      <trkpt lat="48.541128" lon="9.789203">
        <ele>692.131831</ele>
        <time>2025-11-10T20:51:58.243Z</time>
      </trkpt>
      <trkpt lat="48.541220" lon="9.789521">
        <ele>691.953582</ele>
        <time>2025-11-10T20:52:01.121Z</time>
      </trkpt>
      <trkpt lat="48.541352" lon="9.789927">
        <ele>691.721259</ele>
        <time>2025-11-10T20:52:04.343Z</time>
      </trkpt>
      <trkpt lat="48.541503" lon="9.790345">
        <ele>691.273991</ele>
        <time>2025-11-10T20:52:07.607Z</time>
      </trkpt>
      <trkpt lat="48.541724" lon="9.790775">
        <ele>690.641795</ele>
        <time>2025-11-10T20:52:11.324Z</time>
      </trkpt>
      <trkpt lat="48.541910" lon="9.791139">
        <ele>690.107794</ele>
        <time>2025-11-10T20:52:14.519Z</time>
      </trkpt>
      <trkpt lat="48.541885" lon="9.791221">
        <ele>690.002950</ele>
        <time>2025-11-10T20:52:15.157Z</time>
      </trkpt>
      <trkpt lat="48.541835" lon="9.791425">
        <ele>689.750319</ele>
        <time>2025-11-10T20:52:16.706Z</time>
      </trkpt>
      <trkpt lat="48.541900" lon="9.791485">
        <ele>689.616693</ele>
        <time>2025-11-10T20:52:17.532Z</time>
      </trkpt>
      <trkpt lat="48.541929" lon="9.791589">
        <ele>689.485636</ele>
        <time>2025-11-10T20:52:18.384Z</time>
      </trkpt>
      <trkpt lat="48.541929" lon="9.791784">
        <ele>689.259171</ele>
        <time>2025-11-10T20:52:19.881Z</time>
      </trkpt>
      <trkpt lat="48.541929" lon="9.791896">
        <ele>689.129098</ele>
        <time>2025-11-10T20:52:20.756Z</time>
      </trkpt>
      <trkpt lat="48.541928" lon="9.792441">
        <ele>688.496154</ele>
        <time>2025-11-10T20:52:25.309Z</time>
      </trkpt>
      <trkpt lat="48.541927" lon="9.792529">
        <ele>688.488150</ele>
        <time>2025-11-10T20:52:26.171Z</time>
      </trkpt>
      <trkpt lat="48.541957" lon="9.792952">
        <ele>688.520574</ele>
        <time>2025-11-10T20:52:31.054Z</time>
      </trkpt>
      <trkpt lat="48.541991" lon="9.793058">
        <ele>688.529551</ele>
        <time>2025-11-10T20:52:32.470Z</time>
      </trkpt>
      <trkpt lat="48.541998" lon="9.793078">
        <ele>688.531275</ele>
        <time>2025-11-10T20:52:32.729Z</time>
      </trkpt>
      <trkpt lat="48.542048" lon="9.793230">
        <ele>688.544211</ele>
        <time>2025-11-10T20:52:34.750Z</time>
      </trkpt>
      <trkpt lat="48.542178" lon="9.793438">
        <ele>688.566012</ele>
        <time>2025-11-10T20:52:37.769Z</time>
      </trkpt>
      <trkpt lat="48.542205" lon="9.793470">
        <ele>688.569963</ele>
        <time>2025-11-10T20:52:38.332Z</time>
      </trkpt>
      <trkpt lat="48.542326" lon="9.793610">
        <ele>688.587510</ele>
        <time>2025-11-10T20:52:40.960Z</time>
      </trkpt>
      <trkpt lat="48.542550" lon="9.793814">
        <ele>688.617621</ele>
        <time>2025-11-10T20:52:45.545Z</time>
      </trkpt>
      <trkpt lat="48.542683" lon="9.793902">
        <ele>688.634336</ele>
        <time>2025-11-10T20:52:48.005Z</time>
      </trkpt>
      <trkpt lat="48.543036" lon="9.793982">
        <ele>688.675428</ele>
        <time>2025-11-10T20:52:53.331Z</time>
      </trkpt>
      <trkpt lat="48.543167" lon="9.793965">
        <ele>688.685818</ele>
        <time>2025-11-10T20:52:55.061Z</time>
      </trkpt>
      <trkpt lat="48.543175" lon="9.794228">
        <ele>688.623723</ele>
        <time>2025-11-10T20:52:57.321Z</time>
      </trkpt>
      <trkpt lat="48.543402" lon="9.794510">
        <ele>688.519019</ele>
        <time>2025-11-10T20:53:02.709Z</time>
      </trkpt>
      <trkpt lat="48.543607" lon="9.794802">
        <ele>688.418639</ele>
        <time>2025-11-10T20:53:07.970Z</time>
      </trkpt>
      <trkpt lat="48.543897" lon="9.795215">
        <ele>688.276650</ele>
        <time>2025-11-10T20:53:16.280Z</time>
      </trkpt>
      <trkpt lat="48.544397" lon="9.795983">
        <ele>687.945476</ele>
        <time>2025-11-10T20:53:29.343Z</time>
      </trkpt>
      <trkpt lat="48.544510" lon="9.796163">
        <ele>687.713681</ele>
        <time>2025-11-10T20:53:32.240Z</time>
      </trkpt>
      <trkpt lat="48.544700" lon="9.796466">
        <ele>687.323704</ele>
        <time>2025-11-10T20:53:37.190Z</time>
      </trkpt>
      <trkpt lat="48.545176" lon="9.796972">
        <ele>686.502158</ele>
        <time>2025-11-10T20:53:44.234Z</time>
      </trkpt>
      <trkpt lat="48.545418" lon="9.797199">
        <ele>686.100086</ele>
        <time>2025-11-10T20:53:47.477Z</time>
      </trkpt>
      <trkpt lat="48.545606" lon="9.797369">
        <ele>685.790820</ele>
        <time>2025-11-10T20:53:49.846Z</time>
      </trkpt>
      <trkpt lat="48.545654" lon="9.797413">
        <ele>685.711571</ele>
        <time>2025-11-10T20:53:50.436Z</time>
      </trkpt>
      <trkpt lat="48.545895" lon="9.797690">
        <ele>685.142133</ele>
        <time>2025-11-10T20:53:53.635Z</time>
      </trkpt>
      <trkpt lat="48.546190" lon="9.798061">
        <ele>684.259645</ele>
        <time>2025-11-10T20:53:57.643Z</time>
      </trkpt>
      <trkpt lat="48.546843" lon="9.798877">
        <ele>682.311299</ele>
        <time>2025-11-10T20:54:06.399Z</time>
      </trkpt>
      <trkpt lat="48.546909" lon="9.798962">
        <ele>682.111905</ele>
        <time>2025-11-10T20:54:07.316Z</time>
      </trkpt>
      <trkpt lat="48.547160" lon="9.799293">
        <ele>681.389315</ele>
        <time>2025-11-10T20:54:10.934Z</time>
      </trkpt>
      <trkpt lat="48.547637" lon="9.799888">
        <ele>682.095172</ele>
        <time>2025-11-10T20:54:19.245Z</time>
      </trkpt>
      <trkpt lat="48.547766" lon="9.800011">
        <ele>682.269236</ele>
        <time>2025-11-10T20:54:22.144Z</time>
      </trkpt>
      <trkpt lat="48.548859" lon="9.801073">
        <ele>683.783671</ele>
        <time>2025-11-10T20:54:55.256Z</time>
      </trkpt>
      <trkpt lat="48.549042" lon="9.801252">
        <ele>684.056605</ele>
        <time>2025-11-10T20:55:00.882Z</time>
      </trkpt>
      <trkpt lat="48.549617" lon="9.801775">
        <ele>684.896872</ele>
        <time>2025-11-10T20:55:15.714Z</time>
      </trkpt>
      <trkpt lat="48.550348" lon="9.802446">
        <ele>685.255489</ele>
        <time>2025-11-10T20:55:28.009Z</time>
      </trkpt>
      <trkpt lat="48.550555" lon="9.802671">
        <ele>684.787229</ele>
        <time>2025-11-10T20:55:30.921Z</time>
      </trkpt>
      <trkpt lat="48.550990" lon="9.803306">
        <ele>683.676493</ele>
        <time>2025-11-10T20:55:37.452Z</time>
      </trkpt>
      <trkpt lat="48.551389" lon="9.804015">
        <ele>682.545374</ele>
        <time>2025-11-10T20:55:43.898Z</time>
      </trkpt>
      <trkpt lat="48.552493" lon="9.806053">
        <ele>678.252066</ele>
        <time>2025-11-10T20:56:02.311Z</time>
      </trkpt>
      <trkpt lat="48.552666" lon="9.806334">
        <ele>677.633001</ele>
        <time>2025-11-10T20:56:05.045Z</time>
      </trkpt>
      <trkpt lat="48.552914" lon="9.806613">
        <ele>676.905476</ele>
        <time>2025-11-10T20:56:08.370Z</time>
      </trkpt>
      <trkpt lat="48.553796" lon="9.807137">
        <ele>674.675555</ele>
        <time>2025-11-10T20:56:18.455Z</time>
      </trkpt>
      <trkpt lat="48.553954" lon="9.807373">
        <ele>674.152784</ele>
        <time>2025-11-10T20:56:20.808Z</time>
      </trkpt>
      <trkpt lat="48.554378" lon="9.808285">
        <ele>672.835221</ele>
        <time>2025-11-10T20:56:28.756Z</time>
      </trkpt>
      <trkpt lat="48.555312" lon="9.810265">
        <ele>670.797626</ele>
        <time>2025-11-10T20:56:47.689Z</time>
      </trkpt>
      <trkpt lat="48.556027" lon="9.811757">
        <ele>670.596375</ele>
        <time>2025-11-10T20:57:05.843Z</time>
      </trkpt>
      <trkpt lat="48.556343" lon="9.812320">
        <ele>670.539525</ele>
        <time>2025-11-10T20:57:14.440Z</time>
      </trkpt>
      <trkpt lat="48.556445" lon="9.812449">
        <ele>670.530515</ele>
        <time>2025-11-10T20:57:16.798Z</time>
      </trkpt>
      <trkpt lat="48.557304" lon="9.813127">
        <ele>670.464873</ele>
        <time>2025-11-10T20:57:32.628Z</time>
      </trkpt>
      <trkpt lat="48.557576" lon="9.813419">
        <ele>670.442273</ele>
        <time>2025-11-10T20:57:36.876Z</time>
      </trkpt>
      <trkpt lat="48.557750" lon="9.813664">
        <ele>670.277424</ele>
        <time>2025-11-10T20:57:39.604Z</time>
      </trkpt>
      <trkpt lat="48.558066" lon="9.814324">
        <ele>669.570195</ele>
        <time>2025-11-10T20:57:45.556Z</time>
      </trkpt>
      <trkpt lat="48.558187" lon="9.814640">
        <ele>669.253238</ele>
        <time>2025-11-10T20:57:48.235Z</time>
      </trkpt>
      <trkpt lat="48.558292" lon="9.815095">
        <ele>668.834883</ele>
        <time>2025-11-10T20:57:51.828Z</time>
      </trkpt>
      <trkpt lat="48.558370" lon="9.815375">
        <ele>668.571132</ele>
        <time>2025-11-10T20:57:54.164Z</time>
      </trkpt>
      <trkpt lat="48.558401" lon="9.815469">
        <ele>668.479951</ele>
        <time>2025-11-10T20:57:55.036Z</time>
      </trkpt>
      <trkpt lat="48.558370" lon="9.815375">
        <ele>668.388771</ele>
        <time>2025-11-10T20:57:55.845Z</time>
      </trkpt>
      <trkpt lat="48.558182" lon="9.815461">
        <ele>668.131104</ele>
        <time>2025-11-10T20:57:58.291Z</time>
      </trkpt>
      <trkpt lat="48.557864" lon="9.815406">
        <ele>668.106633</ele>
        <time>2025-11-10T20:58:02.516Z</time>
      </trkpt>
      <trkpt lat="48.557324" lon="9.815561">
        <ele>668.169616</ele>
        <time>2025-11-10T20:58:11.315Z</time>
      </trkpt>
      <trkpt lat="48.556666" lon="9.815630">
        <ele>668.245194</ele>
        <time>2025-11-10T20:58:22.559Z</time>
      </trkpt>
      <trkpt lat="48.556396" lon="9.815732">
        <ele>668.277085</ele>
        <time>2025-11-10T20:58:27.064Z</time>
      </trkpt>
      <trkpt lat="48.556111" lon="9.815953">
        <ele>668.444107</ele>
        <time>2025-11-10T20:58:32.060Z</time>
      </trkpt>
      <trkpt lat="48.555933" lon="9.816155">
        <ele>668.570888</ele>
        <time>2025-11-10T20:58:35.572Z</time>
      </trkpt>
      <trkpt lat="48.555350" lon="9.816918">
        <ele>669.010151</ele>
        <time>2025-11-10T20:58:48.456Z</time>
      </trkpt>
      <trkpt lat="48.554614" lon="9.817959">
        <ele>669.960096</ele>
        <time>2025-11-10T20:59:07.135Z</time>
      </trkpt>
      <trkpt lat="48.553598" lon="9.819296">
        <ele>671.781443</ele>
        <time>2025-11-10T20:59:34.801Z</time>
      </trkpt>
      <trkpt lat="48.552468" lon="9.820772">
        <ele>674.574433</ele>
        <time>2025-11-10T21:00:07.960Z</time>
      </trkpt>
      <trkpt lat="48.551705" lon="9.821563">
        <ele>676.978413</ele>
        <time>2025-11-10T21:00:29.926Z</time>
      </trkpt>
      <trkpt lat="48.550023" lon="9.823012">
        <ele>684.030389</ele>
        <time>2025-11-10T21:01:24.285Z</time>
      </trkpt>
      <trkpt lat="48.549042" lon="9.823841">
        <ele>689.384200</ele>
        <time>2025-11-10T21:02:07.006Z</time>
      </trkpt>
      <trkpt lat="48.548767" lon="9.824141">
        <ele>691.133535</ele>
        <time>2025-11-10T21:02:20.693Z</time>
      </trkpt>
      <trkpt lat="48.548341" lon="9.824696">
        <ele>694.034626</ele>
        <time>2025-11-10T21:02:42.358Z</time>
      </trkpt>
      <trkpt lat="48.547631" lon="9.825933">
        <ele>698.718453</ele>
        <time>2025-11-10T21:03:16.859Z</time>
      </trkpt>
      <trkpt lat="48.547674" lon="9.826215">
        <ele>699.145405</ele>
        <time>2025-11-10T21:03:21.993Z</time>
      </trkpt>
      <trkpt lat="48.547915" lon="9.826139">
        <ele>699.694098</ele>
        <time>2025-11-10T21:03:28.237Z</time>
      </trkpt>
      <trkpt lat="48.547674" lon="9.826215">
        <ele>700.242790</ele>
        <time>2025-11-10T21:03:34.284Z</time>
      </trkpt>
      <trkpt lat="48.548145" lon="9.828176">
        <ele>701.636077</ele>
        <time>2025-11-10T21:04:00.231Z</time>
      </trkpt>
      <trkpt lat="48.548800" lon="9.831000">
        <ele>698.817707</ele>
        <time>2025-11-10T21:04:22.896Z</time>
      </trkpt>
      <trkpt lat="48.548947" lon="9.831491">
        <ele>697.892931</ele>
        <time>2025-11-10T21:04:26.754Z</time>
      </trkpt>
      <trkpt lat="48.549374" lon="9.832868">
        <ele>694.393565</ele>
        <time>2025-11-10T21:04:36.766Z</time>
      </trkpt>
      <trkpt lat="48.550391" lon="9.835606">
        <ele>683.666420</ele>
        <time>2025-11-10T21:04:55.883Z</time>
      </trkpt>
      <trkpt lat="48.550715" lon="9.836391">
        <ele>680.792195</ele>
        <time>2025-11-10T21:05:01.701Z</time>
      </trkpt>
      <trkpt lat="48.551171" lon="9.837150">
        <ele>677.827011</ele>
        <time>2025-11-10T21:05:08.425Z</time>
      </trkpt>
      <trkpt lat="48.552267" lon="9.838631">
        <ele>674.346428</ele>
        <time>2025-11-10T21:05:23.719Z</time>
      </trkpt>
      <trkpt lat="48.552610" lon="9.839053">
        <ele>673.681710</ele>
        <time>2025-11-10T21:05:29.670Z</time>
      </trkpt>
      <trkpt lat="48.552840" lon="9.839213">
        <ele>673.546695</ele>
        <time>2025-11-10T21:05:33.580Z</time>
      </trkpt>
      <trkpt lat="48.553394" lon="9.839411">
        <ele>673.243143</ele>
        <time>2025-11-10T21:05:43.535Z</time>
      </trkpt>
      <trkpt lat="48.554344" lon="9.839550">
        <ele>672.295318</ele>
        <time>2025-11-10T21:05:55.678Z</time>
      </trkpt>
      <trkpt lat="48.555117" lon="9.839635">
        <ele>670.061007</ele>
        <time>2025-11-10T21:06:07.145Z</time>
      </trkpt>
      <trkpt lat="48.555608" lon="9.839728">
        <ele>668.634465</ele>
        <time>2025-11-10T21:06:14.052Z</time>
      </trkpt>
      <trkpt lat="48.556783" lon="9.839859">
        <ele>665.524373</ele>
        <time>2025-11-10T21:06:31.135Z</time>
      </trkpt>
      <trkpt lat="48.558000" lon="9.840439">
        <ele>663.238133</ele>
        <time>2025-11-10T21:06:51.276Z</time>
      </trkpt>
      <trkpt lat="48.558804" lon="9.840965">
        <ele>663.680947</ele>
        <time>2025-11-10T21:07:08.187Z</time>
      </trkpt>
      <trkpt lat="48.560271" lon="9.841843">
        <ele>668.202585</ele>
        <time>2025-11-10T21:07:58.868Z</time>
      </trkpt>
      <trkpt lat="48.560487" lon="9.841838">
        <ele>669.141931</ele>
        <time>2025-11-10T21:08:07.613Z</time>
      </trkpt>
      <trkpt lat="48.562004" lon="9.841739">
        <ele>678.289822</ele>
        <time>2025-11-10T21:09:17.000Z</time>
      </trkpt>
      <trkpt lat="48.562843" lon="9.841719">
        <ele>684.298803</ele>
        <time>2025-11-10T21:10:01.029Z</time>
      </trkpt>
      <trkpt lat="48.563044" lon="9.841774">
        <ele>685.669628</ele>
        <time>2025-11-10T21:10:11.902Z</time>
      </trkpt>
      <trkpt lat="48.563390" lon="9.842051">
        <ele>688.232959</ele>
        <time>2025-11-10T21:10:32.369Z</time>
      </trkpt>
      <trkpt lat="48.563880" lon="9.842506">
        <ele>691.997972</ele>
        <time>2025-11-10T21:11:00.600Z</time>
      </trkpt>
      <trkpt lat="48.565190" lon="9.843498">
        <ele>698.845717</ele>
        <time>2025-11-10T21:11:58.836Z</time>
      </trkpt>
      <trkpt lat="48.566595" lon="9.844086">
        <ele>701.329015</ele>
        <time>2025-11-10T21:12:38.655Z</time>
      </trkpt>
      <trkpt lat="48.567483" lon="9.844593">
        <ele>700.029545</ele>
        <time>2025-11-10T21:12:54.672Z</time>
      </trkpt>
      <trkpt lat="48.569555" lon="9.845362">
        <ele>690.784350</ele>
        <time>2025-11-10T21:13:23.594Z</time>
      </trkpt>
      <trkpt lat="48.572124" lon="9.846397">
        <ele>672.745315</ele>
        <time>2025-11-10T21:13:57.766Z</time>
      </trkpt>
      <trkpt lat="48.572785" lon="9.846731">
        <ele>667.723227</ele>
        <time>2025-11-10T21:14:06.697Z</time>
      </trkpt>
      <trkpt lat="48.573374" lon="9.847112">
        <ele>662.870249</ele>
        <time>2025-11-10T21:14:14.794Z</time>
      </trkpt>
      <trkpt lat="48.573574" lon="9.847089">
        <ele>661.279840</ele>
        <time>2025-11-10T21:14:17.269Z</time>
      </trkpt>
      <trkpt lat="48.573679" lon="9.846980">
        <ele>660.269805</ele>
        <time>2025-11-10T21:14:18.822Z</time>
      </trkpt>
      <trkpt lat="48.573760" lon="9.846943">
        <ele>659.598852</ele>
        <time>2025-11-10T21:14:19.862Z</time>
      </trkpt>
      <trkpt lat="48.573894" lon="9.847020">
        <ele>658.462145</ele>
        <time>2025-11-10T21:14:21.617Z</time>
      </trkpt>
      <trkpt lat="48.573724" lon="9.847682">
        <ele>654.736658</ele>
        <time>2025-11-10T21:14:25.802Z</time>
      </trkpt>
      <trkpt lat="48.573605" lon="9.848057">
        <ele>652.554705</ele>
        <time>2025-11-10T21:14:28.292Z</time>
      </trkpt>
      <trkpt lat="48.573595" lon="9.848183">
        <ele>651.888924</ele>
        <time>2025-11-10T21:14:29.048Z</time>
      </trkpt>
      <trkpt lat="48.573625" lon="9.848285">
        <ele>651.303307</ele>
        <time>2025-11-10T21:14:29.708Z</time>
      </trkpt>
      <trkpt lat="48.573698" lon="9.848351">
        <ele>650.709440</ele>
        <time>2025-11-10T21:14:30.458Z</time>
      </trkpt>
      <trkpt lat="48.573773" lon="9.848359">
        <ele>650.197415</ele>
        <time>2025-11-10T21:14:31.125Z</time>
      </trkpt>
      <trkpt lat="48.573895" lon="9.848287">
        <ele>649.305492</ele>
        <time>2025-11-10T21:14:32.288Z</time>
      </trkpt>
      <trkpt lat="48.573985" lon="9.848141">
        <ele>648.406361</ele>
        <time>2025-11-10T21:14:33.460Z</time>
      </trkpt>
      <trkpt lat="48.574125" lon="9.847976">
        <ele>647.197337</ele>
        <time>2025-11-10T21:14:35.045Z</time>
      </trkpt>
      <trkpt lat="48.574228" lon="9.847922">
        <ele>646.454898</ele>
        <time>2025-11-10T21:14:36.025Z</time>
      </trkpt>
      <trkpt lat="48.574377" lon="9.847961">
        <ele>645.425094</ele>
        <time>2025-11-10T21:14:37.391Z</time>
      </trkpt>
      <trkpt lat="48.574440" lon="9.848014">
        <ele>644.934074</ele>
        <time>2025-11-10T21:14:38.049Z</time>
      </trkpt>
      <trkpt lat="48.574545" lon="9.848244">
        <ele>643.674979</ele>
        <time>2025-11-10T21:14:39.762Z</time>
      </trkpt>
      <trkpt lat="48.574582" lon="9.848328">
        <ele>643.220287</ele>
        <time>2025-11-10T21:14:40.384Z</time>
      </trkpt>
      <trkpt lat="48.574738" lon="9.848747">
        <ele>641.053961</ele>
        <time>2025-11-10T21:14:43.332Z</time>
      </trkpt>
      <trkpt lat="48.574950" lon="9.849492">
        <ele>637.722629</ele>
        <time>2025-11-10T21:14:48.089Z</time>
      </trkpt>
      <trkpt lat="48.574971" lon="9.849576">
        <ele>637.402213</ele>
        <time>2025-11-10T21:14:48.834Z</time>
      </trkpt>
      <trkpt lat="48.575024" lon="9.849786">
        <ele>636.600217</ele>
        <time>2025-11-10T21:14:50.741Z</time>
      </trkpt>
      <trkpt lat="48.575077" lon="9.850003">
        <ele>635.774836</ele>
        <time>2025-11-10T21:14:52.717Z</time>
      </trkpt>
      <trkpt lat="48.575260" lon="9.850619">
        <ele>633.365401</ele>
        <time>2025-11-10T21:14:58.627Z</time>
      </trkpt>
      <trkpt lat="48.575468" lon="9.851056">
        <ele>631.444519</ele>
        <time>2025-11-10T21:15:03.509Z</time>
      </trkpt>
      <trkpt lat="48.575644" lon="9.851427">
        <ele>629.815594</ele>
        <time>2025-11-10T21:15:07.800Z</time>
      </trkpt>
      <trkpt lat="48.575659" lon="9.851458">
        <ele>629.678555</ele>
        <time>2025-11-10T21:15:08.155Z</time>
      </trkpt>
      <trkpt lat="48.575852" lon="9.851784">
        <ele>628.752128</ele>
        <time>2025-11-10T21:15:12.291Z</time>
      </trkpt>
      <trkpt lat="48.576293" lon="9.852564">
        <ele>627.140648</ele>
        <time>2025-11-10T21:15:22.418Z</time>
      </trkpt>
      <trkpt lat="48.576389" lon="9.852798">
        <ele>626.708197</ele>
        <time>2025-11-10T21:15:25.249Z</time>
      </trkpt>
      <trkpt lat="48.576372" lon="9.853032">
        <ele>626.338460</ele>
        <time>2025-11-10T21:15:26.965Z</time>
      </trkpt>
      <trkpt lat="48.576241" lon="9.853416">
        <ele>625.659881</ele>
        <time>2025-11-10T21:15:30.192Z</time>
      </trkpt>
      <trkpt lat="48.575655" lon="9.854721">
        <ele>624.495336</ele>
        <time>2025-11-10T21:15:42.848Z</time>
      </trkpt>
      <trkpt lat="48.575648" lon="9.854961">
        <ele>624.393402</ele>
        <time>2025-11-10T21:15:45.008Z</time>
      </trkpt>
      <trkpt lat="48.575744" lon="9.855228">
        <ele>624.264464</ele>
        <time>2025-11-10T21:15:47.632Z</time>
      </trkpt>
      <trkpt lat="48.575994" lon="9.855595">
        <ele>624.040959</ele>
        <time>2025-11-10T21:15:52.285Z</time>
      </trkpt>
      <trkpt lat="48.576075" lon="9.855790">
        <ele>623.943264</ele>
        <time>2025-11-10T21:15:54.319Z</time>
      </trkpt>
      <trkpt lat="48.576081" lon="9.855889">
        <ele>623.901082</ele>
        <time>2025-11-10T21:15:55.249Z</time>
      </trkpt>
      <trkpt lat="48.575997" lon="9.856294">
        <ele>623.852646</ele>
        <time>2025-11-10T21:15:59.506Z</time>
      </trkpt>
      <trkpt lat="48.575992" lon="9.856474">
        <ele>623.870508</ele>
        <time>2025-11-10T21:16:01.379Z</time>
      </trkpt>
      <trkpt lat="48.575941" lon="9.856534">
        <ele>623.880192</ele>
        <time>2025-11-10T21:16:02.437Z</time>
      </trkpt>
      <trkpt lat="48.575711" lon="9.857267">
        <ele>623.960624</ele>
        <time>2025-11-10T21:16:11.308Z</time>
      </trkpt>
      <trkpt lat="48.575630" lon="9.857544">
        <ele>623.990650</ele>
        <time>2025-11-10T21:16:14.242Z</time>
      </trkpt>
      <trkpt lat="48.575362" lon="9.858436">
        <ele>624.087779</ele>
        <time>2025-11-10T21:16:24.307Z</time>
      </trkpt>
      <trkpt lat="48.574970" lon="9.859829">
        <ele>624.158619</ele>
        <time>2025-11-10T21:16:39.725Z</time>
      </trkpt>
      <trkpt lat="48.574899" lon="9.860252">
        <ele>624.177505</ele>
        <time>2025-11-10T21:16:43.999Z</time>
      </trkpt>
      <trkpt lat="48.574867" lon="9.860633">
        <ele>624.194126</ele>
        <time>2025-11-10T21:16:47.907Z</time>
      </trkpt>
      <trkpt lat="48.574865" lon="9.860727">
        <ele>624.198196</ele>
        <time>2025-11-10T21:16:48.860Z</time>
      </trkpt>
      <trkpt lat="48.574885" lon="9.862034">
        <ele>623.474093</ele>
        <time>2025-11-10T21:17:01.256Z</time>
      </trkpt>
      <trkpt lat="48.574889" lon="9.862269">
        <ele>623.285169</ele>
        <time>2025-11-10T21:17:03.362Z</time>
      </trkpt>
      <trkpt lat="48.574946" lon="9.863989">
        <ele>621.516904</ele>
        <time>2025-11-10T21:17:16.425Z</time>
      </trkpt>
      <trkpt lat="48.574969" lon="9.864505">
        <ele>619.863477</ele>
        <time>2025-11-10T21:17:19.791Z</time>
      </trkpt>
      <trkpt lat="48.575028" lon="9.864962">
        <ele>618.374863</ele>
        <time>2025-11-10T21:17:22.733Z</time>
      </trkpt>
      <trkpt lat="48.575402" lon="9.866487">
        <ele>613.119131</ele>
        <time>2025-11-10T21:17:32.633Z</time>
      </trkpt>
      <trkpt lat="48.575608" lon="9.867342">
        <ele>609.214380</ele>
        <time>2025-11-10T21:17:38.088Z</time>
      </trkpt>
      <trkpt lat="48.575793" lon="9.868320">
        <ele>604.849361</ele>
        <time>2025-11-10T21:17:44.206Z</time>
      </trkpt>
      <trkpt lat="48.575861" lon="9.868740">
        <ele>602.993853</ele>
        <time>2025-11-10T21:17:46.801Z</time>
      </trkpt>
      <trkpt lat="48.576083" lon="9.870232">
        <ele>595.874178</ele>
        <time>2025-11-10T21:17:55.906Z</time>
      </trkpt>
      <trkpt lat="48.576145" lon="9.871184">
        <ele>591.332800</ele>
        <time>2025-11-10T21:18:01.513Z</time>
      </trkpt>
      <trkpt lat="48.576138" lon="9.872972">
        <ele>584.857155</ele>
        <time>2025-11-10T21:18:12.128Z</time>
      </trkpt>
      <trkpt lat="48.576133" lon="9.873401">
        <ele>583.512444</ele>
        <time>2025-11-10T21:18:14.832Z</time>
      </trkpt>
      <trkpt lat="48.576133" lon="9.873547">
        <ele>583.054875</ele>
        <time>2025-11-10T21:18:15.787Z</time>
      </trkpt>
      <trkpt lat="48.576143" lon="9.873804">
        <ele>582.248036</ele>
        <time>2025-11-10T21:18:17.524Z</time>
      </trkpt>
      <trkpt lat="48.576142" lon="9.874222">
        <ele>580.938000</ele>
        <time>2025-11-10T21:18:20.460Z</time>
      </trkpt>
      <trkpt lat="48.576225" lon="9.874241">
        <ele>580.540354</ele>
        <time>2025-11-10T21:18:21.403Z</time>
      </trkpt>
      <trkpt lat="48.576331" lon="9.874183">
        <ele>580.235596</ele>
        <time>2025-11-10T21:18:22.745Z</time>
      </trkpt>
      <trkpt lat="48.576620" lon="9.873902">
        <ele>580.156724</ele>
        <time>2025-11-10T21:18:27.346Z</time>
      </trkpt>
      <trkpt lat="48.576688" lon="9.873879">
        <ele>580.140731</ele>
        <time>2025-11-10T21:18:28.339Z</time>
      </trkpt>
      <trkpt lat="48.576812" lon="9.873933">
        <ele>580.111112</ele>
        <time>2025-11-10T21:18:30.255Z</time>
      </trkpt>
      <trkpt lat="48.576850" lon="9.874014">
        <ele>580.096034</ele>
        <time>2025-11-10T21:18:31.212Z</time>
      </trkpt>
      <trkpt lat="48.576951" lon="9.874261">
        <ele>580.051940</ele>
        <time>2025-11-10T21:18:34.037Z</time>
      </trkpt>
      <trkpt lat="48.576969" lon="9.874462">
        <ele>580.021139</ele>
        <time>2025-11-10T21:18:36.018Z</time>
      </trkpt>
      <trkpt lat="48.576943" lon="9.874574">
        <ele>580.003114</ele>
        <time>2025-11-10T21:18:37.219Z</time>
      </trkpt>
      <trkpt lat="48.576894" lon="9.874647">
        <ele>579.987323</ele>
        <time>2025-11-10T21:18:38.274Z</time>
      </trkpt>
      <trkpt lat="48.576493" lon="9.874981">
        <ele>579.882235</ele>
        <time>2025-11-10T21:18:45.745Z</time>
      </trkpt>
      <trkpt lat="48.576443" lon="9.875134">
        <ele>579.856321</ele>
        <time>2025-11-10T21:18:47.676Z</time>
      </trkpt>
      <trkpt lat="48.576442" lon="9.875222">
        <ele>579.842956</ele>
        <time>2025-11-10T21:18:48.649Z</time>
      </trkpt>
      <trkpt lat="48.576483" lon="9.875548">
        <ele>579.881197</ele>
        <time>2025-11-10T21:18:52.381Z</time>
      </trkpt>
      <trkpt lat="48.576574" lon="9.875978">
        <ele>579.957741</ele>
        <time>2025-11-10T21:18:57.438Z</time>
      </trkpt>
      <trkpt lat="48.576642" lon="9.876380">
        <ele>580.028091</ele>
        <time>2025-11-10T21:19:03.207Z</time>
      </trkpt>
      <trkpt lat="48.576645" lon="9.876615">
        <ele>580.067941</ele>
        <time>2025-11-10T21:19:06.404Z</time>
      </trkpt>
      <trkpt lat="48.576615" lon="9.876750">
        <ele>580.092087</ele>
        <time>2025-11-10T21:19:08.356Z</time>
      </trkpt>
      <trkpt lat="48.576378" lon="9.877142">
        <ele>580.182119</ele>
        <time>2025-11-10T21:19:15.797Z</time>
      </trkpt>
      <trkpt lat="48.576067" lon="9.877186">
        <ele>580.262164</ele>
        <time>2025-11-10T21:19:20.807Z</time>
      </trkpt>
      <trkpt lat="48.575995" lon="9.877229">
        <ele>580.282003</ele>
        <time>2025-11-10T21:19:22.010Z</time>
      </trkpt>
      <trkpt lat="48.575904" lon="9.877282">
        <ele>580.320188</ele>
        <time>2025-11-10T21:19:23.468Z</time>
      </trkpt>
      <trkpt lat="48.575690" lon="9.877621">
        <ele>580.489737</ele>
        <time>2025-11-10T21:19:27.852Z</time>
      </trkpt>
      <trkpt lat="48.575400" lon="9.878248">
        <ele>580.766565</ele>
        <time>2025-11-10T21:19:34.919Z</time>
      </trkpt>
      <trkpt lat="48.575176" lon="9.878766">
        <ele>580.990495</ele>
        <time>2025-11-10T21:19:41.969Z</time>
      </trkpt>
      <trkpt lat="48.575018" lon="9.879187">
        <ele>581.165641</ele>
        <time>2025-11-10T21:19:48.294Z</time>
      </trkpt>
      <trkpt lat="48.575226" lon="9.879478">
        <ele>581.449635</ele>
        <time>2025-11-10T21:19:54.281Z</time>
      </trkpt>
      <trkpt lat="48.575538" lon="9.879780">
        <ele>582.280842</ele>
        <time>2025-11-10T21:20:02.445Z</time>
      </trkpt>
      <trkpt lat="48.576076" lon="9.880150">
        <ele>583.606913</ele>
        <time>2025-11-10T21:20:16.755Z</time>
      </trkpt>
      <trkpt lat="48.576719" lon="9.880496">
        <ele>585.138168</ele>
        <time>2025-11-10T21:20:34.302Z</time>
      </trkpt>
      <trkpt lat="48.577302" lon="9.880917">
        <ele>586.272155</ele>
        <time>2025-11-10T21:20:50.350Z</time>
      </trkpt>
      <trkpt lat="48.577816" lon="9.881384">
        <ele>587.284181</ele>
        <time>2025-11-10T21:21:03.319Z</time>
      </trkpt>
      <trkpt lat="48.578653" lon="9.882367">
        <ele>588.611489</ele>
        <time>2025-11-10T21:21:22.819Z</time>
      </trkpt>
      <trkpt lat="48.580058" lon="9.884209">
        <ele>590.278461</ele>
        <time>2025-11-10T21:21:53.697Z</time>
      </trkpt>
      <trkpt lat="48.580498" lon="9.884922">
        <ele>591.371067</ele>
        <time>2025-11-10T21:22:07.520Z</time>
      </trkpt>
      <trkpt lat="48.581179" lon="9.886425">
        <ele>594.077432</ele>
        <time>2025-11-10T21:22:38.547Z</time>
      </trkpt>
      <trkpt lat="48.581780" lon="9.888048">
        <ele>597.672863</ele>
        <time>2025-11-10T21:23:12.248Z</time>
      </trkpt>
      <trkpt lat="48.581997" lon="9.888770">
        <ele>599.235756</ele>
        <time>2025-11-10T21:23:25.479Z</time>
      </trkpt>
      <trkpt lat="48.582154" lon="9.889437">
        <ele>600.632447</ele>
        <time>2025-11-10T21:23:37.056Z</time>
      </trkpt>
      <trkpt lat="48.582220" lon="9.889861">
        <ele>601.491770</ele>
        <time>2025-11-10T21:23:44.420Z</time>
      </trkpt>
      <trkpt lat="48.582280" lon="9.890515">
        <ele>602.794346</ele>
        <time>2025-11-10T21:23:56.491Z</time>
      </trkpt>
      <trkpt lat="48.582276" lon="9.891244">
        <ele>604.753367</ele>
        <time>2025-11-10T21:24:11.294Z</time>
      </trkpt>
      <trkpt lat="48.582275" lon="9.891312">
        <ele>604.950068</ele>
        <time>2025-11-10T21:24:12.726Z</time>
      </trkpt>
      <trkpt lat="48.582158" lon="9.892551">
        <ele>608.569515</ele>
        <time>2025-11-10T21:24:40.404Z</time>
      </trkpt>
      <trkpt lat="48.582020" lon="9.893587">
        <ele>611.531660</ele>
        <time>2025-11-10T21:25:04.506Z</time>
      </trkpt>
      <trkpt lat="48.581893" lon="9.895059">
        <ele>615.201718</ele>
        <time>2025-11-10T21:25:34.121Z</time>
      </trkpt>
      <trkpt lat="48.581868" lon="9.895992">
        <ele>617.510278</ele>
        <time>2025-11-10T21:25:51.423Z</time>
      </trkpt>
      <trkpt lat="48.581889" lon="9.896605">
        <ele>618.795787</ele>
        <time>2025-11-10T21:26:02.186Z</time>
      </trkpt>
      <trkpt lat="48.581927" lon="9.897364">
        <ele>620.348926</ele>
        <time>2025-11-10T21:26:15.215Z</time>
      </trkpt>
      <trkpt lat="48.582109" lon="9.899553">
        <ele>625.119978</ele>
        <time>2025-11-10T21:26:55.634Z</time>
      </trkpt>
      <trkpt lat="48.582190" lon="9.900634">
        <ele>627.712679</ele>
        <time>2025-11-10T21:27:17.116Z</time>
      </trkpt>
      <trkpt lat="48.582218" lon="9.901501">
        <ele>629.788957</ele>
        <time>2025-11-10T21:27:34.363Z</time>
      </trkpt>
      <trkpt lat="48.582201" lon="9.902472">
        <ele>632.424819</ele>
        <time>2025-11-10T21:27:53.577Z</time>
      </trkpt>
      <trkpt lat="48.582119" lon="9.903464">
        <ele>635.137681</ele>
        <time>2025-11-10T21:28:13.881Z</time>
      </trkpt>
      <trkpt lat="48.582045" lon="9.903933">
        <ele>636.446077</ele>
        <time>2025-11-10T21:28:24.113Z</time>
      </trkpt>
      <trkpt lat="48.581771" lon="9.905185">
        <ele>640.966349</ele>
        <time>2025-11-10T21:28:54.244Z</time>
      </trkpt>
      <trkpt lat="48.581089" lon="9.907526">
        <ele>650.019955</ele>
        <time>2025-11-10T21:29:59.089Z</time>
      </trkpt>
      <trkpt lat="48.580982" lon="9.907806">
        <ele>651.135787</ele>
        <time>2025-11-10T21:30:07.452Z</time>
      </trkpt>
      <trkpt lat="48.580445" lon="9.908711">
        <ele>655.330893</ele>
        <time>2025-11-10T21:30:36.170Z</time>
      </trkpt>
      <trkpt lat="48.580363" lon="9.908896">
        <ele>656.099336</ele>
        <time>2025-11-10T21:30:40.876Z</time>
      </trkpt>
      <trkpt lat="48.580324" lon="9.909178">
        <ele>656.662978</ele>
        <time>2025-11-10T21:30:46.583Z</time>
      </trkpt>
      <trkpt lat="48.580345" lon="9.909377">
        <ele>657.006027</ele>
        <time>2025-11-10T21:30:50.321Z</time>
      </trkpt>
      <trkpt lat="48.580362" lon="9.909501">
        <ele>657.221603</ele>
        <time>2025-11-10T21:30:52.570Z</time>
      </trkpt>
      <trkpt lat="48.580378" lon="9.909605">
        <ele>657.403371</ele>
        <time>2025-11-10T21:30:54.362Z</time>
      </trkpt>
      <trkpt lat="48.580437" lon="9.909942">
        <ele>657.996808</ele>
        <time>2025-11-10T21:30:59.894Z</time>
      </trkpt>
      <trkpt lat="48.580542" lon="9.910491">
        <ele>658.969664</ele>
        <time>2025-11-10T21:31:08.071Z</time>
      </trkpt>
      <trkpt lat="48.580779" lon="9.911380">
        <ele>660.601293</ele>
        <time>2025-11-10T21:31:21.440Z</time>
      </trkpt>
      <trkpt lat="48.581046" lon="9.912195">
        <ele>662.826864</ele>
        <time>2025-11-10T21:31:37.150Z</time>
      </trkpt>
      <trkpt lat="48.581243" lon="9.912710">
        <ele>664.376570</ele>
        <time>2025-11-10T21:31:49.497Z</time>
      </trkpt>
      <trkpt lat="48.581348" lon="9.913055">
        <ele>665.365841</ele>
        <time>2025-11-10T21:31:57.996Z</time>
      </trkpt>
      <trkpt lat="48.581471" lon="9.913672">
        <ele>667.044514</ele>
        <time>2025-11-10T21:32:12.726Z</time>
      </trkpt>
      <trkpt lat="48.581566" lon="9.914146">
        <ele>668.303825</ele>
        <time>2025-11-10T21:32:23.739Z</time>
      </trkpt>
      <trkpt lat="48.581624" lon="9.914467">
        <ele>669.100248</ele>
        <time>2025-11-10T21:32:30.997Z</time>
      </trkpt>
      <trkpt lat="48.581682" lon="9.914749">
        <ele>669.807053</ele>
        <time>2025-11-10T21:32:37.573Z</time>
      </trkpt>
      <trkpt lat="48.581808" lon="9.915210">
        <ele>671.000867</ele>
        <time>2025-11-10T21:32:48.023Z</time>
      </trkpt>
      <trkpt lat="48.581894" lon="9.915519">
        <ele>671.803207</ele>
        <time>2025-11-10T21:32:54.448Z</time>
      </trkpt>
      <trkpt lat="48.581924" lon="9.915722">
        <ele>672.301040</ele>
        <time>2025-11-10T21:32:58.259Z</time>
      </trkpt>
      <trkpt lat="48.581998" lon="9.915752">
        <ele>672.578223</ele>
        <time>2025-11-10T21:33:00.346Z</time>
      </trkpt>
      <trkpt lat="48.582052" lon="9.915773">
        <ele>672.779949</ele>
        <time>2025-11-10T21:33:01.801Z</time>
      </trkpt>
      <trkpt lat="48.582363" lon="9.915897">
        <ele>673.943584</ele>
        <time>2025-11-10T21:33:10.062Z</time>
      </trkpt>
      <trkpt lat="48.583199" lon="9.916405">
        <ele>675.770723</ele>
        <time>2025-11-10T21:33:31.583Z</time>
      </trkpt>
      <trkpt lat="48.583544" lon="9.916713">
        <ele>676.462814</ele>
        <time>2025-11-10T21:33:39.632Z</time>
      </trkpt>
      <trkpt lat="48.583792" lon="9.917114">
        <ele>677.090078</ele>
        <time>2025-11-10T21:33:46.376Z</time>
      </trkpt>
      <trkpt lat="48.583906" lon="9.917315">
        <ele>677.392611</ele>
        <time>2025-11-10T21:33:49.722Z</time>
      </trkpt>
      <trkpt lat="48.584050" lon="9.917506">
        <ele>677.748334</ele>
        <time>2025-11-10T21:33:53.489Z</time>
      </trkpt>
      <trkpt lat="48.584094" lon="9.917563">
        <ele>677.864461</ele>
        <time>2025-11-10T21:33:54.637Z</time>
      </trkpt>
      <trkpt lat="48.584408" lon="9.917810">
        <ele>678.573830</ele>
        <time>2025-11-10T21:34:02.221Z</time>
      </trkpt>
      <trkpt lat="48.584655" lon="9.917932">
        <ele>679.094581</ele>
        <time>2025-11-10T21:34:08.056Z</time>
      </trkpt>
      <trkpt lat="48.585575" lon="9.918304">
        <ele>681.003114</ele>
        <time>2025-11-10T21:34:30.989Z</time>
      </trkpt>
      <trkpt lat="48.586021" lon="9.918542">
        <ele>681.886467</ele>
        <time>2025-11-10T21:34:43.091Z</time>
      </trkpt>
      <trkpt lat="48.586333" lon="9.918824">
        <ele>682.554548</ele>
        <time>2025-11-10T21:34:51.752Z</time>
      </trkpt>
      <trkpt lat="48.586528" lon="9.919056">
        <ele>683.010603</ele>
        <time>2025-11-10T21:34:57.299Z</time>
      </trkpt>
      <trkpt lat="48.587057" lon="9.919859">
        <ele>684.388358</ele>
        <time>2025-11-10T21:35:12.467Z</time>
      </trkpt>
      <trkpt lat="48.587341" lon="9.920160">
        <ele>684.574937</ele>
        <time>2025-11-10T21:35:19.116Z</time>
      </trkpt>
      <trkpt lat="48.587702" lon="9.920395">
        <ele>684.701883</ele>
        <time>2025-11-10T21:35:26.288Z</time>
      </trkpt>
      <trkpt lat="48.587973" lon="9.920480">
        <ele>684.791274</ele>
        <time>2025-11-10T21:35:31.043Z</time>
      </trkpt>
      <trkpt lat="48.588275" lon="9.920512">
        <ele>684.889054</ele>
        <time>2025-11-10T21:35:35.798Z</time>
      </trkpt>
      <trkpt lat="48.588519" lon="9.920464">
        <ele>684.968525</ele>
        <time>2025-11-10T21:35:39.357Z</time>
      </trkpt>
      <trkpt lat="48.588788" lon="9.920364">
        <ele>685.057995</ele>
        <time>2025-11-10T21:35:43.159Z</time>
      </trkpt>
      <trkpt lat="48.590228" lon="9.919553">
        <ele>683.287849</ele>
        <time>2025-11-10T21:36:01.395Z</time>
      </trkpt>
      <trkpt lat="48.591386" lon="9.918978">
        <ele>682.132453</ele>
        <time>2025-11-10T21:36:15.372Z</time>
      </trkpt>
      <trkpt lat="48.592292" lon="9.918645">
        <ele>681.637568</ele>
        <time>2025-11-10T21:36:27.110Z</time>
      </trkpt>
      <trkpt lat="48.592341" lon="9.918627">
        <ele>681.790408</ele>
        <time>2025-11-10T21:36:28.045Z</time>
      </trkpt>
      <trkpt lat="48.592901" lon="9.918458">
        <ele>683.521251</ele>
        <time>2025-11-10T21:36:40.577Z</time>
      </trkpt>
      <trkpt lat="48.593221" lon="9.918356">
        <ele>684.512491</ele>
        <time>2025-11-10T21:36:50.512Z</time>
      </trkpt>
      <trkpt lat="48.593477" lon="9.918236">
        <ele>685.324863</ele>
        <time>2025-11-10T21:37:00.127Z</time>
      </trkpt>
      <trkpt lat="48.593555" lon="9.918142">
        <ele>685.627193</ele>
        <time>2025-11-10T21:37:03.834Z</time>
      </trkpt>
      <trkpt lat="48.593737" lon="9.917730">
        <ele>686.620407</ele>
        <time>2025-11-10T21:37:15.692Z</time>
      </trkpt>
      <trkpt lat="48.593854" lon="9.917622">
        <ele>686.845544</ele>
        <time>2025-11-10T21:37:20.502Z</time>
      </trkpt>
      <trkpt lat="48.594137" lon="9.917550">
        <ele>686.907693</ele>
        <time>2025-11-10T21:37:29.510Z</time>
      </trkpt>
      <trkpt lat="48.594390" lon="9.917549">
        <ele>686.962484</ele>
        <time>2025-11-10T21:37:35.942Z</time>
      </trkpt>
      <trkpt lat="48.594422" lon="9.917549">
        <ele>686.969414</ele>
        <time>2025-11-10T21:37:36.632Z</time>
      </trkpt>
      <trkpt lat="48.594651" lon="9.917552">
        <ele>687.019009</ele>
        <time>2025-11-10T21:37:41.026Z</time>
      </trkpt>
      <trkpt lat="48.594795" lon="9.917487">
        <ele>687.051555</ele>
        <time>2025-11-10T21:37:43.352Z</time>
      </trkpt>
      <trkpt lat="48.594853" lon="9.917780">
        <ele>687.095361</ele>
        <time>2025-11-10T21:37:45.932Z</time>
      </trkpt>
      <trkpt lat="48.594868" lon="9.918074">
        <ele>687.137596</ele>
        <time>2025-11-10T21:37:48.078Z</time>
      </trkpt>
      <trkpt lat="48.594871" lon="9.918147">
        <ele>687.148072</ele>
        <time>2025-11-10T21:37:48.580Z</time>
      </trkpt>
      <trkpt lat="48.594873" lon="9.919116">
        <ele>685.960975</ele>
        <time>2025-11-10T21:37:54.729Z</time>
      </trkpt>
      <trkpt lat="48.594794" lon="9.919921">
        <ele>683.751557</ele>
        <time>2025-11-10T21:37:59.729Z</time>
      </trkpt>
      <trkpt lat="48.594787" lon="9.920307">
        <ele>682.703212</ele>
        <time>2025-11-10T21:38:02.142Z</time>
      </trkpt>
      <trkpt lat="48.594809" lon="9.920615">
        <ele>681.862162</ele>
        <time>2025-11-10T21:38:04.111Z</time>
      </trkpt>
      <trkpt lat="48.594891" lon="9.920863">
        <ele>681.109417</ele>
        <time>2025-11-10T21:38:05.906Z</time>
      </trkpt>
      <trkpt lat="48.594989" lon="9.921140">
        <ele>680.256557</ele>
        <time>2025-11-10T21:38:07.987Z</time>
      </trkpt>
      <trkpt lat="48.595503" lon="9.922387">
        <ele>678.859926</ele>
        <time>2025-11-10T21:38:18.990Z</time>
      </trkpt>
      <trkpt lat="48.595644" lon="9.922762">
        <ele>678.539327</ele>
        <time>2025-11-10T21:38:22.945Z</time>
      </trkpt>
      <trkpt lat="48.595706" lon="9.922965">
        <ele>678.373144</ele>
        <time>2025-11-10T21:38:25.038Z</time>
      </trkpt>
      <trkpt lat="48.595814" lon="9.923123">
        <ele>678.204268</ele>
        <time>2025-11-10T21:38:27.160Z</time>
      </trkpt>
      <trkpt lat="48.595956" lon="9.923218">
        <ele>678.029773</ele>
        <time>2025-11-10T21:38:29.336Z</time>
      </trkpt>
      <trkpt lat="48.596716" lon="9.923451">
        <ele>677.725809</ele>
        <time>2025-11-10T21:38:40.213Z</time>
      </trkpt>
      <trkpt lat="48.596892" lon="9.923526">
        <ele>677.697646</ele>
        <time>2025-11-10T21:38:42.754Z</time>
      </trkpt>
      <trkpt lat="48.597109" lon="9.923691">
        <ele>677.660236</ele>
        <time>2025-11-10T21:38:46.100Z</time>
      </trkpt>
      <trkpt lat="48.597309" lon="9.924036">
        <ele>677.613504</ele>
        <time>2025-11-10T21:38:50.422Z</time>
      </trkpt>
      <trkpt lat="48.597519" lon="9.924736">
        <ele>677.524123</ele>
        <time>2025-11-10T21:38:57.995Z</time>
      </trkpt>
      <trkpt lat="48.597649" lon="9.925075">
        <ele>677.364715</ele>
        <time>2025-11-10T21:39:01.997Z</time>
      </trkpt>
      <trkpt lat="48.597836" lon="9.925377">
        <ele>677.196422</ele>
        <time>2025-11-10T21:39:06.381Z</time>
      </trkpt>
      <trkpt lat="48.598699" lon="9.926500">
        <ele>676.496090</ele>
        <time>2025-11-10T21:39:21.251Z</time>
      </trkpt>
      <trkpt lat="48.599010" lon="9.926943">
        <ele>675.513732</ele>
        <time>2025-11-10T21:39:25.924Z</time>
      </trkpt>
      <trkpt lat="48.599158" lon="9.927207">
        <ele>674.864636</ele>
        <time>2025-11-10T21:39:28.299Z</time>
      </trkpt>
      <trkpt lat="48.599277" lon="9.927419">
        <ele>674.343115</ele>
        <time>2025-11-10T21:39:30.159Z</time>
      </trkpt>
      <trkpt lat="48.599496" lon="9.927944">
        <ele>673.178965</ele>
        <time>2025-11-10T21:39:34.227Z</time>
      </trkpt>
      <trkpt lat="48.599499" lon="9.927951">
        <ele>673.163321</ele>
        <time>2025-11-10T21:39:34.279Z</time>
      </trkpt>
      <trkpt lat="48.599730" lon="9.928705">
        <ele>671.604831</ele>
        <time>2025-11-10T21:39:39.677Z</time>
      </trkpt>
      <trkpt lat="48.600584" lon="9.932184">
        <ele>668.869198</ele>
        <time>2025-11-10T21:40:06.483Z</time>
      </trkpt>
      <trkpt lat="48.600729" lon="9.932575">
        <ele>669.593666</ele>
        <time>2025-11-10T21:40:14.484Z</time>
      </trkpt>
      <trkpt lat="48.600915" lon="9.932897">
        <ele>670.284615</ele>
        <time>2025-11-10T21:40:23.205Z</time>
      </trkpt>
      <trkpt lat="48.601223" lon="9.933323">
        <ele>671.304669</ele>
        <time>2025-11-10T21:40:38.006Z</time>
      </trkpt>
      <trkpt lat="48.601601" lon="9.933867">
        <ele>672.961206</ele>
        <time>2025-11-10T21:40:58.719Z</time>
      </trkpt>
      <trkpt lat="48.601851" lon="9.934494">
        <ele>674.806391</ele>
        <time>2025-11-10T21:41:16.320Z</time>
      </trkpt>
      <trkpt lat="48.601955" lon="9.934965">
        <ele>676.057830</ele>
        <time>2025-11-10T21:41:26.037Z</time>
      </trkpt>
      <trkpt lat="48.602017" lon="9.935515">
        <ele>677.463935</ele>
        <time>2025-11-10T21:41:35.701Z</time>
      </trkpt>
      <trkpt lat="48.602027" lon="9.935590">
        <ele>677.656754</ele>
        <time>2025-11-10T21:41:36.951Z</time>
      </trkpt>
      <trkpt lat="48.602132" lon="9.936437">
        <ele>678.636998</ele>
        <time>2025-11-10T21:41:49.014Z</time>
      </trkpt>
      <trkpt lat="48.602218" lon="9.936999">
        <ele>678.480048</ele>
        <time>2025-11-10T21:41:55.357Z</time>
      </trkpt>
      <trkpt lat="48.602330" lon="9.937438">
        <ele>678.352023</ele>
        <time>2025-11-10T21:41:59.332Z</time>
      </trkpt>
      <trkpt lat="48.602506" lon="9.937878">
        <ele>678.212110</ele>
        <time>2025-11-10T21:42:03.355Z</time>
      </trkpt>
      <trkpt lat="48.602617" lon="9.938081">
        <ele>678.140441</ele>
        <time>2025-11-10T21:42:05.339Z</time>
      </trkpt>
      <trkpt lat="48.602745" lon="9.938270">
        <ele>678.066835</ele>
        <time>2025-11-10T21:42:07.348Z</time>
      </trkpt>
      <trkpt lat="48.602923" lon="9.938466">
        <ele>677.883980</ele>
        <time>2025-11-10T21:42:09.762Z</time>
      </trkpt>
      <trkpt lat="48.603065" lon="9.938572">
        <ele>677.655567</ele>
        <time>2025-11-10T21:42:11.475Z</time>
      </trkpt>
      <trkpt lat="48.603297" lon="9.938669">
        <ele>677.308381</ele>
        <time>2025-11-10T21:42:14.037Z</time>
      </trkpt>
      <trkpt lat="48.603526" lon="9.938681">
        <ele>676.977878</ele>
        <time>2025-11-10T21:42:16.508Z</time>
      </trkpt>
      <trkpt lat="48.604362" lon="9.938547">
        <ele>675.765296</ele>
        <time>2025-11-10T21:42:26.210Z</time>
      </trkpt>
      <trkpt lat="48.604367" lon="9.939129">
        <ele>675.478530</ele>
        <time>2025-11-10T21:42:31.385Z</time>
      </trkpt>
      <trkpt lat="48.604397" lon="9.939860">
        <ele>675.678777</ele>
        <time>2025-11-10T21:42:39.035Z</time>
      </trkpt>
      <trkpt lat="48.604453" lon="9.940383">
        <ele>675.823633</ele>
        <time>2025-11-10T21:42:45.489Z</time>
      </trkpt>
      <trkpt lat="48.604437" lon="9.940796">
        <ele>675.936745</ele>
        <time>2025-11-10T21:42:50.647Z</time>
      </trkpt>
      <trkpt lat="48.604404" lon="9.941023">
        <ele>676.000291</ele>
        <time>2025-11-10T21:42:53.487Z</time>
      </trkpt>
      <trkpt lat="48.604349" lon="9.941170">
        <ele>676.046470</ele>
        <time>2025-11-10T21:42:55.531Z</time>
      </trkpt>
      <trkpt lat="48.604155" lon="9.941369">
        <ele>676.143396</ele>
        <time>2025-11-10T21:42:59.654Z</time>
      </trkpt>
      <trkpt lat="48.603942" lon="9.941522">
        <ele>676.163832</ele>
        <time>2025-11-10T21:43:03.654Z</time>
      </trkpt>
      <trkpt lat="48.603915" lon="9.941548">
        <ele>676.164069</ele>
        <time>2025-11-10T21:43:04.178Z</time>
      </trkpt>
      <trkpt lat="48.603792" lon="9.941722">
        <ele>676.165318</ele>
        <time>2025-11-10T21:43:06.881Z</time>
      </trkpt>
      <trkpt lat="48.603510" lon="9.942193">
        <ele>676.168434</ele>
        <time>2025-11-10T21:43:13.318Z</time>
      </trkpt>
      <trkpt lat="48.603402" lon="9.942427">
        <ele>676.169833</ele>
        <time>2025-11-10T21:43:16.051Z</time>
      </trkpt>
      <trkpt lat="48.603347" lon="9.942656">
        <ele>676.171028</ele>
        <time>2025-11-10T21:43:18.352Z</time>
      </trkpt>
      <trkpt lat="48.603225" lon="9.943420">
        <ele>676.174882</ele>
        <time>2025-11-10T21:43:25.525Z</time>
      </trkpt>
      <trkpt lat="48.603032" lon="9.944228">
        <ele>675.902130</ele>
        <time>2025-11-10T21:43:33.079Z</time>
      </trkpt>
      <trkpt lat="48.602994" lon="9.944483">
        <ele>675.796875</ele>
        <time>2025-11-10T21:43:35.294Z</time>
      </trkpt>
      <trkpt lat="48.602983" lon="9.944782">
        <ele>675.676291</ele>
        <time>2025-11-10T21:43:37.817Z</time>
      </trkpt>
      <trkpt lat="48.603035" lon="9.945113">
        <ele>675.539297</ele>
        <time>2025-11-10T21:43:40.681Z</time>
      </trkpt>
      <trkpt lat="48.603535" lon="9.946907">
        <ele>674.989391</ele>
        <time>2025-11-10T21:43:57.298Z</time>
      </trkpt>
      <trkpt lat="48.603671" lon="9.947526">
        <ele>674.915783</ele>
        <time>2025-11-10T21:44:03.007Z</time>
      </trkpt>
      <trkpt lat="48.603752" lon="9.948063">
        <ele>674.853626</ele>
        <time>2025-11-10T21:44:08.225Z</time>
      </trkpt>
      <trkpt lat="48.603780" lon="9.948370">
        <ele>674.818653</ele>
        <time>2025-11-10T21:44:11.400Z</time>
      </trkpt>
      <trkpt lat="48.603794" lon="9.949148">
        <ele>674.992216</ele>
        <time>2025-11-10T21:44:20.141Z</time>
      </trkpt>
      <trkpt lat="48.603653" lon="9.952191">
        <ele>675.898946</ele>
        <time>2025-11-10T21:44:58.440Z</time>
      </trkpt>
      <trkpt lat="48.603636" lon="9.952457">
        <ele>675.731263</ele>
        <time>2025-11-10T21:45:01.084Z</time>
      </trkpt>
      <trkpt lat="48.603552" lon="9.953205">
        <ele>675.255201</ele>
        <time>2025-11-10T21:45:07.500Z</time>
      </trkpt>
      <trkpt lat="48.603407" lon="9.953943">
        <ele>674.772125</ele>
        <time>2025-11-10T21:45:13.201Z</time>
      </trkpt>
      <trkpt lat="48.602771" lon="9.956318">
        <ele>667.842237</ele>
        <time>2025-11-10T21:45:29.687Z</time>
      </trkpt>
      <trkpt lat="48.602646" lon="9.956859">
        <ele>665.979877</ele>
        <time>2025-11-10T21:45:33.131Z</time>
      </trkpt>
      <trkpt lat="48.602570" lon="9.957351">
        <ele>664.004525</ele>
        <time>2025-11-10T21:45:36.127Z</time>
      </trkpt>
      <trkpt lat="48.602417" lon="9.959219">
        <ele>656.645397</ele>
        <time>2025-11-10T21:45:47.390Z</time>
      </trkpt>
      <trkpt lat="48.602400" lon="9.959392">
        <ele>656.053725</ele>
        <time>2025-11-10T21:45:48.492Z</time>
      </trkpt>
      <trkpt lat="48.601971" lon="9.962386">
        <ele>651.054171</ele>
        <time>2025-11-10T21:46:10.324Z</time>
      </trkpt>
      <trkpt lat="48.601567" lon="9.967495">
        <ele>647.748946</ele>
        <time>2025-11-10T21:46:53.132Z</time>
      </trkpt>
      <trkpt lat="48.601547" lon="9.968623">
        <ele>646.637463</ele>
        <time>2025-11-10T21:47:01.927Z</time>
      </trkpt>
      <trkpt lat="48.601551" lon="9.968765">
        <ele>646.497466</ele>
        <time>2025-11-10T21:47:03.005Z</time>
      </trkpt>
      <trkpt lat="48.601588" lon="9.970486">
        <ele>644.939828</ele>
        <time>2025-11-10T21:47:15.691Z</time>
      </trkpt>
      <trkpt lat="48.601657" lon="9.971183">
        <ele>644.513241</ele>
        <time>2025-11-10T21:47:21.055Z</time>
      </trkpt>
      <trkpt lat="48.601847" lon="9.972173">
        <ele>643.889281</ele>
        <time>2025-11-10T21:47:29.631Z</time>
      </trkpt>
      <trkpt lat="48.602008" lon="9.972843">
        <ele>643.532673</ele>
        <time>2025-11-10T21:47:36.436Z</time>
      </trkpt>
      <trkpt lat="48.602117" lon="9.973320">
        <ele>643.632707</ele>
        <time>2025-11-10T21:47:41.772Z</time>
      </trkpt>
      <trkpt lat="48.602203" lon="9.973921">
        <ele>643.754591</ele>
        <time>2025-11-10T21:47:48.510Z</time>
      </trkpt>
      <trkpt lat="48.602237" lon="9.974431">
        <ele>643.856193</ele>
        <time>2025-11-10T21:47:54.300Z</time>
      </trkpt>
      <trkpt lat="48.602241" lon="9.974481">
        <ele>643.866176</ele>
        <time>2025-11-10T21:47:54.865Z</time>
      </trkpt>
      <trkpt lat="48.602343" lon="9.977075">
        <ele>643.913375</ele>
        <time>2025-11-10T21:48:22.773Z</time>
      </trkpt>
      <trkpt lat="48.602313" lon="9.978169">
        <ele>643.787028</ele>
        <time>2025-11-10T21:48:32.099Z</time>
      </trkpt>
      <trkpt lat="48.602311" lon="9.978354">
        <ele>643.559050</ele>
        <time>2025-11-10T21:48:33.579Z</time>
      </trkpt>
      <trkpt lat="48.602460" lon="9.979766">
        <ele>641.797249</ele>
        <time>2025-11-10T21:48:44.441Z</time>
      </trkpt>
      <trkpt lat="48.602465" lon="9.980255">
        <ele>641.194658</ele>
        <time>2025-11-10T21:48:47.973Z</time>
      </trkpt>
      <trkpt lat="48.602354" lon="9.980659">
        <ele>640.655616</ele>
        <time>2025-11-10T21:48:51.054Z</time>
      </trkpt>
      <trkpt lat="48.602138" lon="9.981001">
        <ele>639.491155</ele>
        <time>2025-11-10T21:48:54.260Z</time>
      </trkpt>
      <trkpt lat="48.602009" lon="9.981099">
        <ele>638.829944</ele>
        <time>2025-11-10T21:48:55.698Z</time>
      </trkpt>
      <trkpt lat="48.601521" lon="9.981259">
        <ele>636.542884</ele>
        <time>2025-11-10T21:49:00.545Z</time>
      </trkpt>
      <trkpt lat="48.600341" lon="9.981565">
        <ele>630.708970</ele>
        <time>2025-11-10T21:49:11.660Z</time>
      </trkpt>
      <trkpt lat="48.599480" lon="9.981754">
        <ele>625.535119</ele>
        <time>2025-11-10T21:49:19.602Z</time>
      </trkpt>
      <trkpt lat="48.599101" lon="9.981754">
        <ele>623.281288</ele>
        <time>2025-11-10T21:49:23.037Z</time>
      </trkpt>
      <trkpt lat="48.598184" lon="9.981585">
        <ele>621.537949</ele>
        <time>2025-11-10T21:49:31.590Z</time>
      </trkpt>
      <trkpt lat="48.597741" lon="9.981620">
        <ele>621.538185</ele>
        <time>2025-11-10T21:49:37.178Z</time>
      </trkpt>
      <trkpt lat="48.597438" lon="9.981797">
        <ele>621.538357</ele>
        <time>2025-11-10T21:49:44.957Z</time>
      </trkpt>
      <trkpt lat="48.597308" lon="9.981873">
        <ele>621.538431</ele>
        <time>2025-11-10T21:49:49.392Z</time>
      </trkpt>
      <trkpt lat="48.597118" lon="9.981983">
        <ele>621.538538</ele>
        <time>2025-11-10T21:49:57.209Z</time>
      </trkpt>
      <trkpt lat="48.596734" lon="9.982123">
        <ele>624.935932</ele>
        <time>2025-11-10T21:50:16.209Z</time>
      </trkpt>
      <trkpt lat="48.596411" lon="9.982063">
        <ele>628.205058</ele>
        <time>2025-11-10T21:50:35.597Z</time>
      </trkpt>
      <trkpt lat="48.596176" lon="9.981844">
        <ele>630.978138</ele>
        <time>2025-11-10T21:50:53.856Z</time>
      </trkpt>
      <trkpt lat="48.595927" lon="9.981127">
        <ele>636.358540</ele>
        <time>2025-11-10T21:51:27.371Z</time>
      </trkpt>
      <trkpt lat="48.595662" lon="9.980809">
        <ele>639.713210</ele>
        <time>2025-11-10T21:51:46.550Z</time>
      </trkpt>
      <trkpt lat="48.595539" lon="9.980750">
        <ele>640.630224</ele>
        <time>2025-11-10T21:51:53.524Z</time>
      </trkpt>
      <trkpt lat="48.595409" lon="9.980734">
        <ele>641.557108</ele>
        <time>2025-11-10T21:52:00.358Z</time>
      </trkpt>
      <trkpt lat="48.595304" lon="9.980763">
        <ele>642.315623</ele>
        <time>2025-11-10T21:52:05.716Z</time>
      </trkpt>
      <trkpt lat="48.595152" lon="9.980904">
        <ele>643.582876</ele>
        <time>2025-11-10T21:52:14.259Z</time>
      </trkpt>
      <trkpt lat="48.595059" lon="9.981075">
        <ele>644.623409</ele>
        <time>2025-11-10T21:52:20.914Z</time>
      </trkpt>
      <trkpt lat="48.595008" lon="9.981269">
        <ele>645.604596</ele>
        <time>2025-11-10T21:52:26.889Z</time>
      </trkpt>
      <trkpt lat="48.594892" lon="9.982057">
        <ele>649.398824</ele>
        <time>2025-11-10T21:52:47.628Z</time>
      </trkpt>
      <trkpt lat="48.594775" lon="9.982463">
        <ele>651.480300</ele>
        <time>2025-11-10T21:52:57.758Z</time>
      </trkpt>
      <trkpt lat="48.594645" lon="9.982729">
        <ele>652.670953</ele>
        <time>2025-11-10T21:53:05.186Z</time>
      </trkpt>
      <trkpt lat="48.594499" lon="9.982929">
        <ele>653.282365</ele>
        <time>2025-11-10T21:53:12.033Z</time>
      </trkpt>
      <trkpt lat="48.594245" lon="9.983149">
        <ele>654.190821</ele>
        <time>2025-11-10T21:53:22.509Z</time>
      </trkpt>
      <trkpt lat="48.593230" lon="9.983729">
        <ele>657.558285</ele>
        <time>2025-11-10T21:53:53.722Z</time>
      </trkpt>
      <trkpt lat="48.592597" lon="9.984051">
        <ele>655.264813</ele>
        <time>2025-11-10T21:54:01.405Z</time>
      </trkpt>
      <trkpt lat="48.591232" lon="9.984746">
        <ele>647.588643</ele>
        <time>2025-11-10T21:54:14.269Z</time>
      </trkpt>
      <trkpt lat="48.589838" lon="9.985259">
        <ele>637.163054</ele>
        <time>2025-11-10T21:54:26.929Z</time>
      </trkpt>
      <trkpt lat="48.589623" lon="9.985377">
        <ele>635.719658</ele>
        <time>2025-11-10T21:54:29.056Z</time>
      </trkpt>
      <trkpt lat="48.589389" lon="9.985542">
        <ele>635.207585</ele>
        <time>2025-11-10T21:54:31.515Z</time>
      </trkpt>
      <trkpt lat="48.589127" lon="9.985790">
        <ele>634.594532</ele>
        <time>2025-11-10T21:54:34.603Z</time>
      </trkpt>
      <trkpt lat="48.588533" lon="9.986534">
        <ele>633.064706</ele>
        <time>2025-11-10T21:54:43.734Z</time>
      </trkpt>
      <trkpt lat="48.588459" lon="9.986641">
        <ele>632.861626</ele>
        <time>2025-11-10T21:54:45.302Z</time>
      </trkpt>
      <trkpt lat="48.588291" lon="9.986889">
        <ele>632.395949</ele>
        <time>2025-11-10T21:54:49.303Z</time>
      </trkpt>
      <trkpt lat="48.588162" lon="9.987162">
        <ele>632.307384</ele>
        <time>2025-11-10T21:54:53.791Z</time>
      </trkpt>
      <trkpt lat="48.588018" lon="9.987574">
        <ele>632.466943</ele>
        <time>2025-11-10T21:55:00.662Z</time>
      </trkpt>
      <trkpt lat="48.587977" lon="9.987912">
        <ele>632.584609</ele>
        <time>2025-11-10T21:55:05.815Z</time>
      </trkpt>
      <trkpt lat="48.588029" lon="9.988179">
        <ele>632.679915</ele>
        <time>2025-11-10T21:55:09.842Z</time>
      </trkpt>
      <trkpt lat="48.588129" lon="9.988491">
        <ele>632.798630</ele>
        <time>2025-11-10T21:55:14.442Z</time>
      </trkpt>
      <trkpt lat="48.588190" lon="9.988753">
        <ele>632.893737</ele>
        <time>2025-11-10T21:55:17.591Z</time>
      </trkpt>
      <trkpt lat="48.588197" lon="9.988936">
        <ele>632.956504</ele>
        <time>2025-11-10T21:55:19.460Z</time>
      </trkpt>
      <trkpt lat="48.588200" lon="9.989019">
        <ele>632.984967</ele>
        <time>2025-11-10T21:55:20.242Z</time>
      </trkpt>
      <trkpt lat="48.588202" lon="9.989431">
        <ele>633.126046</ele>
        <time>2025-11-10T21:55:23.869Z</time>
      </trkpt>
      <trkpt lat="48.588197" lon="9.989522">
        <ele>633.157313</ele>
        <time>2025-11-10T21:55:24.616Z</time>
      </trkpt>
      <trkpt lat="48.588178" lon="9.989864">
        <ele>632.493222</ele>
        <time>2025-11-10T21:55:27.265Z</time>
      </trkpt>
      <trkpt lat="48.588168" lon="9.990047">
        <ele>632.105774</ele>
        <time>2025-11-10T21:55:28.583Z</time>
      </trkpt>
      <trkpt lat="48.588160" lon="9.990184">
        <ele>631.815578</ele>
        <time>2025-11-10T21:55:29.536Z</time>
      </trkpt>
      <trkpt lat="48.588146" lon="9.990448">
        <ele>631.256747</ele>
        <time>2025-11-10T21:55:31.322Z</time>
      </trkpt>
      <trkpt lat="48.588142" lon="9.990507">
        <ele>631.131604</ele>
        <time>2025-11-10T21:55:31.717Z</time>
      </trkpt>
      <trkpt lat="48.588133" lon="9.990662">
        <ele>630.803294</ele>
        <time>2025-11-10T21:55:32.731Z</time>
      </trkpt>
      <trkpt lat="48.588054" lon="9.991746">
        <ele>628.502195</ele>
        <time>2025-11-10T21:55:39.690Z</time>
      </trkpt>
      <trkpt lat="48.587984" lon="9.992652">
        <ele>626.336837</ele>
        <time>2025-11-10T21:55:45.602Z</time>
      </trkpt>
      <trkpt lat="48.587912" lon="9.993350">
        <ele>624.424508</ele>
        <time>2025-11-10T21:55:50.257Z</time>
      </trkpt>
      <trkpt lat="48.587799" lon="9.993849">
        <ele>622.996742</ele>
        <time>2025-11-10T21:55:53.756Z</time>
      </trkpt>
      <trkpt lat="48.587711" lon="9.994124">
        <ele>622.169777</ele>
        <time>2025-11-10T21:55:55.751Z</time>
      </trkpt>
      <trkpt lat="48.587468" lon="9.994654">
        <ele>620.424101</ele>
        <time>2025-11-10T21:55:59.878Z</time>
      </trkpt>
      <trkpt lat="48.587210" lon="9.995057">
        <ele>618.178667</ele>
        <time>2025-11-10T21:56:03.378Z</time>
      </trkpt>
      <trkpt lat="48.586361" lon="9.995928">
        <ele>611.350698</ele>
        <time>2025-11-10T21:56:12.605Z</time>
      </trkpt>
      <trkpt lat="48.586150" lon="9.996255">
        <ele>609.339812</ele>
        <time>2025-11-10T21:56:15.273Z</time>
      </trkpt>
      <trkpt lat="48.585775" lon="9.996991">
        <ele>605.466042</ele>
        <time>2025-11-10T21:56:20.714Z</time>
      </trkpt>
      <trkpt lat="48.585285" lon="9.998106">
        <ele>600.019838</ele>
        <time>2025-11-10T21:56:28.765Z</time>
      </trkpt>
      <trkpt lat="48.585084" lon="9.998691">
        <ele>597.337843</ele>
        <time>2025-11-10T21:56:32.925Z</time>
      </trkpt>
      <trkpt lat="48.585034" lon="9.998955">
        <ele>596.581530</ele>
        <time>2025-11-10T21:56:34.688Z</time>
      </trkpt>
      <trkpt lat="48.585003" lon="9.999432">
        <ele>595.495094</ele>
        <time>2025-11-10T21:56:37.787Z</time>
      </trkpt>
      <trkpt lat="48.585221" lon="10.001774">
        <ele>590.721104</ele>
        <time>2025-11-10T21:56:53.535Z</time>
      </trkpt>
      <trkpt lat="48.585381" lon="10.003310">
        <ele>589.999006</ele>
        <time>2025-11-10T21:57:07.082Z</time>
      </trkpt>
      <trkpt lat="48.585472" lon="10.003900">
        <ele>589.717665</ele>
        <time>2025-11-10T21:57:12.879Z</time>
      </trkpt>
      <trkpt lat="48.585526" lon="10.004072">
        <ele>589.629250</ele>
        <time>2025-11-10T21:57:14.908Z</time>
      </trkpt>
      <trkpt lat="48.585571" lon="10.004187">
        <ele>589.817863</ele>
        <time>2025-11-10T21:57:16.361Z</time>
      </trkpt>
      <trkpt lat="48.585718" lon="10.004410">
        <ele>590.534920</ele>
        <time>2025-11-10T21:57:20.201Z</time>
      </trkpt>
      <trkpt lat="48.586092" lon="10.004694">
        <ele>591.976006</ele>
        <time>2025-11-10T21:57:30.508Z</time>
      </trkpt>
      <trkpt lat="48.586627" lon="10.004795">
        <ele>593.832421</ele>
        <time>2025-11-10T21:57:47.536Z</time>
      </trkpt>
      <trkpt lat="48.586836" lon="10.004983">
        <ele>594.669805</ele>
        <time>2025-11-10T21:57:55.739Z</time>
      </trkpt>
      <trkpt lat="48.586900" lon="10.005161">
        <ele>595.131240</ele>
        <time>2025-11-10T21:58:00.583Z</time>
      </trkpt>
      <trkpt lat="48.587005" lon="10.005721">
        <ele>596.414962</ele>
        <time>2025-11-10T21:58:15.494Z</time>
      </trkpt>
      <trkpt lat="48.587153" lon="10.006208">
        <ele>597.557273</ele>
        <time>2025-11-10T21:58:28.560Z</time>
      </trkpt>
      <trkpt lat="48.587154" lon="10.006364">
        <ele>597.889790</ele>
        <time>2025-11-10T21:58:32.056Z</time>
      </trkpt>
      <trkpt lat="48.587092" lon="10.006471">
        <ele>598.192979</ele>
        <time>2025-11-10T21:58:35.076Z</time>
      </trkpt>
      <trkpt lat="48.587001" lon="10.006544">
        <ele>598.524924</ele>
        <time>2025-11-10T21:58:38.166Z</time>
      </trkpt>
      <trkpt lat="48.586915" lon="10.006528">
        <ele>598.804124</ele>
        <time>2025-11-10T21:58:40.590Z</time>
      </trkpt>
      <trkpt lat="48.586832" lon="10.006412">
        <ele>599.168345</ele>
        <time>2025-11-10T21:58:43.547Z</time>
      </trkpt>
      <trkpt lat="48.586719" lon="10.005697">
        <ele>600.735216</ele>
        <time>2025-11-10T21:58:53.353Z</time>
      </trkpt>
      <trkpt lat="48.586598" lon="10.005445">
        <ele>601.398928</ele>
        <time>2025-11-10T21:58:56.693Z</time>
      </trkpt>
      <trkpt lat="48.586458" lon="10.005344">
        <ele>602.033430</ele>
        <time>2025-11-10T21:58:59.260Z</time>
      </trkpt>
      <trkpt lat="48.586304" lon="10.005301">
        <ele>602.764203</ele>
        <time>2025-11-10T21:59:02.114Z</time>
      </trkpt>
      <trkpt lat="48.586145" lon="10.005318">
        <ele>603.508006</ele>
        <time>2025-11-10T21:59:05.384Z</time>
      </trkpt>
      <trkpt lat="48.586016" lon="10.005386">
        <ele>604.145511</ele>
        <time>2025-11-10T21:59:08.578Z</time>
      </trkpt>
      <trkpt lat="48.585875" lon="10.005552">
        <ele>604.979456</ele>
        <time>2025-11-10T21:59:13.323Z</time>
      </trkpt>
      <trkpt lat="48.585704" lon="10.006006">
        <ele>606.592104</ele>
        <time>2025-11-10T21:59:24.592Z</time>
      </trkpt>
      <trkpt lat="48.585436" lon="10.007257">
        <ele>611.180242</ele>
        <time>2025-11-10T22:00:04.076Z</time>
      </trkpt>
      <trkpt lat="48.584826" lon="10.009216">
        <ele>623.224057</ele>
        <time>2025-11-10T22:01:17.359Z</time>
      </trkpt>
      <trkpt lat="48.584534" lon="10.009813">
        <ele>626.570729</ele>
        <time>2025-11-10T22:01:39.444Z</time>
      </trkpt>
      <trkpt lat="48.583908" lon="10.010682">
        <ele>631.216200</ele>
        <time>2025-11-10T22:02:12.243Z</time>
      </trkpt>
      <trkpt lat="48.583706" lon="10.010837">
        <ele>632.454405</ele>
        <time>2025-11-10T22:02:20.098Z</time>
      </trkpt>
      <trkpt lat="48.583531" lon="10.010923">
        <ele>633.460208</ele>
        <time>2025-11-10T22:02:26.258Z</time>
      </trkpt>
      <trkpt lat="48.583343" lon="10.010964">
        <ele>634.498430</ele>
        <time>2025-11-10T22:02:31.980Z</time>
      </trkpt>
      <trkpt lat="48.582699" lon="10.011048">
        <ele>635.637229</ele>
        <time>2025-11-10T22:02:47.368Z</time>
      </trkpt>
      <trkpt lat="48.582473" lon="10.011172">
        <ele>635.931284</ele>
        <time>2025-11-10T22:02:52.015Z</time>
      </trkpt>
      <trkpt lat="48.582265" lon="10.011430">
        <ele>636.260363</ele>
        <time>2025-11-10T22:02:56.808Z</time>
      </trkpt>
      <trkpt lat="48.582174" lon="10.011690">
        <ele>636.498358</ele>
        <time>2025-11-10T22:03:00.049Z</time>
      </trkpt>
      <trkpt lat="48.582088" lon="10.011980">
        <ele>636.755496</ele>
        <time>2025-11-10T22:03:03.272Z</time>
      </trkpt>
      <trkpt lat="48.582044" lon="10.012670">
        <ele>637.137956</ele>
        <time>2025-11-10T22:03:09.525Z</time>
      </trkpt>
      <trkpt lat="48.582042" lon="10.013537">
        <ele>637.101038</ele>
        <time>2025-11-10T22:03:18.087Z</time>
      </trkpt>
      <trkpt lat="48.582107" lon="10.014466">
        <ele>637.061261</ele>
        <time>2025-11-10T22:03:28.276Z</time>
      </trkpt>
      <trkpt lat="48.582247" lon="10.016513">
        <ele>635.248329</ele>
        <time>2025-11-10T22:03:45.866Z</time>
      </trkpt>
      <trkpt lat="48.582273" lon="10.016969">
        <ele>634.643795</ele>
        <time>2025-11-10T22:03:49.081Z</time>
      </trkpt>
      <trkpt lat="48.582411" lon="10.018348">
        <ele>631.847048</ele>
        <time>2025-11-10T22:03:58.297Z</time>
      </trkpt>
      <trkpt lat="48.582556" lon="10.019644">
        <ele>627.514552</ele>
        <time>2025-11-10T22:04:06.476Z</time>
      </trkpt>
      <trkpt lat="48.582603" lon="10.020072">
        <ele>626.084490</ele>
        <time>2025-11-10T22:04:09.127Z</time>
      </trkpt>
      <trkpt lat="48.582668" lon="10.020664">
        <ele>624.478095</ele>
        <time>2025-11-10T22:04:12.772Z</time>
      </trkpt>
      <trkpt lat="48.582748" lon="10.021394">
        <ele>624.478095</ele>
        <time>2025-11-10T22:04:17.245Z</time>
      </trkpt>
      <trkpt lat="48.582782" lon="10.021694">
        <ele>624.478095</ele>
        <time>2025-11-10T22:04:19.083Z</time>
      </trkpt>
      <trkpt lat="48.582791" lon="10.021823">
        <ele>624.478095</ele>
        <time>2025-11-10T22:04:19.878Z</time>
      </trkpt>
      <trkpt lat="48.582473" lon="10.021885">
        <ele>624.478095</ele>
        <time>2025-11-10T22:04:24.214Z</time>
      </trkpt>
      <trkpt lat="48.582127" lon="10.021952">
        <ele>624.478095</ele>
        <time>2025-11-10T22:04:29.121Z</time>
      </trkpt>
      <trkpt lat="48.582035" lon="10.021996">
        <ele>624.478095</ele>
        <time>2025-11-10T22:04:30.516Z</time>
      </trkpt>
    </trkseg>
  </trk>
</gpx>